<?xml version="1.0" encoding="UTF-8" standalone="no" ?>
<gpx xmlns="http://www.topografix.com/GPX/1/1" xmlns:xsi="http://www.w3.org/2001/XMLSchema-instance" xsi:schemaLocation="http://www.topografix.com/GPX/1/1 http://www.topografix.com/GPX/1/1/gpx.xsd" version="1.1" creator="VisuGPX - https://www.visugpx.com">
  <metadata>
    <name>Oppidum de Murviel Lès Montpellier</name>
    <desc><![CDATA[En ce début d'année 2024 les Pousse-Cailloux découvrent l'Oppidum de Murviel lès Montpellier avec des vues sur Ventoux, le Baudille,  un magnifique panorama sur la plaine, le massif de la Gardiole, la côte méditerranéenne du mont St Clair au mont St Loup et l'étang de Thau, tour du village en passant par l'église et les petites rues et bien entendu le chêne blanc sur le parcours et ruine d'un télégraphe.
]]></desc>
  </metadata>
  <trk>
    <name><![CDATA[Randonnée du 12/01/2024 à 09:13]]></name>
    <trkseg>
      <trkpt lat="43.6075" lon="3.73166">
        <ele>141</ele>
        <time>2024-01-12T09:13:01+01:00</time>
      </trkpt>
      <trkpt lat="43.60726" lon="3.73361">
        <ele>135</ele>
        <time>2024-01-12T09:13:05+01:00</time>
      </trkpt>
      <trkpt lat="43.60726" lon="3.73292">
        <ele>136</ele>
        <time>2024-01-12T09:13:09+01:00</time>
      </trkpt>
      <trkpt lat="43.60769" lon="3.73299">
        <ele>136</ele>
        <time>2024-01-12T09:13:14+01:00</time>
      </trkpt>
      <trkpt lat="43.60788" lon="3.73256">
        <ele>140</ele>
        <time>2024-01-12T09:13:19+01:00</time>
      </trkpt>
      <trkpt lat="43.60783" lon="3.73245">
        <ele>140</ele>
        <time>2024-01-12T09:13:59+01:00</time>
      </trkpt>
      <trkpt lat="43.60791" lon="3.7324">
        <ele>140</ele>
        <time>2024-01-12T09:15:46+01:00</time>
      </trkpt>
      <trkpt lat="43.60801" lon="3.73246">
        <ele>141</ele>
        <time>2024-01-12T09:16:00+01:00</time>
      </trkpt>
      <trkpt lat="43.60805" lon="3.73258">
        <ele>141</ele>
        <time>2024-01-12T09:16:14+01:00</time>
      </trkpt>
      <trkpt lat="43.60802" lon="3.73276">
        <ele>140</ele>
        <time>2024-01-12T09:16:23+01:00</time>
      </trkpt>
      <trkpt lat="43.60801" lon="3.73296">
        <ele>139</ele>
        <time>2024-01-12T09:16:37+01:00</time>
      </trkpt>
      <trkpt lat="43.60799" lon="3.73313">
        <ele>138</ele>
        <time>2024-01-12T09:16:47+01:00</time>
      </trkpt>
      <trkpt lat="43.6081" lon="3.73314">
        <ele>140</ele>
        <time>2024-01-12T09:16:56+01:00</time>
      </trkpt>
      <trkpt lat="43.60819" lon="3.73308">
        <ele>141</ele>
        <time>2024-01-12T09:17:05+01:00</time>
      </trkpt>
      <trkpt lat="43.60828" lon="3.73306">
        <ele>142</ele>
        <time>2024-01-12T09:17:30+01:00</time>
      </trkpt>
      <trkpt lat="43.60834" lon="3.73296">
        <ele>143</ele>
        <time>2024-01-12T09:17:44+01:00</time>
      </trkpt>
      <trkpt lat="43.60845" lon="3.73289">
        <ele>144</ele>
        <time>2024-01-12T09:17:53+01:00</time>
      </trkpt>
      <trkpt lat="43.60855" lon="3.73283">
        <ele>145</ele>
        <time>2024-01-12T09:18:04+01:00</time>
      </trkpt>
      <trkpt lat="43.60865" lon="3.73286">
        <ele>146</ele>
        <time>2024-01-12T09:18:13+01:00</time>
      </trkpt>
      <trkpt lat="43.60874" lon="3.73289">
        <ele>147</ele>
        <time>2024-01-12T09:18:23+01:00</time>
      </trkpt>
      <trkpt lat="43.60878" lon="3.73304">
        <ele>148</ele>
        <time>2024-01-12T09:18:42+01:00</time>
      </trkpt>
      <trkpt lat="43.60879" lon="3.73318">
        <ele>148</ele>
        <time>2024-01-12T09:18:51+01:00</time>
      </trkpt>
      <trkpt lat="43.60877" lon="3.73332">
        <ele>148</ele>
        <time>2024-01-12T09:19:01+01:00</time>
      </trkpt>
      <trkpt lat="43.60877" lon="3.73348">
        <ele>147</ele>
        <time>2024-01-12T09:19:10+01:00</time>
      </trkpt>
      <trkpt lat="43.60878" lon="3.73362">
        <ele>147</ele>
        <time>2024-01-12T09:19:19+01:00</time>
      </trkpt>
      <trkpt lat="43.6088" lon="3.73377">
        <ele>147</ele>
        <time>2024-01-12T09:19:29+01:00</time>
      </trkpt>
      <trkpt lat="43.60883" lon="3.73389">
        <ele>147</ele>
        <time>2024-01-12T09:19:38+01:00</time>
      </trkpt>
      <trkpt lat="43.60892" lon="3.73393">
        <ele>148</ele>
        <time>2024-01-12T09:19:48+01:00</time>
      </trkpt>
      <trkpt lat="43.60901" lon="3.734">
        <ele>150</ele>
        <time>2024-01-12T09:20:06+01:00</time>
      </trkpt>
      <trkpt lat="43.60912" lon="3.73406">
        <ele>151</ele>
        <time>2024-01-12T09:20:16+01:00</time>
      </trkpt>
      <trkpt lat="43.60922" lon="3.73406">
        <ele>153</ele>
        <time>2024-01-12T09:20:25+01:00</time>
      </trkpt>
      <trkpt lat="43.60928" lon="3.7342">
        <ele>154</ele>
        <time>2024-01-12T09:21:28+01:00</time>
      </trkpt>
      <trkpt lat="43.60935" lon="3.73431">
        <ele>154</ele>
        <time>2024-01-12T09:21:47+01:00</time>
      </trkpt>
      <trkpt lat="43.60945" lon="3.73439">
        <ele>156</ele>
        <time>2024-01-12T09:24:30+01:00</time>
      </trkpt>
      <trkpt lat="43.6095" lon="3.73451">
        <ele>156</ele>
        <time>2024-01-12T09:24:49+01:00</time>
      </trkpt>
      <trkpt lat="43.60946" lon="3.73462">
        <ele>153</ele>
        <time>2024-01-12T09:25:33+01:00</time>
      </trkpt>
      <trkpt lat="43.60936" lon="3.73474">
        <ele>151</ele>
        <time>2024-01-12T09:26:11+01:00</time>
      </trkpt>
      <trkpt lat="43.60925" lon="3.73475">
        <ele>149</ele>
        <time>2024-01-12T09:26:24+01:00</time>
      </trkpt>
      <trkpt lat="43.60915" lon="3.73466">
        <ele>148</ele>
        <time>2024-01-12T09:27:14+01:00</time>
      </trkpt>
      <trkpt lat="43.60909" lon="3.73456">
        <ele>148</ele>
        <time>2024-01-12T09:27:23+01:00</time>
      </trkpt>
      <trkpt lat="43.60917" lon="3.73442">
        <ele>149</ele>
        <time>2024-01-12T09:27:38+01:00</time>
      </trkpt>
      <trkpt lat="43.60907" lon="3.73439">
        <ele>148</ele>
        <time>2024-01-12T09:27:47+01:00</time>
      </trkpt>
      <trkpt lat="43.60899" lon="3.73444">
        <ele>147</ele>
        <time>2024-01-12T09:27:57+01:00</time>
      </trkpt>
      <trkpt lat="43.60897" lon="3.73457">
        <ele>147</ele>
        <time>2024-01-12T09:28:54+01:00</time>
      </trkpt>
      <trkpt lat="43.60901" lon="3.73443">
        <ele>147</ele>
        <time>2024-01-12T09:29:42+01:00</time>
      </trkpt>
      <trkpt lat="43.60913" lon="3.73439">
        <ele>149</ele>
        <time>2024-01-12T09:30:16+01:00</time>
      </trkpt>
      <trkpt lat="43.60916" lon="3.73454">
        <ele>149</ele>
        <time>2024-01-12T09:30:25+01:00</time>
      </trkpt>
      <trkpt lat="43.60916" lon="3.73468">
        <ele>148</ele>
        <time>2024-01-12T09:30:34+01:00</time>
      </trkpt>
      <trkpt lat="43.6092" lon="3.7348">
        <ele>148</ele>
        <time>2024-01-12T09:30:43+01:00</time>
      </trkpt>
      <trkpt lat="43.60908" lon="3.7349">
        <ele>147</ele>
        <time>2024-01-12T09:31:26+01:00</time>
      </trkpt>
      <trkpt lat="43.60917" lon="3.735">
        <ele>147</ele>
        <time>2024-01-12T09:32:16+01:00</time>
      </trkpt>
      <trkpt lat="43.60913" lon="3.73513">
        <ele>146</ele>
        <time>2024-01-12T09:32:58+01:00</time>
      </trkpt>
      <trkpt lat="43.60901" lon="3.73516">
        <ele>146</ele>
        <time>2024-01-12T09:33:45+01:00</time>
      </trkpt>
      <trkpt lat="43.60906" lon="3.73531">
        <ele>146</ele>
        <time>2024-01-12T09:34:18+01:00</time>
      </trkpt>
      <trkpt lat="43.60907" lon="3.73547">
        <ele>145</ele>
        <time>2024-01-12T09:34:27+01:00</time>
      </trkpt>
      <trkpt lat="43.60913" lon="3.73558">
        <ele>145</ele>
        <time>2024-01-12T09:34:36+01:00</time>
      </trkpt>
      <trkpt lat="43.60916" lon="3.73571">
        <ele>144</ele>
        <time>2024-01-12T09:34:46+01:00</time>
      </trkpt>
      <trkpt lat="43.6092" lon="3.73583">
        <ele>144</ele>
        <time>2024-01-12T09:34:55+01:00</time>
      </trkpt>
      <trkpt lat="43.60926" lon="3.73596">
        <ele>144</ele>
        <time>2024-01-12T09:35:04+01:00</time>
      </trkpt>
      <trkpt lat="43.6093" lon="3.7361">
        <ele>143</ele>
        <time>2024-01-12T09:35:14+01:00</time>
      </trkpt>
      <trkpt lat="43.60935" lon="3.73624">
        <ele>143</ele>
        <time>2024-01-12T09:35:23+01:00</time>
      </trkpt>
      <trkpt lat="43.6094" lon="3.73637">
        <ele>143</ele>
        <time>2024-01-12T09:35:32+01:00</time>
      </trkpt>
      <trkpt lat="43.60943" lon="3.7365">
        <ele>143</ele>
        <time>2024-01-12T09:35:41+01:00</time>
      </trkpt>
      <trkpt lat="43.60948" lon="3.73665">
        <ele>142</ele>
        <time>2024-01-12T09:35:50+01:00</time>
      </trkpt>
      <trkpt lat="43.60949" lon="3.7368">
        <ele>142</ele>
        <time>2024-01-12T09:36:00+01:00</time>
      </trkpt>
      <trkpt lat="43.60942" lon="3.73691">
        <ele>142</ele>
        <time>2024-01-12T09:36:09+01:00</time>
      </trkpt>
      <trkpt lat="43.60936" lon="3.73702">
        <ele>141</ele>
        <time>2024-01-12T09:36:23+01:00</time>
      </trkpt>
      <trkpt lat="43.60927" lon="3.73716">
        <ele>141</ele>
        <time>2024-01-12T09:36:46+01:00</time>
      </trkpt>
      <trkpt lat="43.60919" lon="3.73729">
        <ele>141</ele>
        <time>2024-01-12T09:36:56+01:00</time>
      </trkpt>
      <trkpt lat="43.60912" lon="3.73738">
        <ele>141</ele>
        <time>2024-01-12T09:37:05+01:00</time>
      </trkpt>
      <trkpt lat="43.60904" lon="3.7375">
        <ele>141</ele>
        <time>2024-01-12T09:37:14+01:00</time>
      </trkpt>
      <trkpt lat="43.60895" lon="3.7376">
        <ele>140</ele>
        <time>2024-01-12T09:37:23+01:00</time>
      </trkpt>
      <trkpt lat="43.60888" lon="3.73773">
        <ele>140</ele>
        <time>2024-01-12T09:37:33+01:00</time>
      </trkpt>
      <trkpt lat="43.60882" lon="3.73786">
        <ele>140</ele>
        <time>2024-01-12T09:37:42+01:00</time>
      </trkpt>
      <trkpt lat="43.60881" lon="3.73801">
        <ele>140</ele>
        <time>2024-01-12T09:37:51+01:00</time>
      </trkpt>
      <trkpt lat="43.60879" lon="3.73816">
        <ele>140</ele>
        <time>2024-01-12T09:38:01+01:00</time>
      </trkpt>
      <trkpt lat="43.60878" lon="3.73832">
        <ele>140</ele>
        <time>2024-01-12T09:38:10+01:00</time>
      </trkpt>
      <trkpt lat="43.60876" lon="3.73848">
        <ele>140</ele>
        <time>2024-01-12T09:38:19+01:00</time>
      </trkpt>
      <trkpt lat="43.60875" lon="3.73864">
        <ele>140</ele>
        <time>2024-01-12T09:38:43+01:00</time>
      </trkpt>
      <trkpt lat="43.60875" lon="3.7388">
        <ele>140</ele>
        <time>2024-01-12T09:38:52+01:00</time>
      </trkpt>
      <trkpt lat="43.60876" lon="3.73894">
        <ele>140</ele>
        <time>2024-01-12T09:39:02+01:00</time>
      </trkpt>
      <trkpt lat="43.60876" lon="3.73908">
        <ele>140</ele>
        <time>2024-01-12T09:39:10+01:00</time>
      </trkpt>
      <trkpt lat="43.60876" lon="3.73921">
        <ele>140</ele>
        <time>2024-01-12T09:39:20+01:00</time>
      </trkpt>
      <trkpt lat="43.60876" lon="3.73941">
        <ele>140</ele>
        <time>2024-01-12T09:39:34+01:00</time>
      </trkpt>
      <trkpt lat="43.60874" lon="3.73955">
        <ele>140</ele>
        <time>2024-01-12T09:39:43+01:00</time>
      </trkpt>
      <trkpt lat="43.60874" lon="3.7397">
        <ele>139</ele>
        <time>2024-01-12T09:39:53+01:00</time>
      </trkpt>
      <trkpt lat="43.60874" lon="3.73983">
        <ele>138</ele>
        <time>2024-01-12T09:40:02+01:00</time>
      </trkpt>
      <trkpt lat="43.60874" lon="3.74001">
        <ele>137</ele>
        <time>2024-01-12T09:40:16+01:00</time>
      </trkpt>
      <trkpt lat="43.60874" lon="3.74015">
        <ele>136</ele>
        <time>2024-01-12T09:40:25+01:00</time>
      </trkpt>
      <trkpt lat="43.60872" lon="3.7403">
        <ele>135</ele>
        <time>2024-01-12T09:40:34+01:00</time>
      </trkpt>
      <trkpt lat="43.60867" lon="3.74044">
        <ele>135</ele>
        <time>2024-01-12T09:40:44+01:00</time>
      </trkpt>
      <trkpt lat="43.60866" lon="3.74058">
        <ele>134</ele>
        <time>2024-01-12T09:40:53+01:00</time>
      </trkpt>
      <trkpt lat="43.60866" lon="3.74071">
        <ele>132</ele>
        <time>2024-01-12T09:41:02+01:00</time>
      </trkpt>
      <trkpt lat="43.60869" lon="3.74085">
        <ele>131</ele>
        <time>2024-01-12T09:41:11+01:00</time>
      </trkpt>
      <trkpt lat="43.60875" lon="3.74098">
        <ele>130</ele>
        <time>2024-01-12T09:41:20+01:00</time>
      </trkpt>
      <trkpt lat="43.6088" lon="3.74112">
        <ele>129</ele>
        <time>2024-01-12T09:41:30+01:00</time>
      </trkpt>
      <trkpt lat="43.60884" lon="3.74127">
        <ele>128</ele>
        <time>2024-01-12T09:41:39+01:00</time>
      </trkpt>
      <trkpt lat="43.60886" lon="3.74142">
        <ele>127</ele>
        <time>2024-01-12T09:41:49+01:00</time>
      </trkpt>
      <trkpt lat="43.60886" lon="3.74157">
        <ele>126</ele>
        <time>2024-01-12T09:41:58+01:00</time>
      </trkpt>
      <trkpt lat="43.60884" lon="3.74171">
        <ele>126</ele>
        <time>2024-01-12T09:42:07+01:00</time>
      </trkpt>
      <trkpt lat="43.60884" lon="3.74187">
        <ele>125</ele>
        <time>2024-01-12T09:42:17+01:00</time>
      </trkpt>
      <trkpt lat="43.60887" lon="3.74204">
        <ele>125</ele>
        <time>2024-01-12T09:42:26+01:00</time>
      </trkpt>
      <trkpt lat="43.60893" lon="3.74219">
        <ele>125</ele>
        <time>2024-01-12T09:42:36+01:00</time>
      </trkpt>
      <trkpt lat="43.60897" lon="3.74235">
        <ele>126</ele>
        <time>2024-01-12T09:42:45+01:00</time>
      </trkpt>
      <trkpt lat="43.60901" lon="3.7425">
        <ele>126</ele>
        <time>2024-01-12T09:42:54+01:00</time>
      </trkpt>
      <trkpt lat="43.609" lon="3.74267">
        <ele>126</ele>
        <time>2024-01-12T09:43:04+01:00</time>
      </trkpt>
      <trkpt lat="43.60902" lon="3.74283">
        <ele>126</ele>
        <time>2024-01-12T09:43:13+01:00</time>
      </trkpt>
      <trkpt lat="43.60902" lon="3.74299">
        <ele>126</ele>
        <time>2024-01-12T09:43:22+01:00</time>
      </trkpt>
      <trkpt lat="43.60902" lon="3.74316">
        <ele>125</ele>
        <time>2024-01-12T09:43:32+01:00</time>
      </trkpt>
      <trkpt lat="43.60903" lon="3.74331">
        <ele>125</ele>
        <time>2024-01-12T09:43:41+01:00</time>
      </trkpt>
      <trkpt lat="43.60904" lon="3.74348">
        <ele>126</ele>
        <time>2024-01-12T09:43:50+01:00</time>
      </trkpt>
      <trkpt lat="43.60907" lon="3.74364">
        <ele>126</ele>
        <time>2024-01-12T09:43:59+01:00</time>
      </trkpt>
      <trkpt lat="43.60911" lon="3.7438">
        <ele>126</ele>
        <time>2024-01-12T09:44:09+01:00</time>
      </trkpt>
      <trkpt lat="43.60916" lon="3.74393">
        <ele>126</ele>
        <time>2024-01-12T09:44:18+01:00</time>
      </trkpt>
      <trkpt lat="43.60921" lon="3.74407">
        <ele>126</ele>
        <time>2024-01-12T09:44:27+01:00</time>
      </trkpt>
      <trkpt lat="43.60929" lon="3.74418">
        <ele>126</ele>
        <time>2024-01-12T09:44:36+01:00</time>
      </trkpt>
      <trkpt lat="43.60938" lon="3.74429">
        <ele>126</ele>
        <time>2024-01-12T09:44:46+01:00</time>
      </trkpt>
      <trkpt lat="43.60944" lon="3.74441">
        <ele>126</ele>
        <time>2024-01-12T09:44:55+01:00</time>
      </trkpt>
      <trkpt lat="43.60952" lon="3.74456">
        <ele>126</ele>
        <time>2024-01-12T09:45:04+01:00</time>
      </trkpt>
      <trkpt lat="43.60956" lon="3.74471">
        <ele>126</ele>
        <time>2024-01-12T09:45:14+01:00</time>
      </trkpt>
      <trkpt lat="43.6096" lon="3.74486">
        <ele>125</ele>
        <time>2024-01-12T09:45:23+01:00</time>
      </trkpt>
      <trkpt lat="43.60963" lon="3.745">
        <ele>125</ele>
        <time>2024-01-12T09:45:32+01:00</time>
      </trkpt>
      <trkpt lat="43.60969" lon="3.74515">
        <ele>124</ele>
        <time>2024-01-12T09:45:42+01:00</time>
      </trkpt>
      <trkpt lat="43.60972" lon="3.74532">
        <ele>123</ele>
        <time>2024-01-12T09:46:00+01:00</time>
      </trkpt>
      <trkpt lat="43.60978" lon="3.74549">
        <ele>122</ele>
        <time>2024-01-12T09:46:09+01:00</time>
      </trkpt>
      <trkpt lat="43.60985" lon="3.74561">
        <ele>121</ele>
        <time>2024-01-12T09:46:19+01:00</time>
      </trkpt>
      <trkpt lat="43.60991" lon="3.74573">
        <ele>120</ele>
        <time>2024-01-12T09:46:28+01:00</time>
      </trkpt>
      <trkpt lat="43.60995" lon="3.74586">
        <ele>118</ele>
        <time>2024-01-12T09:46:37+01:00</time>
      </trkpt>
      <trkpt lat="43.61002" lon="3.74595">
        <ele>117</ele>
        <time>2024-01-12T09:46:56+01:00</time>
      </trkpt>
      <trkpt lat="43.61013" lon="3.74592">
        <ele>116</ele>
        <time>2024-01-12T09:47:20+01:00</time>
      </trkpt>
      <trkpt lat="43.61021" lon="3.74585">
        <ele>116</ele>
        <time>2024-01-12T09:47:30+01:00</time>
      </trkpt>
      <trkpt lat="43.61033" lon="3.74576">
        <ele>115</ele>
        <time>2024-01-12T09:47:44+01:00</time>
      </trkpt>
      <trkpt lat="43.61041" lon="3.74567">
        <ele>115</ele>
        <time>2024-01-12T09:47:53+01:00</time>
      </trkpt>
      <trkpt lat="43.61045" lon="3.74554">
        <ele>116</ele>
        <time>2024-01-12T09:48:02+01:00</time>
      </trkpt>
      <trkpt lat="43.61053" lon="3.74544">
        <ele>116</ele>
        <time>2024-01-12T09:48:11+01:00</time>
      </trkpt>
      <trkpt lat="43.61059" lon="3.74532">
        <ele>117</ele>
        <time>2024-01-12T09:48:21+01:00</time>
      </trkpt>
      <trkpt lat="43.61069" lon="3.74526">
        <ele>117</ele>
        <time>2024-01-12T09:48:30+01:00</time>
      </trkpt>
      <trkpt lat="43.61079" lon="3.74522">
        <ele>117</ele>
        <time>2024-01-12T09:48:39+01:00</time>
      </trkpt>
      <trkpt lat="43.61089" lon="3.74525">
        <ele>117</ele>
        <time>2024-01-12T09:48:48+01:00</time>
      </trkpt>
      <trkpt lat="43.611" lon="3.74527">
        <ele>118</ele>
        <time>2024-01-12T09:48:58+01:00</time>
      </trkpt>
      <trkpt lat="43.6111" lon="3.74522">
        <ele>118</ele>
        <time>2024-01-12T09:49:07+01:00</time>
      </trkpt>
      <trkpt lat="43.61121" lon="3.74517">
        <ele>119</ele>
        <time>2024-01-12T09:49:17+01:00</time>
      </trkpt>
      <trkpt lat="43.6113" lon="3.7451">
        <ele>120</ele>
        <time>2024-01-12T09:49:27+01:00</time>
      </trkpt>
      <trkpt lat="43.61139" lon="3.74502">
        <ele>121</ele>
        <time>2024-01-12T09:49:37+01:00</time>
      </trkpt>
      <trkpt lat="43.6115" lon="3.74496">
        <ele>122</ele>
        <time>2024-01-12T09:49:47+01:00</time>
      </trkpt>
      <trkpt lat="43.6116" lon="3.74489">
        <ele>123</ele>
        <time>2024-01-12T09:49:56+01:00</time>
      </trkpt>
      <trkpt lat="43.6117" lon="3.74485">
        <ele>123</ele>
        <time>2024-01-12T09:50:05+01:00</time>
      </trkpt>
      <trkpt lat="43.61178" lon="3.74477">
        <ele>124</ele>
        <time>2024-01-12T09:50:14+01:00</time>
      </trkpt>
      <trkpt lat="43.61183" lon="3.74465">
        <ele>125</ele>
        <time>2024-01-12T09:50:24+01:00</time>
      </trkpt>
      <trkpt lat="43.61192" lon="3.74455">
        <ele>125</ele>
        <time>2024-01-12T09:50:33+01:00</time>
      </trkpt>
      <trkpt lat="43.61201" lon="3.74446">
        <ele>125</ele>
        <time>2024-01-12T09:50:42+01:00</time>
      </trkpt>
      <trkpt lat="43.61209" lon="3.74436">
        <ele>125</ele>
        <time>2024-01-12T09:50:52+01:00</time>
      </trkpt>
      <trkpt lat="43.61218" lon="3.74425">
        <ele>125</ele>
        <time>2024-01-12T09:51:01+01:00</time>
      </trkpt>
      <trkpt lat="43.61227" lon="3.74416">
        <ele>125</ele>
        <time>2024-01-12T09:51:10+01:00</time>
      </trkpt>
      <trkpt lat="43.61233" lon="3.74402">
        <ele>125</ele>
        <time>2024-01-12T09:51:20+01:00</time>
      </trkpt>
      <trkpt lat="43.6124" lon="3.74391">
        <ele>125</ele>
        <time>2024-01-12T09:51:29+01:00</time>
      </trkpt>
      <trkpt lat="43.61246" lon="3.74378">
        <ele>125</ele>
        <time>2024-01-12T09:51:38+01:00</time>
      </trkpt>
      <trkpt lat="43.61254" lon="3.74368">
        <ele>125</ele>
        <time>2024-01-12T09:51:47+01:00</time>
      </trkpt>
      <trkpt lat="43.61263" lon="3.74357">
        <ele>125</ele>
        <time>2024-01-12T09:51:57+01:00</time>
      </trkpt>
      <trkpt lat="43.6127" lon="3.74344">
        <ele>125</ele>
        <time>2024-01-12T09:52:06+01:00</time>
      </trkpt>
      <trkpt lat="43.61278" lon="3.74333">
        <ele>125</ele>
        <time>2024-01-12T09:52:15+01:00</time>
      </trkpt>
      <trkpt lat="43.61286" lon="3.7432">
        <ele>125</ele>
        <time>2024-01-12T09:52:24+01:00</time>
      </trkpt>
      <trkpt lat="43.61293" lon="3.74309">
        <ele>125</ele>
        <time>2024-01-12T09:52:34+01:00</time>
      </trkpt>
      <trkpt lat="43.613" lon="3.74299">
        <ele>124</ele>
        <time>2024-01-12T09:52:43+01:00</time>
      </trkpt>
      <trkpt lat="43.61306" lon="3.7429">
        <ele>123</ele>
        <time>2024-01-12T09:52:53+01:00</time>
      </trkpt>
      <trkpt lat="43.61317" lon="3.74294">
        <ele>122</ele>
        <time>2024-01-12T09:53:02+01:00</time>
      </trkpt>
      <trkpt lat="43.61326" lon="3.74302">
        <ele>122</ele>
        <time>2024-01-12T09:53:12+01:00</time>
      </trkpt>
      <trkpt lat="43.61336" lon="3.74308">
        <ele>121</ele>
        <time>2024-01-12T09:53:21+01:00</time>
      </trkpt>
      <trkpt lat="43.61346" lon="3.74315">
        <ele>121</ele>
        <time>2024-01-12T09:53:30+01:00</time>
      </trkpt>
      <trkpt lat="43.61354" lon="3.74326">
        <ele>120</ele>
        <time>2024-01-12T09:53:40+01:00</time>
      </trkpt>
      <trkpt lat="43.61358" lon="3.74337">
        <ele>120</ele>
        <time>2024-01-12T09:53:50+01:00</time>
      </trkpt>
      <trkpt lat="43.61365" lon="3.74348">
        <ele>120</ele>
        <time>2024-01-12T09:53:58+01:00</time>
      </trkpt>
      <trkpt lat="43.61372" lon="3.7436">
        <ele>120</ele>
        <time>2024-01-12T09:54:08+01:00</time>
      </trkpt>
      <trkpt lat="43.61379" lon="3.7437">
        <ele>120</ele>
        <time>2024-01-12T09:54:17+01:00</time>
      </trkpt>
      <trkpt lat="43.61388" lon="3.74381">
        <ele>119</ele>
        <time>2024-01-12T09:54:27+01:00</time>
      </trkpt>
      <trkpt lat="43.61394" lon="3.74391">
        <ele>119</ele>
        <time>2024-01-12T09:54:36+01:00</time>
      </trkpt>
      <trkpt lat="43.61401" lon="3.74403">
        <ele>119</ele>
        <time>2024-01-12T09:54:45+01:00</time>
      </trkpt>
      <trkpt lat="43.61409" lon="3.74414">
        <ele>118</ele>
        <time>2024-01-12T09:54:54+01:00</time>
      </trkpt>
      <trkpt lat="43.61424" lon="3.74433">
        <ele>117</ele>
        <time>2024-01-12T09:55:13+01:00</time>
      </trkpt>
      <trkpt lat="43.61433" lon="3.74445">
        <ele>115</ele>
        <time>2024-01-12T09:55:22+01:00</time>
      </trkpt>
      <trkpt lat="43.61442" lon="3.74455">
        <ele>114</ele>
        <time>2024-01-12T09:55:31+01:00</time>
      </trkpt>
      <trkpt lat="43.61451" lon="3.74464">
        <ele>113</ele>
        <time>2024-01-12T09:55:46+01:00</time>
      </trkpt>
      <trkpt lat="43.61461" lon="3.74468">
        <ele>112</ele>
        <time>2024-01-12T09:55:56+01:00</time>
      </trkpt>
      <trkpt lat="43.61471" lon="3.74469">
        <ele>111</ele>
        <time>2024-01-12T09:56:20+01:00</time>
      </trkpt>
      <trkpt lat="43.61481" lon="3.74472">
        <ele>110</ele>
        <time>2024-01-12T09:56:29+01:00</time>
      </trkpt>
      <trkpt lat="43.61494" lon="3.74475">
        <ele>110</ele>
        <time>2024-01-12T09:56:38+01:00</time>
      </trkpt>
      <trkpt lat="43.61505" lon="3.7448">
        <ele>110</ele>
        <time>2024-01-12T09:56:48+01:00</time>
      </trkpt>
      <trkpt lat="43.61514" lon="3.74486">
        <ele>110</ele>
        <time>2024-01-12T09:56:57+01:00</time>
      </trkpt>
      <trkpt lat="43.61524" lon="3.74484">
        <ele>108</ele>
        <time>2024-01-12T09:57:06+01:00</time>
      </trkpt>
      <trkpt lat="43.61535" lon="3.74488">
        <ele>107</ele>
        <time>2024-01-12T09:57:15+01:00</time>
      </trkpt>
      <trkpt lat="43.61545" lon="3.74494">
        <ele>107</ele>
        <time>2024-01-12T09:57:25+01:00</time>
      </trkpt>
      <trkpt lat="43.61558" lon="3.745">
        <ele>105</ele>
        <time>2024-01-12T09:57:48+01:00</time>
      </trkpt>
      <trkpt lat="43.61568" lon="3.7451">
        <ele>106</ele>
        <time>2024-01-12T09:57:58+01:00</time>
      </trkpt>
      <trkpt lat="43.61574" lon="3.7452">
        <ele>106</ele>
        <time>2024-01-12T09:58:07+01:00</time>
      </trkpt>
      <trkpt lat="43.61578" lon="3.74534">
        <ele>106</ele>
        <time>2024-01-12T09:58:46+01:00</time>
      </trkpt>
      <trkpt lat="43.61587" lon="3.74548">
        <ele>105</ele>
        <time>2024-01-12T09:58:55+01:00</time>
      </trkpt>
      <trkpt lat="43.61593" lon="3.74561">
        <ele>106</ele>
        <time>2024-01-12T09:59:05+01:00</time>
      </trkpt>
      <trkpt lat="43.61595" lon="3.74579">
        <ele>107</ele>
        <time>2024-01-12T09:59:18+01:00</time>
      </trkpt>
      <trkpt lat="43.61603" lon="3.74589">
        <ele>106</ele>
        <time>2024-01-12T09:59:28+01:00</time>
      </trkpt>
      <trkpt lat="43.61608" lon="3.74601">
        <ele>105</ele>
        <time>2024-01-12T09:59:37+01:00</time>
      </trkpt>
      <trkpt lat="43.61614" lon="3.74614">
        <ele>105</ele>
        <time>2024-01-12T09:59:46+01:00</time>
      </trkpt>
      <trkpt lat="43.61618" lon="3.74627">
        <ele>104</ele>
        <time>2024-01-12T09:59:56+01:00</time>
      </trkpt>
      <trkpt lat="43.61624" lon="3.74637">
        <ele>104</ele>
        <time>2024-01-12T10:00:05+01:00</time>
      </trkpt>
      <trkpt lat="43.6163" lon="3.7465">
        <ele>103</ele>
        <time>2024-01-12T10:00:15+01:00</time>
      </trkpt>
      <trkpt lat="43.61636" lon="3.74663">
        <ele>102</ele>
        <time>2024-01-12T10:00:24+01:00</time>
      </trkpt>
      <trkpt lat="43.61644" lon="3.74673">
        <ele>101</ele>
        <time>2024-01-12T10:00:33+01:00</time>
      </trkpt>
      <trkpt lat="43.61649" lon="3.74684">
        <ele>101</ele>
        <time>2024-01-12T10:00:42+01:00</time>
      </trkpt>
      <trkpt lat="43.61656" lon="3.747">
        <ele>100</ele>
        <time>2024-01-12T10:00:56+01:00</time>
      </trkpt>
      <trkpt lat="43.61661" lon="3.74713">
        <ele>100</ele>
        <time>2024-01-12T10:01:05+01:00</time>
      </trkpt>
      <trkpt lat="43.61665" lon="3.74729">
        <ele>100</ele>
        <time>2024-01-12T10:01:15+01:00</time>
      </trkpt>
      <trkpt lat="43.61671" lon="3.74741">
        <ele>100</ele>
        <time>2024-01-12T10:01:25+01:00</time>
      </trkpt>
      <trkpt lat="43.61676" lon="3.74754">
        <ele>100</ele>
        <time>2024-01-12T10:01:34+01:00</time>
      </trkpt>
      <trkpt lat="43.61683" lon="3.74763">
        <ele>100</ele>
        <time>2024-01-12T10:01:43+01:00</time>
      </trkpt>
      <trkpt lat="43.61686" lon="3.74777">
        <ele>100</ele>
        <time>2024-01-12T10:01:52+01:00</time>
      </trkpt>
      <trkpt lat="43.61693" lon="3.7479">
        <ele>100</ele>
        <time>2024-01-12T10:02:02+01:00</time>
      </trkpt>
      <trkpt lat="43.61697" lon="3.74806">
        <ele>100</ele>
        <time>2024-01-12T10:02:11+01:00</time>
      </trkpt>
      <trkpt lat="43.61698" lon="3.74821">
        <ele>100</ele>
        <time>2024-01-12T10:02:20+01:00</time>
      </trkpt>
      <trkpt lat="43.61699" lon="3.74838">
        <ele>100</ele>
        <time>2024-01-12T10:02:30+01:00</time>
      </trkpt>
      <trkpt lat="43.617" lon="3.74853">
        <ele>100</ele>
        <time>2024-01-12T10:02:39+01:00</time>
      </trkpt>
      <trkpt lat="43.61702" lon="3.74868">
        <ele>101</ele>
        <time>2024-01-12T10:02:48+01:00</time>
      </trkpt>
      <trkpt lat="43.6171" lon="3.74881">
        <ele>101</ele>
        <time>2024-01-12T10:02:58+01:00</time>
      </trkpt>
      <trkpt lat="43.61716" lon="3.74891">
        <ele>101</ele>
        <time>2024-01-12T10:03:07+01:00</time>
      </trkpt>
      <trkpt lat="43.61725" lon="3.74896">
        <ele>101</ele>
        <time>2024-01-12T10:03:16+01:00</time>
      </trkpt>
      <trkpt lat="43.61739" lon="3.74901">
        <ele>101</ele>
        <time>2024-01-12T10:03:25+01:00</time>
      </trkpt>
      <trkpt lat="43.61752" lon="3.74908">
        <ele>100</ele>
        <time>2024-01-12T10:03:39+01:00</time>
      </trkpt>
      <trkpt lat="43.61763" lon="3.74917">
        <ele>100</ele>
        <time>2024-01-12T10:03:48+01:00</time>
      </trkpt>
      <trkpt lat="43.61773" lon="3.74926">
        <ele>100</ele>
        <time>2024-01-12T10:03:58+01:00</time>
      </trkpt>
      <trkpt lat="43.61781" lon="3.74935">
        <ele>100</ele>
        <time>2024-01-12T10:04:07+01:00</time>
      </trkpt>
      <trkpt lat="43.61789" lon="3.74949">
        <ele>99</ele>
        <time>2024-01-12T10:04:16+01:00</time>
      </trkpt>
      <trkpt lat="43.61797" lon="3.74962">
        <ele>99</ele>
        <time>2024-01-12T10:04:25+01:00</time>
      </trkpt>
      <trkpt lat="43.61802" lon="3.74976">
        <ele>99</ele>
        <time>2024-01-12T10:04:35+01:00</time>
      </trkpt>
      <trkpt lat="43.61809" lon="3.74991">
        <ele>98</ele>
        <time>2024-01-12T10:04:44+01:00</time>
      </trkpt>
      <trkpt lat="43.61811" lon="3.7501">
        <ele>97</ele>
        <time>2024-01-12T10:04:54+01:00</time>
      </trkpt>
      <trkpt lat="43.61808" lon="3.75024">
        <ele>96</ele>
        <time>2024-01-12T10:05:03+01:00</time>
      </trkpt>
      <trkpt lat="43.618" lon="3.75037">
        <ele>97</ele>
        <time>2024-01-12T10:05:27+01:00</time>
      </trkpt>
      <trkpt lat="43.61795" lon="3.75054">
        <ele>97</ele>
        <time>2024-01-12T10:05:37+01:00</time>
      </trkpt>
      <trkpt lat="43.61801" lon="3.75039">
        <ele>97</ele>
        <time>2024-01-12T10:06:27+01:00</time>
      </trkpt>
      <trkpt lat="43.6181" lon="3.75037">
        <ele>96</ele>
        <time>2024-01-12T10:07:45+01:00</time>
      </trkpt>
      <trkpt lat="43.61807" lon="3.75056">
        <ele>95</ele>
        <time>2024-01-12T10:08:53+01:00</time>
      </trkpt>
      <trkpt lat="43.61805" lon="3.7507">
        <ele>95</ele>
        <time>2024-01-12T10:09:03+01:00</time>
      </trkpt>
      <trkpt lat="43.618" lon="3.75082">
        <ele>96</ele>
        <time>2024-01-12T10:09:12+01:00</time>
      </trkpt>
      <trkpt lat="43.61803" lon="3.75095">
        <ele>95</ele>
        <time>2024-01-12T10:09:21+01:00</time>
      </trkpt>
      <trkpt lat="43.61803" lon="3.75109">
        <ele>95</ele>
        <time>2024-01-12T10:09:31+01:00</time>
      </trkpt>
      <trkpt lat="43.61812" lon="3.75113">
        <ele>95</ele>
        <time>2024-01-12T10:09:50+01:00</time>
      </trkpt>
      <trkpt lat="43.61818" lon="3.75103">
        <ele>95</ele>
        <time>2024-01-12T10:09:59+01:00</time>
      </trkpt>
      <trkpt lat="43.61828" lon="3.75096">
        <ele>95</ele>
        <time>2024-01-12T10:10:08+01:00</time>
      </trkpt>
      <trkpt lat="43.61837" lon="3.75091">
        <ele>96</ele>
        <time>2024-01-12T10:10:17+01:00</time>
      </trkpt>
      <trkpt lat="43.61849" lon="3.75087">
        <ele>96</ele>
        <time>2024-01-12T10:10:27+01:00</time>
      </trkpt>
      <trkpt lat="43.6186" lon="3.75085">
        <ele>96</ele>
        <time>2024-01-12T10:10:37+01:00</time>
      </trkpt>
      <trkpt lat="43.61868" lon="3.7508">
        <ele>97</ele>
        <time>2024-01-12T10:10:46+01:00</time>
      </trkpt>
      <trkpt lat="43.61879" lon="3.75079">
        <ele>97</ele>
        <time>2024-01-12T10:10:55+01:00</time>
      </trkpt>
      <trkpt lat="43.6189" lon="3.75076">
        <ele>97</ele>
        <time>2024-01-12T10:11:05+01:00</time>
      </trkpt>
      <trkpt lat="43.619" lon="3.75073">
        <ele>98</ele>
        <time>2024-01-12T10:11:14+01:00</time>
      </trkpt>
      <trkpt lat="43.6191" lon="3.7507">
        <ele>98</ele>
        <time>2024-01-12T10:11:23+01:00</time>
      </trkpt>
      <trkpt lat="43.61918" lon="3.75064">
        <ele>99</ele>
        <time>2024-01-12T10:11:32+01:00</time>
      </trkpt>
      <trkpt lat="43.6193" lon="3.75061">
        <ele>99</ele>
        <time>2024-01-12T10:11:47+01:00</time>
      </trkpt>
      <trkpt lat="43.61938" lon="3.75052">
        <ele>99</ele>
        <time>2024-01-12T10:12:00+01:00</time>
      </trkpt>
      <trkpt lat="43.6195" lon="3.75045">
        <ele>99</ele>
        <time>2024-01-12T10:12:10+01:00</time>
      </trkpt>
      <trkpt lat="43.61961" lon="3.7504">
        <ele>100</ele>
        <time>2024-01-12T10:12:24+01:00</time>
      </trkpt>
      <trkpt lat="43.6197" lon="3.75033">
        <ele>100</ele>
        <time>2024-01-12T10:12:33+01:00</time>
      </trkpt>
      <trkpt lat="43.61979" lon="3.7503">
        <ele>100</ele>
        <time>2024-01-12T10:12:43+01:00</time>
      </trkpt>
      <trkpt lat="43.61989" lon="3.75026">
        <ele>100</ele>
        <time>2024-01-12T10:12:52+01:00</time>
      </trkpt>
      <trkpt lat="43.61997" lon="3.75018">
        <ele>100</ele>
        <time>2024-01-12T10:13:02+01:00</time>
      </trkpt>
      <trkpt lat="43.62004" lon="3.7501">
        <ele>100</ele>
        <time>2024-01-12T10:13:11+01:00</time>
      </trkpt>
      <trkpt lat="43.62011" lon="3.74998">
        <ele>100</ele>
        <time>2024-01-12T10:13:21+01:00</time>
      </trkpt>
      <trkpt lat="43.62018" lon="3.74982">
        <ele>100</ele>
        <time>2024-01-12T10:13:35+01:00</time>
      </trkpt>
      <trkpt lat="43.62026" lon="3.74973">
        <ele>100</ele>
        <time>2024-01-12T10:13:44+01:00</time>
      </trkpt>
      <trkpt lat="43.6203" lon="3.74959">
        <ele>100</ele>
        <time>2024-01-12T10:13:54+01:00</time>
      </trkpt>
      <trkpt lat="43.62036" lon="3.74947">
        <ele>100</ele>
        <time>2024-01-12T10:14:03+01:00</time>
      </trkpt>
      <trkpt lat="43.6204" lon="3.74935">
        <ele>100</ele>
        <time>2024-01-12T10:14:12+01:00</time>
      </trkpt>
      <trkpt lat="43.62046" lon="3.74926">
        <ele>100</ele>
        <time>2024-01-12T10:14:21+01:00</time>
      </trkpt>
      <trkpt lat="43.62055" lon="3.74923">
        <ele>100</ele>
        <time>2024-01-12T10:14:31+01:00</time>
      </trkpt>
      <trkpt lat="43.62058" lon="3.74904">
        <ele>100</ele>
        <time>2024-01-12T10:14:44+01:00</time>
      </trkpt>
      <trkpt lat="43.62059" lon="3.74888">
        <ele>100</ele>
        <time>2024-01-12T10:14:53+01:00</time>
      </trkpt>
      <trkpt lat="43.62058" lon="3.74874">
        <ele>100</ele>
        <time>2024-01-12T10:15:03+01:00</time>
      </trkpt>
      <trkpt lat="43.62065" lon="3.74861">
        <ele>100</ele>
        <time>2024-01-12T10:15:17+01:00</time>
      </trkpt>
      <trkpt lat="43.62068" lon="3.74848">
        <ele>100</ele>
        <time>2024-01-12T10:15:27+01:00</time>
      </trkpt>
      <trkpt lat="43.62076" lon="3.74841">
        <ele>100</ele>
        <time>2024-01-12T10:15:36+01:00</time>
      </trkpt>
      <trkpt lat="43.62085" lon="3.74832">
        <ele>100</ele>
        <time>2024-01-12T10:16:01+01:00</time>
      </trkpt>
      <trkpt lat="43.621" lon="3.7483">
        <ele>102</ele>
        <time>2024-01-12T10:16:20+01:00</time>
      </trkpt>
      <trkpt lat="43.62107" lon="3.74837">
        <ele>103</ele>
        <time>2024-01-12T10:16:54+01:00</time>
      </trkpt>
      <trkpt lat="43.62112" lon="3.74823">
        <ele>103</ele>
        <time>2024-01-12T10:19:23+01:00</time>
      </trkpt>
      <trkpt lat="43.62115" lon="3.74802">
        <ele>102</ele>
        <time>2024-01-12T10:19:32+01:00</time>
      </trkpt>
      <trkpt lat="43.62114" lon="3.74784">
        <ele>103</ele>
        <time>2024-01-12T10:19:46+01:00</time>
      </trkpt>
      <trkpt lat="43.62116" lon="3.74771">
        <ele>103</ele>
        <time>2024-01-12T10:19:56+01:00</time>
      </trkpt>
      <trkpt lat="43.62112" lon="3.74759">
        <ele>102</ele>
        <time>2024-01-12T10:20:49+01:00</time>
      </trkpt>
      <trkpt lat="43.62114" lon="3.74744">
        <ele>103</ele>
        <time>2024-01-12T10:21:13+01:00</time>
      </trkpt>
      <trkpt lat="43.6212" lon="3.7473">
        <ele>104</ele>
        <time>2024-01-12T10:21:31+01:00</time>
      </trkpt>
      <trkpt lat="43.62122" lon="3.74714">
        <ele>104</ele>
        <time>2024-01-12T10:21:45+01:00</time>
      </trkpt>
      <trkpt lat="43.62125" lon="3.74701">
        <ele>104</ele>
        <time>2024-01-12T10:21:54+01:00</time>
      </trkpt>
      <trkpt lat="43.62129" lon="3.74685">
        <ele>105</ele>
        <time>2024-01-12T10:22:09+01:00</time>
      </trkpt>
      <trkpt lat="43.6213" lon="3.7467">
        <ele>105</ele>
        <time>2024-01-12T10:22:22+01:00</time>
      </trkpt>
      <trkpt lat="43.62134" lon="3.74653">
        <ele>105</ele>
        <time>2024-01-12T10:22:36+01:00</time>
      </trkpt>
      <trkpt lat="43.62137" lon="3.74636">
        <ele>106</ele>
        <time>2024-01-12T10:22:50+01:00</time>
      </trkpt>
      <trkpt lat="43.62141" lon="3.74624">
        <ele>106</ele>
        <time>2024-01-12T10:23:00+01:00</time>
      </trkpt>
      <trkpt lat="43.62142" lon="3.74605">
        <ele>105</ele>
        <time>2024-01-12T10:23:14+01:00</time>
      </trkpt>
      <trkpt lat="43.62146" lon="3.74588">
        <ele>105</ele>
        <time>2024-01-12T10:23:27+01:00</time>
      </trkpt>
      <trkpt lat="43.62149" lon="3.74575">
        <ele>105</ele>
        <time>2024-01-12T10:23:37+01:00</time>
      </trkpt>
      <trkpt lat="43.6215" lon="3.74559">
        <ele>105</ele>
        <time>2024-01-12T10:23:50+01:00</time>
      </trkpt>
      <trkpt lat="43.62154" lon="3.74546">
        <ele>105</ele>
        <time>2024-01-12T10:24:00+01:00</time>
      </trkpt>
      <trkpt lat="43.6216" lon="3.74533">
        <ele>106</ele>
        <time>2024-01-12T10:24:09+01:00</time>
      </trkpt>
      <trkpt lat="43.62163" lon="3.7452">
        <ele>106</ele>
        <time>2024-01-12T10:24:18+01:00</time>
      </trkpt>
      <trkpt lat="43.62167" lon="3.74506">
        <ele>106</ele>
        <time>2024-01-12T10:24:28+01:00</time>
      </trkpt>
      <trkpt lat="43.62173" lon="3.74493">
        <ele>106</ele>
        <time>2024-01-12T10:24:37+01:00</time>
      </trkpt>
      <trkpt lat="43.62179" lon="3.74479">
        <ele>106</ele>
        <time>2024-01-12T10:24:51+01:00</time>
      </trkpt>
      <trkpt lat="43.62184" lon="3.74468">
        <ele>106</ele>
        <time>2024-01-12T10:25:00+01:00</time>
      </trkpt>
      <trkpt lat="43.62189" lon="3.74457">
        <ele>106</ele>
        <time>2024-01-12T10:25:09+01:00</time>
      </trkpt>
      <trkpt lat="43.62195" lon="3.74447">
        <ele>105</ele>
        <time>2024-01-12T10:25:19+01:00</time>
      </trkpt>
      <trkpt lat="43.62201" lon="3.74435">
        <ele>105</ele>
        <time>2024-01-12T10:25:28+01:00</time>
      </trkpt>
      <trkpt lat="43.62208" lon="3.74423">
        <ele>105</ele>
        <time>2024-01-12T10:25:38+01:00</time>
      </trkpt>
      <trkpt lat="43.62215" lon="3.74413">
        <ele>105</ele>
        <time>2024-01-12T10:25:48+01:00</time>
      </trkpt>
      <trkpt lat="43.62224" lon="3.74404">
        <ele>105</ele>
        <time>2024-01-12T10:25:57+01:00</time>
      </trkpt>
      <trkpt lat="43.62232" lon="3.74394">
        <ele>105</ele>
        <time>2024-01-12T10:26:07+01:00</time>
      </trkpt>
      <trkpt lat="43.62239" lon="3.74386">
        <ele>105</ele>
        <time>2024-01-12T10:26:16+01:00</time>
      </trkpt>
      <trkpt lat="43.62246" lon="3.74377">
        <ele>105</ele>
        <time>2024-01-12T10:26:25+01:00</time>
      </trkpt>
      <trkpt lat="43.62254" lon="3.74367">
        <ele>105</ele>
        <time>2024-01-12T10:26:34+01:00</time>
      </trkpt>
      <trkpt lat="43.62263" lon="3.74358">
        <ele>105</ele>
        <time>2024-01-12T10:26:44+01:00</time>
      </trkpt>
      <trkpt lat="43.62271" lon="3.7435">
        <ele>106</ele>
        <time>2024-01-12T10:26:53+01:00</time>
      </trkpt>
      <trkpt lat="43.62279" lon="3.74343">
        <ele>107</ele>
        <time>2024-01-12T10:27:03+01:00</time>
      </trkpt>
      <trkpt lat="43.62287" lon="3.74333">
        <ele>107</ele>
        <time>2024-01-12T10:27:12+01:00</time>
      </trkpt>
      <trkpt lat="43.62295" lon="3.74323">
        <ele>108</ele>
        <time>2024-01-12T10:27:21+01:00</time>
      </trkpt>
      <trkpt lat="43.62303" lon="3.74314">
        <ele>108</ele>
        <time>2024-01-12T10:27:31+01:00</time>
      </trkpt>
      <trkpt lat="43.62312" lon="3.74305">
        <ele>108</ele>
        <time>2024-01-12T10:27:40+01:00</time>
      </trkpt>
      <trkpt lat="43.62319" lon="3.74295">
        <ele>109</ele>
        <time>2024-01-12T10:27:50+01:00</time>
      </trkpt>
      <trkpt lat="43.62325" lon="3.74285">
        <ele>109</ele>
        <time>2024-01-12T10:27:59+01:00</time>
      </trkpt>
      <trkpt lat="43.62332" lon="3.74275">
        <ele>108</ele>
        <time>2024-01-12T10:28:08+01:00</time>
      </trkpt>
      <trkpt lat="43.6234" lon="3.74265">
        <ele>109</ele>
        <time>2024-01-12T10:28:17+01:00</time>
      </trkpt>
      <trkpt lat="43.62347" lon="3.74256">
        <ele>108</ele>
        <time>2024-01-12T10:28:27+01:00</time>
      </trkpt>
      <trkpt lat="43.62353" lon="3.74243">
        <ele>109</ele>
        <time>2024-01-12T10:28:36+01:00</time>
      </trkpt>
      <trkpt lat="43.62358" lon="3.74232">
        <ele>109</ele>
        <time>2024-01-12T10:28:46+01:00</time>
      </trkpt>
      <trkpt lat="43.62366" lon="3.74218">
        <ele>109</ele>
        <time>2024-01-12T10:29:00+01:00</time>
      </trkpt>
      <trkpt lat="43.62371" lon="3.74205">
        <ele>109</ele>
        <time>2024-01-12T10:29:09+01:00</time>
      </trkpt>
      <trkpt lat="43.62376" lon="3.7419">
        <ele>108</ele>
        <time>2024-01-12T10:29:23+01:00</time>
      </trkpt>
      <trkpt lat="43.6238" lon="3.74173">
        <ele>109</ele>
        <time>2024-01-12T10:29:37+01:00</time>
      </trkpt>
      <trkpt lat="43.62385" lon="3.74158">
        <ele>108</ele>
        <time>2024-01-12T10:29:46+01:00</time>
      </trkpt>
      <trkpt lat="43.62387" lon="3.74144">
        <ele>108</ele>
        <time>2024-01-12T10:29:55+01:00</time>
      </trkpt>
      <trkpt lat="43.6239" lon="3.74131">
        <ele>108</ele>
        <time>2024-01-12T10:30:04+01:00</time>
      </trkpt>
      <trkpt lat="43.62392" lon="3.74118">
        <ele>108</ele>
        <time>2024-01-12T10:30:14+01:00</time>
      </trkpt>
      <trkpt lat="43.62394" lon="3.74102">
        <ele>107</ele>
        <time>2024-01-12T10:30:23+01:00</time>
      </trkpt>
      <trkpt lat="43.62394" lon="3.74085">
        <ele>107</ele>
        <time>2024-01-12T10:30:33+01:00</time>
      </trkpt>
      <trkpt lat="43.62396" lon="3.74071">
        <ele>107</ele>
        <time>2024-01-12T10:30:42+01:00</time>
      </trkpt>
      <trkpt lat="43.62398" lon="3.74056">
        <ele>107</ele>
        <time>2024-01-12T10:30:51+01:00</time>
      </trkpt>
      <trkpt lat="43.62398" lon="3.74043">
        <ele>107</ele>
        <time>2024-01-12T10:31:01+01:00</time>
      </trkpt>
      <trkpt lat="43.624" lon="3.74029">
        <ele>107</ele>
        <time>2024-01-12T10:31:10+01:00</time>
      </trkpt>
      <trkpt lat="43.62402" lon="3.74015">
        <ele>108</ele>
        <time>2024-01-12T10:31:19+01:00</time>
      </trkpt>
      <trkpt lat="43.62402" lon="3.74002">
        <ele>108</ele>
        <time>2024-01-12T10:31:29+01:00</time>
      </trkpt>
      <trkpt lat="43.62402" lon="3.73986">
        <ele>108</ele>
        <time>2024-01-12T10:31:43+01:00</time>
      </trkpt>
      <trkpt lat="43.62405" lon="3.73967">
        <ele>108</ele>
        <time>2024-01-12T10:31:53+01:00</time>
      </trkpt>
      <trkpt lat="43.62406" lon="3.73953">
        <ele>108</ele>
        <time>2024-01-12T10:32:02+01:00</time>
      </trkpt>
      <trkpt lat="43.62406" lon="3.7394">
        <ele>109</ele>
        <time>2024-01-12T10:32:11+01:00</time>
      </trkpt>
      <trkpt lat="43.62407" lon="3.73925">
        <ele>110</ele>
        <time>2024-01-12T10:32:21+01:00</time>
      </trkpt>
      <trkpt lat="43.62409" lon="3.7391">
        <ele>110</ele>
        <time>2024-01-12T10:32:30+01:00</time>
      </trkpt>
      <trkpt lat="43.62411" lon="3.73897">
        <ele>110</ele>
        <time>2024-01-12T10:32:39+01:00</time>
      </trkpt>
      <trkpt lat="43.62414" lon="3.73883">
        <ele>111</ele>
        <time>2024-01-12T10:33:53+01:00</time>
      </trkpt>
      <trkpt lat="43.62412" lon="3.73867">
        <ele>111</ele>
        <time>2024-01-12T10:35:42+01:00</time>
      </trkpt>
      <trkpt lat="43.62416" lon="3.73849">
        <ele>112</ele>
        <time>2024-01-12T10:35:57+01:00</time>
      </trkpt>
      <trkpt lat="43.62418" lon="3.73833">
        <ele>112</ele>
        <time>2024-01-12T10:36:06+01:00</time>
      </trkpt>
      <trkpt lat="43.62423" lon="3.73819">
        <ele>112</ele>
        <time>2024-01-12T10:36:15+01:00</time>
      </trkpt>
      <trkpt lat="43.62426" lon="3.73805">
        <ele>112</ele>
        <time>2024-01-12T10:36:24+01:00</time>
      </trkpt>
      <trkpt lat="43.62429" lon="3.7379">
        <ele>112</ele>
        <time>2024-01-12T10:36:34+01:00</time>
      </trkpt>
      <trkpt lat="43.62433" lon="3.73778">
        <ele>112</ele>
        <time>2024-01-12T10:36:43+01:00</time>
      </trkpt>
      <trkpt lat="43.62437" lon="3.73765">
        <ele>112</ele>
        <time>2024-01-12T10:36:53+01:00</time>
      </trkpt>
      <trkpt lat="43.62441" lon="3.73753">
        <ele>112</ele>
        <time>2024-01-12T10:37:02+01:00</time>
      </trkpt>
      <trkpt lat="43.62443" lon="3.73738">
        <ele>113</ele>
        <time>2024-01-12T10:37:11+01:00</time>
      </trkpt>
      <trkpt lat="43.62448" lon="3.73722">
        <ele>114</ele>
        <time>2024-01-12T10:37:21+01:00</time>
      </trkpt>
      <trkpt lat="43.62453" lon="3.73705">
        <ele>114</ele>
        <time>2024-01-12T10:37:35+01:00</time>
      </trkpt>
      <trkpt lat="43.62456" lon="3.73691">
        <ele>115</ele>
        <time>2024-01-12T10:37:44+01:00</time>
      </trkpt>
      <trkpt lat="43.62461" lon="3.73678">
        <ele>115</ele>
        <time>2024-01-12T10:37:53+01:00</time>
      </trkpt>
      <trkpt lat="43.62462" lon="3.73665">
        <ele>116</ele>
        <time>2024-01-12T10:38:07+01:00</time>
      </trkpt>
      <trkpt lat="43.6245" lon="3.73671">
        <ele>118</ele>
        <time>2024-01-12T10:38:21+01:00</time>
      </trkpt>
      <trkpt lat="43.62439" lon="3.73675">
        <ele>119</ele>
        <time>2024-01-12T10:38:31+01:00</time>
      </trkpt>
      <trkpt lat="43.6243" lon="3.73682">
        <ele>121</ele>
        <time>2024-01-12T10:38:45+01:00</time>
      </trkpt>
      <trkpt lat="43.6242" lon="3.73688">
        <ele>122</ele>
        <time>2024-01-12T10:38:54+01:00</time>
      </trkpt>
      <trkpt lat="43.6241" lon="3.73685">
        <ele>123</ele>
        <time>2024-01-12T10:39:04+01:00</time>
      </trkpt>
      <trkpt lat="43.62399" lon="3.73688">
        <ele>124</ele>
        <time>2024-01-12T10:39:18+01:00</time>
      </trkpt>
      <trkpt lat="43.62389" lon="3.73692">
        <ele>124</ele>
        <time>2024-01-12T10:39:32+01:00</time>
      </trkpt>
      <trkpt lat="43.62379" lon="3.73684">
        <ele>125</ele>
        <time>2024-01-12T10:39:41+01:00</time>
      </trkpt>
      <trkpt lat="43.62367" lon="3.73683">
        <ele>126</ele>
        <time>2024-01-12T10:39:51+01:00</time>
      </trkpt>
      <trkpt lat="43.62357" lon="3.73682">
        <ele>126</ele>
        <time>2024-01-12T10:40:00+01:00</time>
      </trkpt>
      <trkpt lat="43.62346" lon="3.73673">
        <ele>127</ele>
        <time>2024-01-12T10:40:15+01:00</time>
      </trkpt>
      <trkpt lat="43.62336" lon="3.73674">
        <ele>127</ele>
        <time>2024-01-12T10:40:24+01:00</time>
      </trkpt>
      <trkpt lat="43.62326" lon="3.73674">
        <ele>126</ele>
        <time>2024-01-12T10:40:33+01:00</time>
      </trkpt>
      <trkpt lat="43.62315" lon="3.73679">
        <ele>125</ele>
        <time>2024-01-12T10:40:43+01:00</time>
      </trkpt>
      <trkpt lat="43.62305" lon="3.73685">
        <ele>125</ele>
        <time>2024-01-12T10:40:52+01:00</time>
      </trkpt>
      <trkpt lat="43.62294" lon="3.73692">
        <ele>124</ele>
        <time>2024-01-12T10:41:01+01:00</time>
      </trkpt>
      <trkpt lat="43.62284" lon="3.73695">
        <ele>123</ele>
        <time>2024-01-12T10:41:11+01:00</time>
      </trkpt>
      <trkpt lat="43.62273" lon="3.7369">
        <ele>123</ele>
        <time>2024-01-12T10:41:20+01:00</time>
      </trkpt>
      <trkpt lat="43.62265" lon="3.73682">
        <ele>122</ele>
        <time>2024-01-12T10:41:29+01:00</time>
      </trkpt>
      <trkpt lat="43.62256" lon="3.73671">
        <ele>122</ele>
        <time>2024-01-12T10:41:38+01:00</time>
      </trkpt>
      <trkpt lat="43.6225" lon="3.73659">
        <ele>122</ele>
        <time>2024-01-12T10:41:47+01:00</time>
      </trkpt>
      <trkpt lat="43.62244" lon="3.73648">
        <ele>123</ele>
        <time>2024-01-12T10:41:57+01:00</time>
      </trkpt>
      <trkpt lat="43.62237" lon="3.73636">
        <ele>124</ele>
        <time>2024-01-12T10:42:07+01:00</time>
      </trkpt>
      <trkpt lat="43.62228" lon="3.73628">
        <ele>124</ele>
        <time>2024-01-12T10:42:16+01:00</time>
      </trkpt>
      <trkpt lat="43.62217" lon="3.73621">
        <ele>124</ele>
        <time>2024-01-12T10:42:40+01:00</time>
      </trkpt>
      <trkpt lat="43.62205" lon="3.73618">
        <ele>125</ele>
        <time>2024-01-12T10:42:49+01:00</time>
      </trkpt>
      <trkpt lat="43.62192" lon="3.73615">
        <ele>126</ele>
        <time>2024-01-12T10:43:02+01:00</time>
      </trkpt>
      <trkpt lat="43.62182" lon="3.73613">
        <ele>127</ele>
        <time>2024-01-12T10:43:12+01:00</time>
      </trkpt>
      <trkpt lat="43.62173" lon="3.73612">
        <ele>128</ele>
        <time>2024-01-12T10:43:21+01:00</time>
      </trkpt>
      <trkpt lat="43.62163" lon="3.73614">
        <ele>128</ele>
        <time>2024-01-12T10:43:30+01:00</time>
      </trkpt>
      <trkpt lat="43.62151" lon="3.73609">
        <ele>129</ele>
        <time>2024-01-12T10:43:45+01:00</time>
      </trkpt>
      <trkpt lat="43.62142" lon="3.73607">
        <ele>129</ele>
        <time>2024-01-12T10:43:54+01:00</time>
      </trkpt>
      <trkpt lat="43.62132" lon="3.73602">
        <ele>130</ele>
        <time>2024-01-12T10:44:03+01:00</time>
      </trkpt>
      <trkpt lat="43.62123" lon="3.73598">
        <ele>131</ele>
        <time>2024-01-12T10:44:12+01:00</time>
      </trkpt>
      <trkpt lat="43.62114" lon="3.73593">
        <ele>132</ele>
        <time>2024-01-12T10:44:21+01:00</time>
      </trkpt>
      <trkpt lat="43.62104" lon="3.73588">
        <ele>133</ele>
        <time>2024-01-12T10:44:31+01:00</time>
      </trkpt>
      <trkpt lat="43.62094" lon="3.73585">
        <ele>133</ele>
        <time>2024-01-12T10:44:40+01:00</time>
      </trkpt>
      <trkpt lat="43.62082" lon="3.73579">
        <ele>134</ele>
        <time>2024-01-12T10:44:54+01:00</time>
      </trkpt>
      <trkpt lat="43.62072" lon="3.73575">
        <ele>135</ele>
        <time>2024-01-12T10:45:03+01:00</time>
      </trkpt>
      <trkpt lat="43.62063" lon="3.73571">
        <ele>135</ele>
        <time>2024-01-12T10:45:13+01:00</time>
      </trkpt>
      <trkpt lat="43.6205" lon="3.73565">
        <ele>135</ele>
        <time>2024-01-12T10:45:26+01:00</time>
      </trkpt>
      <trkpt lat="43.62041" lon="3.73558">
        <ele>136</ele>
        <time>2024-01-12T10:45:36+01:00</time>
      </trkpt>
      <trkpt lat="43.62028" lon="3.73553">
        <ele>136</ele>
        <time>2024-01-12T10:45:49+01:00</time>
      </trkpt>
      <trkpt lat="43.62017" lon="3.73549">
        <ele>138</ele>
        <time>2024-01-12T10:46:04+01:00</time>
      </trkpt>
      <trkpt lat="43.62003" lon="3.73549">
        <ele>140</ele>
        <time>2024-01-12T10:46:18+01:00</time>
      </trkpt>
      <trkpt lat="43.6199" lon="3.73551">
        <ele>142</ele>
        <time>2024-01-12T10:46:32+01:00</time>
      </trkpt>
      <trkpt lat="43.61982" lon="3.73535">
        <ele>143</ele>
        <time>2024-01-12T10:49:40+01:00</time>
      </trkpt>
      <trkpt lat="43.61975" lon="3.73523">
        <ele>144</ele>
        <time>2024-01-12T10:49:49+01:00</time>
      </trkpt>
      <trkpt lat="43.61971" lon="3.73512">
        <ele>145</ele>
        <time>2024-01-12T10:49:59+01:00</time>
      </trkpt>
      <trkpt lat="43.61966" lon="3.73501">
        <ele>147</ele>
        <time>2024-01-12T10:50:08+01:00</time>
      </trkpt>
      <trkpt lat="43.61962" lon="3.73488">
        <ele>148</ele>
        <time>2024-01-12T10:50:17+01:00</time>
      </trkpt>
      <trkpt lat="43.6196" lon="3.73473">
        <ele>149</ele>
        <time>2024-01-12T10:50:31+01:00</time>
      </trkpt>
      <trkpt lat="43.61956" lon="3.73456">
        <ele>151</ele>
        <time>2024-01-12T10:50:41+01:00</time>
      </trkpt>
      <trkpt lat="43.61954" lon="3.73441">
        <ele>152</ele>
        <time>2024-01-12T10:50:51+01:00</time>
      </trkpt>
      <trkpt lat="43.61956" lon="3.73421">
        <ele>154</ele>
        <time>2024-01-12T10:51:50+01:00</time>
      </trkpt>
      <trkpt lat="43.6195" lon="3.73409">
        <ele>156</ele>
        <time>2024-01-12T10:51:59+01:00</time>
      </trkpt>
      <trkpt lat="43.61944" lon="3.73397">
        <ele>158</ele>
        <time>2024-01-12T10:52:18+01:00</time>
      </trkpt>
      <trkpt lat="43.61942" lon="3.73381">
        <ele>159</ele>
        <time>2024-01-12T10:52:32+01:00</time>
      </trkpt>
      <trkpt lat="43.61942" lon="3.73362">
        <ele>160</ele>
        <time>2024-01-12T10:52:47+01:00</time>
      </trkpt>
      <trkpt lat="43.6194" lon="3.73349">
        <ele>161</ele>
        <time>2024-01-12T10:52:56+01:00</time>
      </trkpt>
      <trkpt lat="43.61939" lon="3.73332">
        <ele>162</ele>
        <time>2024-01-12T10:53:06+01:00</time>
      </trkpt>
      <trkpt lat="43.61935" lon="3.73316">
        <ele>163</ele>
        <time>2024-01-12T10:53:15+01:00</time>
      </trkpt>
      <trkpt lat="43.61932" lon="3.73299">
        <ele>164</ele>
        <time>2024-01-12T10:53:25+01:00</time>
      </trkpt>
      <trkpt lat="43.61926" lon="3.73286">
        <ele>165</ele>
        <time>2024-01-12T10:53:34+01:00</time>
      </trkpt>
      <trkpt lat="43.61922" lon="3.73268">
        <ele>167</ele>
        <time>2024-01-12T10:53:44+01:00</time>
      </trkpt>
      <trkpt lat="43.61918" lon="3.73253">
        <ele>169</ele>
        <time>2024-01-12T10:53:53+01:00</time>
      </trkpt>
      <trkpt lat="43.61915" lon="3.73235">
        <ele>169</ele>
        <time>2024-01-12T10:54:02+01:00</time>
      </trkpt>
      <trkpt lat="43.61912" lon="3.73219">
        <ele>170</ele>
        <time>2024-01-12T10:54:12+01:00</time>
      </trkpt>
      <trkpt lat="43.6191" lon="3.73202">
        <ele>170</ele>
        <time>2024-01-12T10:54:21+01:00</time>
      </trkpt>
      <trkpt lat="43.61907" lon="3.73185">
        <ele>171</ele>
        <time>2024-01-12T10:54:30+01:00</time>
      </trkpt>
      <trkpt lat="43.61903" lon="3.73169">
        <ele>172</ele>
        <time>2024-01-12T10:54:40+01:00</time>
      </trkpt>
      <trkpt lat="43.61898" lon="3.73153">
        <ele>173</ele>
        <time>2024-01-12T10:54:49+01:00</time>
      </trkpt>
      <trkpt lat="43.61894" lon="3.73141">
        <ele>173</ele>
        <time>2024-01-12T10:54:58+01:00</time>
      </trkpt>
      <trkpt lat="43.61888" lon="3.73129">
        <ele>174</ele>
        <time>2024-01-12T10:55:08+01:00</time>
      </trkpt>
      <trkpt lat="43.61883" lon="3.73117">
        <ele>174</ele>
        <time>2024-01-12T10:55:17+01:00</time>
      </trkpt>
      <trkpt lat="43.61879" lon="3.73104">
        <ele>174</ele>
        <time>2024-01-12T10:55:27+01:00</time>
      </trkpt>
      <trkpt lat="43.61871" lon="3.73085">
        <ele>174</ele>
        <time>2024-01-12T10:56:00+01:00</time>
      </trkpt>
      <trkpt lat="43.61865" lon="3.73071">
        <ele>175</ele>
        <time>2024-01-12T10:56:10+01:00</time>
      </trkpt>
      <trkpt lat="43.61861" lon="3.73057">
        <ele>175</ele>
        <time>2024-01-12T10:56:19+01:00</time>
      </trkpt>
      <trkpt lat="43.61854" lon="3.73046">
        <ele>176</ele>
        <time>2024-01-12T10:56:28+01:00</time>
      </trkpt>
      <trkpt lat="43.61847" lon="3.73033">
        <ele>177</ele>
        <time>2024-01-12T10:56:37+01:00</time>
      </trkpt>
      <trkpt lat="43.61841" lon="3.7302">
        <ele>177</ele>
        <time>2024-01-12T10:56:47+01:00</time>
      </trkpt>
      <trkpt lat="43.61835" lon="3.73006">
        <ele>179</ele>
        <time>2024-01-12T10:56:56+01:00</time>
      </trkpt>
      <trkpt lat="43.61825" lon="3.72992">
        <ele>179</ele>
        <time>2024-01-12T10:57:10+01:00</time>
      </trkpt>
      <trkpt lat="43.61821" lon="3.72978">
        <ele>179</ele>
        <time>2024-01-12T10:57:20+01:00</time>
      </trkpt>
      <trkpt lat="43.61817" lon="3.72964">
        <ele>179</ele>
        <time>2024-01-12T10:57:30+01:00</time>
      </trkpt>
      <trkpt lat="43.6181" lon="3.72953">
        <ele>180</ele>
        <time>2024-01-12T10:57:39+01:00</time>
      </trkpt>
      <trkpt lat="43.61803" lon="3.72942">
        <ele>181</ele>
        <time>2024-01-12T10:57:48+01:00</time>
      </trkpt>
      <trkpt lat="43.61798" lon="3.72927">
        <ele>182</ele>
        <time>2024-01-12T10:57:59+01:00</time>
      </trkpt>
      <trkpt lat="43.61793" lon="3.72913">
        <ele>182</ele>
        <time>2024-01-12T10:58:08+01:00</time>
      </trkpt>
      <trkpt lat="43.61789" lon="3.72901">
        <ele>183</ele>
        <time>2024-01-12T10:58:18+01:00</time>
      </trkpt>
      <trkpt lat="43.61785" lon="3.72888">
        <ele>184</ele>
        <time>2024-01-12T10:58:27+01:00</time>
      </trkpt>
      <trkpt lat="43.61781" lon="3.72875">
        <ele>184</ele>
        <time>2024-01-12T10:58:36+01:00</time>
      </trkpt>
      <trkpt lat="43.61778" lon="3.7286">
        <ele>185</ele>
        <time>2024-01-12T10:58:45+01:00</time>
      </trkpt>
      <trkpt lat="43.61774" lon="3.72848">
        <ele>185</ele>
        <time>2024-01-12T11:05:15+01:00</time>
      </trkpt>
      <trkpt lat="43.61764" lon="3.72847">
        <ele>185</ele>
        <time>2024-01-12T11:05:30+01:00</time>
      </trkpt>
      <trkpt lat="43.61754" lon="3.72858">
        <ele>185</ele>
        <time>2024-01-12T11:05:53+01:00</time>
      </trkpt>
      <trkpt lat="43.61743" lon="3.72867">
        <ele>185</ele>
        <time>2024-01-12T11:06:03+01:00</time>
      </trkpt>
      <trkpt lat="43.61735" lon="3.7288">
        <ele>184</ele>
        <time>2024-01-12T11:06:12+01:00</time>
      </trkpt>
      <trkpt lat="43.61729" lon="3.72891">
        <ele>183</ele>
        <time>2024-01-12T11:06:21+01:00</time>
      </trkpt>
      <trkpt lat="43.61721" lon="3.72902">
        <ele>183</ele>
        <time>2024-01-12T11:06:31+01:00</time>
      </trkpt>
      <trkpt lat="43.61715" lon="3.72912">
        <ele>182</ele>
        <time>2024-01-12T11:06:40+01:00</time>
      </trkpt>
      <trkpt lat="43.61709" lon="3.72924">
        <ele>182</ele>
        <time>2024-01-12T11:06:49+01:00</time>
      </trkpt>
      <trkpt lat="43.61704" lon="3.72937">
        <ele>181</ele>
        <time>2024-01-12T11:06:58+01:00</time>
      </trkpt>
      <trkpt lat="43.617" lon="3.72949">
        <ele>181</ele>
        <time>2024-01-12T11:07:07+01:00</time>
      </trkpt>
      <trkpt lat="43.61696" lon="3.72962">
        <ele>180</ele>
        <time>2024-01-12T11:07:17+01:00</time>
      </trkpt>
      <trkpt lat="43.61691" lon="3.72975">
        <ele>179</ele>
        <time>2024-01-12T11:07:26+01:00</time>
      </trkpt>
      <trkpt lat="43.61687" lon="3.72988">
        <ele>179</ele>
        <time>2024-01-12T11:07:35+01:00</time>
      </trkpt>
      <trkpt lat="43.61683" lon="3.73001">
        <ele>178</ele>
        <time>2024-01-12T11:07:44+01:00</time>
      </trkpt>
      <trkpt lat="43.61678" lon="3.73012">
        <ele>177</ele>
        <time>2024-01-12T11:07:54+01:00</time>
      </trkpt>
      <trkpt lat="43.61672" lon="3.73025">
        <ele>176</ele>
        <time>2024-01-12T11:08:04+01:00</time>
      </trkpt>
      <trkpt lat="43.61666" lon="3.73034">
        <ele>176</ele>
        <time>2024-01-12T11:08:13+01:00</time>
      </trkpt>
      <trkpt lat="43.61658" lon="3.73043">
        <ele>174</ele>
        <time>2024-01-12T11:08:22+01:00</time>
      </trkpt>
      <trkpt lat="43.6165" lon="3.73049">
        <ele>173</ele>
        <time>2024-01-12T11:08:31+01:00</time>
      </trkpt>
      <trkpt lat="43.61641" lon="3.73063">
        <ele>172</ele>
        <time>2024-01-12T11:08:45+01:00</time>
      </trkpt>
      <trkpt lat="43.61633" lon="3.73077">
        <ele>171</ele>
        <time>2024-01-12T11:08:59+01:00</time>
      </trkpt>
      <trkpt lat="43.61627" lon="3.73092">
        <ele>170</ele>
        <time>2024-01-12T11:09:13+01:00</time>
      </trkpt>
      <trkpt lat="43.61622" lon="3.73103">
        <ele>169</ele>
        <time>2024-01-12T11:09:22+01:00</time>
      </trkpt>
      <trkpt lat="43.61617" lon="3.73115">
        <ele>169</ele>
        <time>2024-01-12T11:09:32+01:00</time>
      </trkpt>
      <trkpt lat="43.61609" lon="3.73125">
        <ele>169</ele>
        <time>2024-01-12T11:09:41+01:00</time>
      </trkpt>
      <trkpt lat="43.616" lon="3.7313">
        <ele>168</ele>
        <time>2024-01-12T11:09:50+01:00</time>
      </trkpt>
      <trkpt lat="43.61593" lon="3.73138">
        <ele>168</ele>
        <time>2024-01-12T11:10:00+01:00</time>
      </trkpt>
      <trkpt lat="43.61587" lon="3.73149">
        <ele>169</ele>
        <time>2024-01-12T11:10:09+01:00</time>
      </trkpt>
      <trkpt lat="43.6158" lon="3.73161">
        <ele>169</ele>
        <time>2024-01-12T11:10:18+01:00</time>
      </trkpt>
      <trkpt lat="43.61571" lon="3.7317">
        <ele>168</ele>
        <time>2024-01-12T11:10:28+01:00</time>
      </trkpt>
      <trkpt lat="43.61561" lon="3.73168">
        <ele>167</ele>
        <time>2024-01-12T11:10:37+01:00</time>
      </trkpt>
      <trkpt lat="43.61552" lon="3.73176">
        <ele>165</ele>
        <time>2024-01-12T11:10:46+01:00</time>
      </trkpt>
      <trkpt lat="43.61543" lon="3.73186">
        <ele>162</ele>
        <time>2024-01-12T11:10:56+01:00</time>
      </trkpt>
      <trkpt lat="43.61537" lon="3.73197">
        <ele>161</ele>
        <time>2024-01-12T11:11:05+01:00</time>
      </trkpt>
      <trkpt lat="43.61535" lon="3.7321">
        <ele>161</ele>
        <time>2024-01-12T11:11:14+01:00</time>
      </trkpt>
      <trkpt lat="43.61533" lon="3.73223">
        <ele>160</ele>
        <time>2024-01-12T11:11:23+01:00</time>
      </trkpt>
      <trkpt lat="43.61532" lon="3.7324">
        <ele>159</ele>
        <time>2024-01-12T11:11:33+01:00</time>
      </trkpt>
      <trkpt lat="43.61535" lon="3.73256">
        <ele>158</ele>
        <time>2024-01-12T11:11:42+01:00</time>
      </trkpt>
      <trkpt lat="43.61543" lon="3.73271">
        <ele>157</ele>
        <time>2024-01-12T11:11:56+01:00</time>
      </trkpt>
      <trkpt lat="43.61538" lon="3.73284">
        <ele>154</ele>
        <time>2024-01-12T11:14:47+01:00</time>
      </trkpt>
      <trkpt lat="43.61527" lon="3.73289">
        <ele>153</ele>
        <time>2024-01-12T11:15:01+01:00</time>
      </trkpt>
      <trkpt lat="43.61517" lon="3.73292">
        <ele>151</ele>
        <time>2024-01-12T11:15:10+01:00</time>
      </trkpt>
      <trkpt lat="43.61518" lon="3.73307">
        <ele>149</ele>
        <time>2024-01-12T11:15:44+01:00</time>
      </trkpt>
      <trkpt lat="43.61525" lon="3.73317">
        <ele>149</ele>
        <time>2024-01-12T11:15:53+01:00</time>
      </trkpt>
      <trkpt lat="43.61533" lon="3.73329">
        <ele>148</ele>
        <time>2024-01-12T11:16:16+01:00</time>
      </trkpt>
      <trkpt lat="43.61541" lon="3.73335">
        <ele>148</ele>
        <time>2024-01-12T11:16:25+01:00</time>
      </trkpt>
      <trkpt lat="43.61552" lon="3.73343">
        <ele>147</ele>
        <time>2024-01-12T11:16:39+01:00</time>
      </trkpt>
      <trkpt lat="43.61563" lon="3.73346">
        <ele>146</ele>
        <time>2024-01-12T11:16:53+01:00</time>
      </trkpt>
      <trkpt lat="43.61574" lon="3.73347">
        <ele>145</ele>
        <time>2024-01-12T11:17:02+01:00</time>
      </trkpt>
      <trkpt lat="43.61584" lon="3.73342">
        <ele>144</ele>
        <time>2024-01-12T11:17:11+01:00</time>
      </trkpt>
      <trkpt lat="43.61595" lon="3.73332">
        <ele>142</ele>
        <time>2024-01-12T11:17:25+01:00</time>
      </trkpt>
      <trkpt lat="43.61604" lon="3.73327">
        <ele>141</ele>
        <time>2024-01-12T11:17:35+01:00</time>
      </trkpt>
      <trkpt lat="43.61617" lon="3.73316">
        <ele>140</ele>
        <time>2024-01-12T11:17:49+01:00</time>
      </trkpt>
      <trkpt lat="43.61627" lon="3.73314">
        <ele>140</ele>
        <time>2024-01-12T11:17:58+01:00</time>
      </trkpt>
      <trkpt lat="43.61632" lon="3.73325">
        <ele>139</ele>
        <time>2024-01-12T11:18:07+01:00</time>
      </trkpt>
      <trkpt lat="43.61626" lon="3.73339">
        <ele>138</ele>
        <time>2024-01-12T11:18:17+01:00</time>
      </trkpt>
      <trkpt lat="43.61627" lon="3.73354">
        <ele>138</ele>
        <time>2024-01-12T11:18:26+01:00</time>
      </trkpt>
      <trkpt lat="43.61633" lon="3.73367">
        <ele>137</ele>
        <time>2024-01-12T11:18:35+01:00</time>
      </trkpt>
      <trkpt lat="43.61632" lon="3.73381">
        <ele>137</ele>
        <time>2024-01-12T11:18:44+01:00</time>
      </trkpt>
      <trkpt lat="43.61638" lon="3.73391">
        <ele>137</ele>
        <time>2024-01-12T11:18:54+01:00</time>
      </trkpt>
      <trkpt lat="43.61645" lon="3.73406">
        <ele>137</ele>
        <time>2024-01-12T11:19:04+01:00</time>
      </trkpt>
      <trkpt lat="43.61648" lon="3.73419">
        <ele>136</ele>
        <time>2024-01-12T11:19:13+01:00</time>
      </trkpt>
      <trkpt lat="43.61649" lon="3.73433">
        <ele>137</ele>
        <time>2024-01-12T11:19:23+01:00</time>
      </trkpt>
      <trkpt lat="43.61644" lon="3.73444">
        <ele>137</ele>
        <time>2024-01-12T11:19:32+01:00</time>
      </trkpt>
      <trkpt lat="43.61636" lon="3.73457">
        <ele>138</ele>
        <time>2024-01-12T11:19:46+01:00</time>
      </trkpt>
      <trkpt lat="43.61648" lon="3.73463">
        <ele>141</ele>
        <time>2024-01-12T11:20:00+01:00</time>
      </trkpt>
      <trkpt lat="43.61657" lon="3.73462">
        <ele>142</ele>
        <time>2024-01-12T11:20:10+01:00</time>
      </trkpt>
      <trkpt lat="43.6165" lon="3.73472">
        <ele>143</ele>
        <time>2024-01-12T11:21:02+01:00</time>
      </trkpt>
      <trkpt lat="43.61641" lon="3.73476">
        <ele>142</ele>
        <time>2024-01-12T11:21:12+01:00</time>
      </trkpt>
      <trkpt lat="43.61631" lon="3.73485">
        <ele>142</ele>
        <time>2024-01-12T11:21:21+01:00</time>
      </trkpt>
      <trkpt lat="43.61623" lon="3.73495">
        <ele>143</ele>
        <time>2024-01-12T11:21:30+01:00</time>
      </trkpt>
      <trkpt lat="43.61615" lon="3.73512">
        <ele>144</ele>
        <time>2024-01-12T11:21:45+01:00</time>
      </trkpt>
      <trkpt lat="43.6161" lon="3.73527">
        <ele>146</ele>
        <time>2024-01-12T11:21:54+01:00</time>
      </trkpt>
      <trkpt lat="43.61602" lon="3.73537">
        <ele>145</ele>
        <time>2024-01-12T11:22:03+01:00</time>
      </trkpt>
      <trkpt lat="43.61592" lon="3.7355">
        <ele>144</ele>
        <time>2024-01-12T11:22:13+01:00</time>
      </trkpt>
      <trkpt lat="43.61587" lon="3.73568">
        <ele>144</ele>
        <time>2024-01-12T11:22:27+01:00</time>
      </trkpt>
      <trkpt lat="43.61588" lon="3.73588">
        <ele>144</ele>
        <time>2024-01-12T11:22:36+01:00</time>
      </trkpt>
      <trkpt lat="43.61594" lon="3.73599">
        <ele>145</ele>
        <time>2024-01-12T11:24:09+01:00</time>
      </trkpt>
      <trkpt lat="43.61604" lon="3.73609">
        <ele>145</ele>
        <time>2024-01-12T11:24:23+01:00</time>
      </trkpt>
      <trkpt lat="43.61617" lon="3.73612">
        <ele>146</ele>
        <time>2024-01-12T11:26:14+01:00</time>
      </trkpt>
      <trkpt lat="43.61628" lon="3.73616">
        <ele>147</ele>
        <time>2024-01-12T11:26:23+01:00</time>
      </trkpt>
      <trkpt lat="43.61637" lon="3.73623">
        <ele>146</ele>
        <time>2024-01-12T11:26:32+01:00</time>
      </trkpt>
      <trkpt lat="43.6165" lon="3.73626">
        <ele>146</ele>
        <time>2024-01-12T11:26:46+01:00</time>
      </trkpt>
      <trkpt lat="43.61661" lon="3.73629">
        <ele>146</ele>
        <time>2024-01-12T11:26:56+01:00</time>
      </trkpt>
      <trkpt lat="43.61674" lon="3.73637">
        <ele>146</ele>
        <time>2024-01-12T11:27:10+01:00</time>
      </trkpt>
      <trkpt lat="43.61687" lon="3.73639">
        <ele>146</ele>
        <time>2024-01-12T11:27:19+01:00</time>
      </trkpt>
      <trkpt lat="43.61701" lon="3.73642">
        <ele>147</ele>
        <time>2024-01-12T11:27:34+01:00</time>
      </trkpt>
      <trkpt lat="43.61715" lon="3.73646">
        <ele>148</ele>
        <time>2024-01-12T11:27:43+01:00</time>
      </trkpt>
      <trkpt lat="43.61722" lon="3.73656">
        <ele>147</ele>
        <time>2024-01-12T11:27:52+01:00</time>
      </trkpt>
      <trkpt lat="43.61729" lon="3.73669">
        <ele>146</ele>
        <time>2024-01-12T11:28:02+01:00</time>
      </trkpt>
      <trkpt lat="43.61731" lon="3.73683">
        <ele>145</ele>
        <time>2024-01-12T11:28:12+01:00</time>
      </trkpt>
      <trkpt lat="43.61729" lon="3.73703">
        <ele>143</ele>
        <time>2024-01-12T11:28:27+01:00</time>
      </trkpt>
      <trkpt lat="43.61728" lon="3.73717">
        <ele>143</ele>
        <time>2024-01-12T11:28:36+01:00</time>
      </trkpt>
      <trkpt lat="43.61726" lon="3.73733">
        <ele>144</ele>
        <time>2024-01-12T11:28:45+01:00</time>
      </trkpt>
      <trkpt lat="43.61725" lon="3.73747">
        <ele>144</ele>
        <time>2024-01-12T11:28:55+01:00</time>
      </trkpt>
      <trkpt lat="43.61721" lon="3.73762">
        <ele>145</ele>
        <time>2024-01-12T11:29:04+01:00</time>
      </trkpt>
      <trkpt lat="43.61721" lon="3.73777">
        <ele>146</ele>
        <time>2024-01-12T11:29:52+01:00</time>
      </trkpt>
      <trkpt lat="43.61713" lon="3.73762">
        <ele>144</ele>
        <time>2024-01-12T11:31:49+01:00</time>
      </trkpt>
      <trkpt lat="43.61707" lon="3.73747">
        <ele>141</ele>
        <time>2024-01-12T11:32:03+01:00</time>
      </trkpt>
      <trkpt lat="43.61703" lon="3.73734">
        <ele>139</ele>
        <time>2024-01-12T11:32:12+01:00</time>
      </trkpt>
      <trkpt lat="43.61697" lon="3.73722">
        <ele>136</ele>
        <time>2024-01-12T11:32:26+01:00</time>
      </trkpt>
      <trkpt lat="43.61694" lon="3.73705">
        <ele>135</ele>
        <time>2024-01-12T11:32:40+01:00</time>
      </trkpt>
      <trkpt lat="43.6169" lon="3.73692">
        <ele>135</ele>
        <time>2024-01-12T11:32:50+01:00</time>
      </trkpt>
      <trkpt lat="43.61685" lon="3.73679">
        <ele>137</ele>
        <time>2024-01-12T11:32:59+01:00</time>
      </trkpt>
      <trkpt lat="43.61675" lon="3.73674">
        <ele>137</ele>
        <time>2024-01-12T11:33:09+01:00</time>
      </trkpt>
      <trkpt lat="43.61663" lon="3.7368">
        <ele>135</ele>
        <time>2024-01-12T11:33:18+01:00</time>
      </trkpt>
      <trkpt lat="43.61653" lon="3.73682">
        <ele>134</ele>
        <time>2024-01-12T11:33:32+01:00</time>
      </trkpt>
      <trkpt lat="43.61643" lon="3.73681">
        <ele>134</ele>
        <time>2024-01-12T11:33:41+01:00</time>
      </trkpt>
      <trkpt lat="43.61632" lon="3.73684">
        <ele>133</ele>
        <time>2024-01-12T11:33:51+01:00</time>
      </trkpt>
      <trkpt lat="43.61618" lon="3.73686">
        <ele>132</ele>
        <time>2024-01-12T11:34:04+01:00</time>
      </trkpt>
      <trkpt lat="43.61608" lon="3.73689">
        <ele>131</ele>
        <time>2024-01-12T11:34:13+01:00</time>
      </trkpt>
      <trkpt lat="43.61598" lon="3.73693">
        <ele>129</ele>
        <time>2024-01-12T11:34:23+01:00</time>
      </trkpt>
      <trkpt lat="43.61587" lon="3.73698">
        <ele>128</ele>
        <time>2024-01-12T11:34:32+01:00</time>
      </trkpt>
      <trkpt lat="43.61574" lon="3.73705">
        <ele>125</ele>
        <time>2024-01-12T11:34:46+01:00</time>
      </trkpt>
      <trkpt lat="43.61564" lon="3.73713">
        <ele>123</ele>
        <time>2024-01-12T11:34:55+01:00</time>
      </trkpt>
      <trkpt lat="43.6156" lon="3.73725">
        <ele>120</ele>
        <time>2024-01-12T11:35:39+01:00</time>
      </trkpt>
      <trkpt lat="43.61556" lon="3.73745">
        <ele>119</ele>
        <time>2024-01-12T11:35:54+01:00</time>
      </trkpt>
      <trkpt lat="43.61553" lon="3.73758">
        <ele>119</ele>
        <time>2024-01-12T11:36:03+01:00</time>
      </trkpt>
      <trkpt lat="43.61551" lon="3.73773">
        <ele>119</ele>
        <time>2024-01-12T11:36:12+01:00</time>
      </trkpt>
      <trkpt lat="43.61547" lon="3.73789">
        <ele>119</ele>
        <time>2024-01-12T11:36:21+01:00</time>
      </trkpt>
      <trkpt lat="43.61542" lon="3.73808">
        <ele>119</ele>
        <time>2024-01-12T11:36:35+01:00</time>
      </trkpt>
      <trkpt lat="43.61538" lon="3.73819">
        <ele>117</ele>
        <time>2024-01-12T11:36:44+01:00</time>
      </trkpt>
      <trkpt lat="43.61533" lon="3.73833">
        <ele>116</ele>
        <time>2024-01-12T11:36:54+01:00</time>
      </trkpt>
      <trkpt lat="43.61524" lon="3.73841">
        <ele>114</ele>
        <time>2024-01-12T11:37:08+01:00</time>
      </trkpt>
      <trkpt lat="43.61514" lon="3.73837">
        <ele>114</ele>
        <time>2024-01-12T11:37:23+01:00</time>
      </trkpt>
      <trkpt lat="43.61505" lon="3.7383">
        <ele>114</ele>
        <time>2024-01-12T11:39:01+01:00</time>
      </trkpt>
      <trkpt lat="43.61496" lon="3.7382">
        <ele>115</ele>
        <time>2024-01-12T11:39:10+01:00</time>
      </trkpt>
      <trkpt lat="43.61489" lon="3.73812">
        <ele>116</ele>
        <time>2024-01-12T11:39:20+01:00</time>
      </trkpt>
      <trkpt lat="43.61481" lon="3.73806">
        <ele>116</ele>
        <time>2024-01-12T11:39:29+01:00</time>
      </trkpt>
      <trkpt lat="43.61474" lon="3.73792">
        <ele>117</ele>
        <time>2024-01-12T11:39:43+01:00</time>
      </trkpt>
      <trkpt lat="43.61471" lon="3.73774">
        <ele>118</ele>
        <time>2024-01-12T11:39:57+01:00</time>
      </trkpt>
      <trkpt lat="43.6147" lon="3.73758">
        <ele>119</ele>
        <time>2024-01-12T11:40:11+01:00</time>
      </trkpt>
      <trkpt lat="43.61467" lon="3.73743">
        <ele>120</ele>
        <time>2024-01-12T11:40:25+01:00</time>
      </trkpt>
      <trkpt lat="43.61468" lon="3.73727">
        <ele>120</ele>
        <time>2024-01-12T11:40:34+01:00</time>
      </trkpt>
      <trkpt lat="43.61466" lon="3.73714">
        <ele>121</ele>
        <time>2024-01-12T11:40:43+01:00</time>
      </trkpt>
      <trkpt lat="43.61463" lon="3.73701">
        <ele>121</ele>
        <time>2024-01-12T11:40:53+01:00</time>
      </trkpt>
      <trkpt lat="43.61459" lon="3.73683">
        <ele>122</ele>
        <time>2024-01-12T11:41:03+01:00</time>
      </trkpt>
      <trkpt lat="43.61449" lon="3.7367">
        <ele>125</ele>
        <time>2024-01-12T11:41:16+01:00</time>
      </trkpt>
      <trkpt lat="43.61442" lon="3.73662">
        <ele>127</ele>
        <time>2024-01-12T11:41:26+01:00</time>
      </trkpt>
      <trkpt lat="43.61432" lon="3.73665">
        <ele>129</ele>
        <time>2024-01-12T11:41:40+01:00</time>
      </trkpt>
      <trkpt lat="43.6142" lon="3.73676">
        <ele>130</ele>
        <time>2024-01-12T11:41:55+01:00</time>
      </trkpt>
      <trkpt lat="43.61409" lon="3.73681">
        <ele>132</ele>
        <time>2024-01-12T11:42:09+01:00</time>
      </trkpt>
      <trkpt lat="43.61399" lon="3.73686">
        <ele>132</ele>
        <time>2024-01-12T11:42:18+01:00</time>
      </trkpt>
      <trkpt lat="43.61389" lon="3.73691">
        <ele>133</ele>
        <time>2024-01-12T11:42:32+01:00</time>
      </trkpt>
      <trkpt lat="43.6138" lon="3.73697">
        <ele>134</ele>
        <time>2024-01-12T11:42:42+01:00</time>
      </trkpt>
      <trkpt lat="43.61367" lon="3.73703">
        <ele>136</ele>
        <time>2024-01-12T11:42:56+01:00</time>
      </trkpt>
      <trkpt lat="43.61357" lon="3.73704">
        <ele>138</ele>
        <time>2024-01-12T11:43:05+01:00</time>
      </trkpt>
      <trkpt lat="43.61346" lon="3.73706">
        <ele>139</ele>
        <time>2024-01-12T11:43:19+01:00</time>
      </trkpt>
      <trkpt lat="43.61334" lon="3.73705">
        <ele>141</ele>
        <time>2024-01-12T11:43:28+01:00</time>
      </trkpt>
      <trkpt lat="43.61322" lon="3.73709">
        <ele>142</ele>
        <time>2024-01-12T11:43:38+01:00</time>
      </trkpt>
      <trkpt lat="43.61312" lon="3.73712">
        <ele>143</ele>
        <time>2024-01-12T11:43:47+01:00</time>
      </trkpt>
      <trkpt lat="43.61302" lon="3.73715">
        <ele>143</ele>
        <time>2024-01-12T11:43:57+01:00</time>
      </trkpt>
      <trkpt lat="43.61293" lon="3.73718">
        <ele>143</ele>
        <time>2024-01-12T11:44:06+01:00</time>
      </trkpt>
      <trkpt lat="43.61283" lon="3.73724">
        <ele>143</ele>
        <time>2024-01-12T11:44:16+01:00</time>
      </trkpt>
      <trkpt lat="43.61271" lon="3.73722">
        <ele>143</ele>
        <time>2024-01-12T11:44:29+01:00</time>
      </trkpt>
      <trkpt lat="43.61261" lon="3.73719">
        <ele>144</ele>
        <time>2024-01-12T11:44:39+01:00</time>
      </trkpt>
      <trkpt lat="43.6125" lon="3.73716">
        <ele>145</ele>
        <time>2024-01-12T11:44:48+01:00</time>
      </trkpt>
      <trkpt lat="43.61241" lon="3.7371">
        <ele>146</ele>
        <time>2024-01-12T11:44:58+01:00</time>
      </trkpt>
      <trkpt lat="43.61232" lon="3.73708">
        <ele>147</ele>
        <time>2024-01-12T11:45:07+01:00</time>
      </trkpt>
      <trkpt lat="43.6122" lon="3.73704">
        <ele>148</ele>
        <time>2024-01-12T11:45:17+01:00</time>
      </trkpt>
      <trkpt lat="43.61211" lon="3.73701">
        <ele>149</ele>
        <time>2024-01-12T11:45:27+01:00</time>
      </trkpt>
      <trkpt lat="43.61201" lon="3.73695">
        <ele>150</ele>
        <time>2024-01-12T11:45:36+01:00</time>
      </trkpt>
      <trkpt lat="43.6119" lon="3.73692">
        <ele>151</ele>
        <time>2024-01-12T11:45:45+01:00</time>
      </trkpt>
      <trkpt lat="43.61181" lon="3.73687">
        <ele>152</ele>
        <time>2024-01-12T11:45:54+01:00</time>
      </trkpt>
      <trkpt lat="43.61172" lon="3.73677">
        <ele>154</ele>
        <time>2024-01-12T11:46:13+01:00</time>
      </trkpt>
      <trkpt lat="43.61167" lon="3.73665">
        <ele>155</ele>
        <time>2024-01-12T11:46:22+01:00</time>
      </trkpt>
      <trkpt lat="43.6116" lon="3.7365">
        <ele>155</ele>
        <time>2024-01-12T11:46:36+01:00</time>
      </trkpt>
      <trkpt lat="43.61152" lon="3.73644">
        <ele>155</ele>
        <time>2024-01-12T11:46:45+01:00</time>
      </trkpt>
      <trkpt lat="43.61158" lon="3.73632">
        <ele>154</ele>
        <time>2024-01-12T11:50:27+01:00</time>
      </trkpt>
      <trkpt lat="43.61164" lon="3.73621">
        <ele>152</ele>
        <time>2024-01-12T11:50:37+01:00</time>
      </trkpt>
      <trkpt lat="43.61161" lon="3.73607">
        <ele>152</ele>
        <time>2024-01-12T11:51:21+01:00</time>
      </trkpt>
      <trkpt lat="43.6116" lon="3.73621">
        <ele>153</ele>
        <time>2024-01-12T12:26:59+01:00</time>
      </trkpt>
      <trkpt lat="43.61163" lon="3.73633">
        <ele>154</ele>
        <time>2024-01-12T12:27:14+01:00</time>
      </trkpt>
      <trkpt lat="43.61153" lon="3.73635">
        <ele>154</ele>
        <time>2024-01-12T12:28:03+01:00</time>
      </trkpt>
      <trkpt lat="43.6116" lon="3.73627">
        <ele>153</ele>
        <time>2024-01-12T12:28:22+01:00</time>
      </trkpt>
      <trkpt lat="43.61157" lon="3.73606">
        <ele>152</ele>
        <time>2024-01-12T12:32:48+01:00</time>
      </trkpt>
      <trkpt lat="43.61148" lon="3.73608">
        <ele>154</ele>
        <time>2024-01-12T12:34:40+01:00</time>
      </trkpt>
      <trkpt lat="43.61139" lon="3.73614">
        <ele>155</ele>
        <time>2024-01-12T12:34:54+01:00</time>
      </trkpt>
      <trkpt lat="43.6113" lon="3.73622">
        <ele>154</ele>
        <time>2024-01-12T12:35:04+01:00</time>
      </trkpt>
      <trkpt lat="43.61121" lon="3.7362">
        <ele>154</ele>
        <time>2024-01-12T12:35:14+01:00</time>
      </trkpt>
      <trkpt lat="43.61113" lon="3.73612">
        <ele>153</ele>
        <time>2024-01-12T12:35:23+01:00</time>
      </trkpt>
      <trkpt lat="43.61105" lon="3.73604">
        <ele>152</ele>
        <time>2024-01-12T12:35:32+01:00</time>
      </trkpt>
      <trkpt lat="43.61095" lon="3.73604">
        <ele>150</ele>
        <time>2024-01-12T12:35:41+01:00</time>
      </trkpt>
      <trkpt lat="43.61084" lon="3.73603">
        <ele>149</ele>
        <time>2024-01-12T12:35:51+01:00</time>
      </trkpt>
      <trkpt lat="43.61094" lon="3.73604">
        <ele>150</ele>
        <time>2024-01-12T12:36:10+01:00</time>
      </trkpt>
      <trkpt lat="43.61104" lon="3.73603">
        <ele>152</ele>
        <time>2024-01-12T12:36:19+01:00</time>
      </trkpt>
      <trkpt lat="43.61115" lon="3.73602">
        <ele>153</ele>
        <time>2024-01-12T12:36:33+01:00</time>
      </trkpt>
      <trkpt lat="43.61119" lon="3.7359">
        <ele>152</ele>
        <time>2024-01-12T12:36:43+01:00</time>
      </trkpt>
      <trkpt lat="43.61127" lon="3.73579">
        <ele>153</ele>
        <time>2024-01-12T12:36:57+01:00</time>
      </trkpt>
      <trkpt lat="43.6113" lon="3.73566">
        <ele>153</ele>
        <time>2024-01-12T12:37:06+01:00</time>
      </trkpt>
      <trkpt lat="43.61136" lon="3.73555">
        <ele>153</ele>
        <time>2024-01-12T12:37:16+01:00</time>
      </trkpt>
      <trkpt lat="43.61143" lon="3.73546">
        <ele>152</ele>
        <time>2024-01-12T12:37:25+01:00</time>
      </trkpt>
      <trkpt lat="43.6115" lon="3.73529">
        <ele>150</ele>
        <time>2024-01-12T12:37:39+01:00</time>
      </trkpt>
      <trkpt lat="43.61147" lon="3.73517">
        <ele>151</ele>
        <time>2024-01-12T12:37:48+01:00</time>
      </trkpt>
      <trkpt lat="43.61142" lon="3.73503">
        <ele>151</ele>
        <time>2024-01-12T12:37:57+01:00</time>
      </trkpt>
      <trkpt lat="43.61139" lon="3.73491">
        <ele>152</ele>
        <time>2024-01-12T12:38:07+01:00</time>
      </trkpt>
      <trkpt lat="43.61135" lon="3.73475">
        <ele>153</ele>
        <time>2024-01-12T12:38:31+01:00</time>
      </trkpt>
      <trkpt lat="43.61135" lon="3.73459">
        <ele>154</ele>
        <time>2024-01-12T12:38:41+01:00</time>
      </trkpt>
      <trkpt lat="43.61141" lon="3.73445">
        <ele>153</ele>
        <time>2024-01-12T12:38:54+01:00</time>
      </trkpt>
      <trkpt lat="43.61142" lon="3.73432">
        <ele>155</ele>
        <time>2024-01-12T12:39:09+01:00</time>
      </trkpt>
      <trkpt lat="43.61135" lon="3.73424">
        <ele>157</ele>
        <time>2024-01-12T12:39:33+01:00</time>
      </trkpt>
      <trkpt lat="43.61123" lon="3.73424">
        <ele>161</ele>
        <time>2024-01-12T12:39:48+01:00</time>
      </trkpt>
      <trkpt lat="43.61114" lon="3.73428">
        <ele>163</ele>
        <time>2024-01-12T12:40:01+01:00</time>
      </trkpt>
      <trkpt lat="43.61104" lon="3.73435">
        <ele>164</ele>
        <time>2024-01-12T12:40:16+01:00</time>
      </trkpt>
      <trkpt lat="43.61091" lon="3.73435">
        <ele>165</ele>
        <time>2024-01-12T12:40:30+01:00</time>
      </trkpt>
      <trkpt lat="43.61078" lon="3.73431">
        <ele>168</ele>
        <time>2024-01-12T12:40:44+01:00</time>
      </trkpt>
      <trkpt lat="43.61074" lon="3.7342">
        <ele>170</ele>
        <time>2024-01-12T12:40:53+01:00</time>
      </trkpt>
      <trkpt lat="43.61067" lon="3.7341">
        <ele>172</ele>
        <time>2024-01-12T12:41:03+01:00</time>
      </trkpt>
      <trkpt lat="43.61061" lon="3.73401">
        <ele>173</ele>
        <time>2024-01-12T12:41:18+01:00</time>
      </trkpt>
      <trkpt lat="43.61053" lon="3.73395">
        <ele>174</ele>
        <time>2024-01-12T12:41:27+01:00</time>
      </trkpt>
      <trkpt lat="43.61044" lon="3.73386">
        <ele>175</ele>
        <time>2024-01-12T12:41:36+01:00</time>
      </trkpt>
      <trkpt lat="43.61036" lon="3.73376">
        <ele>177</ele>
        <time>2024-01-12T12:41:55+01:00</time>
      </trkpt>
      <trkpt lat="43.61024" lon="3.73364">
        <ele>178</ele>
        <time>2024-01-12T12:42:09+01:00</time>
      </trkpt>
      <trkpt lat="43.61018" lon="3.73353">
        <ele>179</ele>
        <time>2024-01-12T12:42:18+01:00</time>
      </trkpt>
      <trkpt lat="43.61012" lon="3.73339">
        <ele>179</ele>
        <time>2024-01-12T12:42:32+01:00</time>
      </trkpt>
      <trkpt lat="43.61009" lon="3.73324">
        <ele>180</ele>
        <time>2024-01-12T12:42:45+01:00</time>
      </trkpt>
      <trkpt lat="43.61006" lon="3.73306">
        <ele>181</ele>
        <time>2024-01-12T12:43:00+01:00</time>
      </trkpt>
      <trkpt lat="43.61003" lon="3.73289">
        <ele>181</ele>
        <time>2024-01-12T12:43:15+01:00</time>
      </trkpt>
      <trkpt lat="43.61004" lon="3.73273">
        <ele>182</ele>
        <time>2024-01-12T12:43:25+01:00</time>
      </trkpt>
      <trkpt lat="43.61006" lon="3.7326">
        <ele>182</ele>
        <time>2024-01-12T12:43:34+01:00</time>
      </trkpt>
      <trkpt lat="43.6101" lon="3.73244">
        <ele>184</ele>
        <time>2024-01-12T12:43:43+01:00</time>
      </trkpt>
      <trkpt lat="43.61015" lon="3.73223">
        <ele>186</ele>
        <time>2024-01-12T12:43:57+01:00</time>
      </trkpt>
      <trkpt lat="43.61019" lon="3.7321">
        <ele>187</ele>
        <time>2024-01-12T12:44:07+01:00</time>
      </trkpt>
      <trkpt lat="43.61025" lon="3.73193">
        <ele>189</ele>
        <time>2024-01-12T12:44:25+01:00</time>
      </trkpt>
      <trkpt lat="43.61034" lon="3.73183">
        <ele>189</ele>
        <time>2024-01-12T12:44:36+01:00</time>
      </trkpt>
      <trkpt lat="43.61043" lon="3.73171">
        <ele>190</ele>
        <time>2024-01-12T12:44:49+01:00</time>
      </trkpt>
      <trkpt lat="43.61047" lon="3.73157">
        <ele>190</ele>
        <time>2024-01-12T12:45:08+01:00</time>
      </trkpt>
      <trkpt lat="43.61044" lon="3.73169">
        <ele>190</ele>
        <time>2024-01-12T12:46:54+01:00</time>
      </trkpt>
      <trkpt lat="43.61038" lon="3.73182">
        <ele>189</ele>
        <time>2024-01-12T12:47:33+01:00</time>
      </trkpt>
      <trkpt lat="43.61031" lon="3.73191">
        <ele>189</ele>
        <time>2024-01-12T12:47:47+01:00</time>
      </trkpt>
      <trkpt lat="43.61017" lon="3.73196">
        <ele>187</ele>
        <time>2024-01-12T12:48:01+01:00</time>
      </trkpt>
      <trkpt lat="43.61003" lon="3.732">
        <ele>185</ele>
        <time>2024-01-12T12:48:10+01:00</time>
      </trkpt>
      <trkpt lat="43.60992" lon="3.73191">
        <ele>183</ele>
        <time>2024-01-12T12:48:44+01:00</time>
      </trkpt>
      <trkpt lat="43.60984" lon="3.73179">
        <ele>181</ele>
        <time>2024-01-12T12:49:09+01:00</time>
      </trkpt>
      <trkpt lat="43.60973" lon="3.73172">
        <ele>179</ele>
        <time>2024-01-12T12:49:42+01:00</time>
      </trkpt>
      <trkpt lat="43.60963" lon="3.73175">
        <ele>175</ele>
        <time>2024-01-12T12:50:06+01:00</time>
      </trkpt>
      <trkpt lat="43.60968" lon="3.73191">
        <ele>175</ele>
        <time>2024-01-12T12:50:50+01:00</time>
      </trkpt>
      <trkpt lat="43.60964" lon="3.73179">
        <ele>175</ele>
        <time>2024-01-12T12:51:34+01:00</time>
      </trkpt>
      <trkpt lat="43.60961" lon="3.73167">
        <ele>176</ele>
        <time>2024-01-12T12:51:43+01:00</time>
      </trkpt>
      <trkpt lat="43.60957" lon="3.73153">
        <ele>177</ele>
        <time>2024-01-12T12:51:56+01:00</time>
      </trkpt>
      <trkpt lat="43.60951" lon="3.73144">
        <ele>176</ele>
        <time>2024-01-12T12:52:06+01:00</time>
      </trkpt>
      <trkpt lat="43.60942" lon="3.7313">
        <ele>175</ele>
        <time>2024-01-12T12:52:24+01:00</time>
      </trkpt>
      <trkpt lat="43.60939" lon="3.73115">
        <ele>176</ele>
        <time>2024-01-12T12:52:39+01:00</time>
      </trkpt>
      <trkpt lat="43.60939" lon="3.73098">
        <ele>178</ele>
        <time>2024-01-12T12:53:23+01:00</time>
      </trkpt>
      <trkpt lat="43.60944" lon="3.73085">
        <ele>182</ele>
        <time>2024-01-12T12:53:37+01:00</time>
      </trkpt>
      <trkpt lat="43.60942" lon="3.7307">
        <ele>182</ele>
        <time>2024-01-12T12:53:51+01:00</time>
      </trkpt>
      <trkpt lat="43.60937" lon="3.73054">
        <ele>181</ele>
        <time>2024-01-12T12:54:05+01:00</time>
      </trkpt>
      <trkpt lat="43.60936" lon="3.73041">
        <ele>181</ele>
        <time>2024-01-12T12:54:14+01:00</time>
      </trkpt>
      <trkpt lat="43.60937" lon="3.73028">
        <ele>182</ele>
        <time>2024-01-12T12:54:24+01:00</time>
      </trkpt>
      <trkpt lat="43.60935" lon="3.73012">
        <ele>182</ele>
        <time>2024-01-12T12:54:38+01:00</time>
      </trkpt>
      <trkpt lat="43.60939" lon="3.72999">
        <ele>183</ele>
        <time>2024-01-12T12:54:47+01:00</time>
      </trkpt>
      <trkpt lat="43.60946" lon="3.72984">
        <ele>183</ele>
        <time>2024-01-12T12:55:01+01:00</time>
      </trkpt>
      <trkpt lat="43.60954" lon="3.7297">
        <ele>183</ele>
        <time>2024-01-12T12:55:24+01:00</time>
      </trkpt>
      <trkpt lat="43.60962" lon="3.72962">
        <ele>182</ele>
        <time>2024-01-12T12:55:44+01:00</time>
      </trkpt>
      <trkpt lat="43.60974" lon="3.72958">
        <ele>181</ele>
        <time>2024-01-12T12:55:53+01:00</time>
      </trkpt>
      <trkpt lat="43.60983" lon="3.72959">
        <ele>181</ele>
        <time>2024-01-12T12:56:02+01:00</time>
      </trkpt>
      <trkpt lat="43.60995" lon="3.72963">
        <ele>181</ele>
        <time>2024-01-12T12:56:18+01:00</time>
      </trkpt>
      <trkpt lat="43.61006" lon="3.72971">
        <ele>182</ele>
        <time>2024-01-12T12:56:27+01:00</time>
      </trkpt>
      <trkpt lat="43.61018" lon="3.72972">
        <ele>180</ele>
        <time>2024-01-12T12:56:36+01:00</time>
      </trkpt>
      <trkpt lat="43.61026" lon="3.72982">
        <ele>181</ele>
        <time>2024-01-12T12:56:46+01:00</time>
      </trkpt>
      <trkpt lat="43.61032" lon="3.72994">
        <ele>182</ele>
        <time>2024-01-12T12:56:55+01:00</time>
      </trkpt>
      <trkpt lat="43.6104" lon="3.73006">
        <ele>181</ele>
        <time>2024-01-12T12:57:05+01:00</time>
      </trkpt>
      <trkpt lat="43.61047" lon="3.73015">
        <ele>181</ele>
        <time>2024-01-12T12:57:15+01:00</time>
      </trkpt>
      <trkpt lat="43.61054" lon="3.73026">
        <ele>181</ele>
        <time>2024-01-12T12:57:24+01:00</time>
      </trkpt>
      <trkpt lat="43.61062" lon="3.73032">
        <ele>181</ele>
        <time>2024-01-12T12:57:33+01:00</time>
      </trkpt>
      <trkpt lat="43.61073" lon="3.73044">
        <ele>182</ele>
        <time>2024-01-12T12:57:42+01:00</time>
      </trkpt>
      <trkpt lat="43.61081" lon="3.73057">
        <ele>183</ele>
        <time>2024-01-12T12:57:51+01:00</time>
      </trkpt>
      <trkpt lat="43.6109" lon="3.7307">
        <ele>183</ele>
        <time>2024-01-12T12:58:06+01:00</time>
      </trkpt>
      <trkpt lat="43.61099" lon="3.73084">
        <ele>183</ele>
        <time>2024-01-12T12:58:20+01:00</time>
      </trkpt>
      <trkpt lat="43.61108" lon="3.73093">
        <ele>182</ele>
        <time>2024-01-12T13:00:23+01:00</time>
      </trkpt>
      <trkpt lat="43.61115" lon="3.73103">
        <ele>181</ele>
        <time>2024-01-12T13:00:36+01:00</time>
      </trkpt>
      <trkpt lat="43.61109" lon="3.73116">
        <ele>184</ele>
        <time>2024-01-12T13:01:59+01:00</time>
      </trkpt>
      <trkpt lat="43.61118" lon="3.73121">
        <ele>183</ele>
        <time>2024-01-12T13:02:08+01:00</time>
      </trkpt>
      <trkpt lat="43.61123" lon="3.73135">
        <ele>184</ele>
        <time>2024-01-12T13:06:08+01:00</time>
      </trkpt>
      <trkpt lat="43.61135" lon="3.73144">
        <ele>181</ele>
        <time>2024-01-12T13:06:21+01:00</time>
      </trkpt>
      <trkpt lat="43.61144" lon="3.73154">
        <ele>180</ele>
        <time>2024-01-12T13:06:35+01:00</time>
      </trkpt>
      <trkpt lat="43.61152" lon="3.73164">
        <ele>179</ele>
        <time>2024-01-12T13:06:49+01:00</time>
      </trkpt>
      <trkpt lat="43.61161" lon="3.7317">
        <ele>178</ele>
        <time>2024-01-12T13:06:58+01:00</time>
      </trkpt>
      <trkpt lat="43.61169" lon="3.73179">
        <ele>176</ele>
        <time>2024-01-12T13:07:13+01:00</time>
      </trkpt>
      <trkpt lat="43.6118" lon="3.73187">
        <ele>174</ele>
        <time>2024-01-12T13:07:27+01:00</time>
      </trkpt>
      <trkpt lat="43.61192" lon="3.73199">
        <ele>172</ele>
        <time>2024-01-12T13:07:40+01:00</time>
      </trkpt>
      <trkpt lat="43.612" lon="3.73205">
        <ele>170</ele>
        <time>2024-01-12T13:07:50+01:00</time>
      </trkpt>
      <trkpt lat="43.61209" lon="3.73212">
        <ele>169</ele>
        <time>2024-01-12T13:07:59+01:00</time>
      </trkpt>
      <trkpt lat="43.61219" lon="3.73218">
        <ele>168</ele>
        <time>2024-01-12T13:08:08+01:00</time>
      </trkpt>
      <trkpt lat="43.6123" lon="3.73222">
        <ele>166</ele>
        <time>2024-01-12T13:08:17+01:00</time>
      </trkpt>
      <trkpt lat="43.6124" lon="3.73221">
        <ele>165</ele>
        <time>2024-01-12T13:08:27+01:00</time>
      </trkpt>
      <trkpt lat="43.61249" lon="3.73218">
        <ele>164</ele>
        <time>2024-01-12T13:08:36+01:00</time>
      </trkpt>
      <trkpt lat="43.61257" lon="3.73208">
        <ele>162</ele>
        <time>2024-01-12T13:08:50+01:00</time>
      </trkpt>
      <trkpt lat="43.61267" lon="3.73197">
        <ele>160</ele>
        <time>2024-01-12T13:09:04+01:00</time>
      </trkpt>
      <trkpt lat="43.61273" lon="3.73184">
        <ele>157</ele>
        <time>2024-01-12T13:09:19+01:00</time>
      </trkpt>
      <trkpt lat="43.61279" lon="3.7317">
        <ele>154</ele>
        <time>2024-01-12T13:09:48+01:00</time>
      </trkpt>
      <trkpt lat="43.6128" lon="3.73151">
        <ele>152</ele>
        <time>2024-01-12T13:10:02+01:00</time>
      </trkpt>
      <trkpt lat="43.61281" lon="3.73133">
        <ele>150</ele>
        <time>2024-01-12T13:10:11+01:00</time>
      </trkpt>
      <trkpt lat="43.61279" lon="3.73119">
        <ele>149</ele>
        <time>2024-01-12T13:10:20+01:00</time>
      </trkpt>
      <trkpt lat="43.61275" lon="3.73108">
        <ele>148</ele>
        <time>2024-01-12T13:10:30+01:00</time>
      </trkpt>
      <trkpt lat="43.61268" lon="3.73091">
        <ele>147</ele>
        <time>2024-01-12T13:10:44+01:00</time>
      </trkpt>
      <trkpt lat="43.6126" lon="3.73076">
        <ele>146</ele>
        <time>2024-01-12T13:10:53+01:00</time>
      </trkpt>
      <trkpt lat="43.61254" lon="3.73064">
        <ele>144</ele>
        <time>2024-01-12T13:11:07+01:00</time>
      </trkpt>
      <trkpt lat="43.61245" lon="3.73047">
        <ele>143</ele>
        <time>2024-01-12T13:11:21+01:00</time>
      </trkpt>
      <trkpt lat="43.61238" lon="3.73037">
        <ele>142</ele>
        <time>2024-01-12T13:11:30+01:00</time>
      </trkpt>
      <trkpt lat="43.61231" lon="3.73024">
        <ele>141</ele>
        <time>2024-01-12T13:11:40+01:00</time>
      </trkpt>
      <trkpt lat="43.61223" lon="3.73016">
        <ele>141</ele>
        <time>2024-01-12T13:11:49+01:00</time>
      </trkpt>
      <trkpt lat="43.61214" lon="3.73006">
        <ele>141</ele>
        <time>2024-01-12T13:11:58+01:00</time>
      </trkpt>
      <trkpt lat="43.61208" lon="3.72996">
        <ele>141</ele>
        <time>2024-01-12T13:12:08+01:00</time>
      </trkpt>
      <trkpt lat="43.61202" lon="3.72982">
        <ele>141</ele>
        <time>2024-01-12T13:12:17+01:00</time>
      </trkpt>
      <trkpt lat="43.61196" lon="3.7297">
        <ele>140</ele>
        <time>2024-01-12T13:12:26+01:00</time>
      </trkpt>
      <trkpt lat="43.61188" lon="3.72959">
        <ele>140</ele>
        <time>2024-01-12T13:12:35+01:00</time>
      </trkpt>
      <trkpt lat="43.61199" lon="3.72959">
        <ele>140</ele>
        <time>2024-01-12T13:12:49+01:00</time>
      </trkpt>
      <trkpt lat="43.61207" lon="3.72967">
        <ele>140</ele>
        <time>2024-01-12T13:12:58+01:00</time>
      </trkpt>
      <trkpt lat="43.61196" lon="3.72962">
        <ele>140</ele>
        <time>2024-01-12T13:13:58+01:00</time>
      </trkpt>
      <trkpt lat="43.61186" lon="3.72955">
        <ele>140</ele>
        <time>2024-01-12T13:14:07+01:00</time>
      </trkpt>
      <trkpt lat="43.61177" lon="3.72943">
        <ele>140</ele>
        <time>2024-01-12T13:16:50+01:00</time>
      </trkpt>
      <trkpt lat="43.61173" lon="3.7293">
        <ele>140</ele>
        <time>2024-01-12T13:16:59+01:00</time>
      </trkpt>
      <trkpt lat="43.61162" lon="3.72917">
        <ele>140</ele>
        <time>2024-01-12T13:17:13+01:00</time>
      </trkpt>
      <trkpt lat="43.61152" lon="3.72912">
        <ele>141</ele>
        <time>2024-01-12T13:17:22+01:00</time>
      </trkpt>
      <trkpt lat="43.61142" lon="3.72905">
        <ele>141</ele>
        <time>2024-01-12T13:17:32+01:00</time>
      </trkpt>
      <trkpt lat="43.61132" lon="3.72899">
        <ele>141</ele>
        <time>2024-01-12T13:17:41+01:00</time>
      </trkpt>
      <trkpt lat="43.61121" lon="3.72889">
        <ele>141</ele>
        <time>2024-01-12T13:17:55+01:00</time>
      </trkpt>
      <trkpt lat="43.61114" lon="3.7288">
        <ele>142</ele>
        <time>2024-01-12T13:18:05+01:00</time>
      </trkpt>
      <trkpt lat="43.61105" lon="3.72867">
        <ele>143</ele>
        <time>2024-01-12T13:18:14+01:00</time>
      </trkpt>
      <trkpt lat="43.611" lon="3.72851">
        <ele>144</ele>
        <time>2024-01-12T13:18:23+01:00</time>
      </trkpt>
      <trkpt lat="43.6109" lon="3.72843">
        <ele>145</ele>
        <time>2024-01-12T13:18:33+01:00</time>
      </trkpt>
      <trkpt lat="43.61081" lon="3.72833">
        <ele>145</ele>
        <time>2024-01-12T13:18:42+01:00</time>
      </trkpt>
      <trkpt lat="43.6107" lon="3.72825">
        <ele>145</ele>
        <time>2024-01-12T13:18:51+01:00</time>
      </trkpt>
      <trkpt lat="43.6106" lon="3.72816">
        <ele>145</ele>
        <time>2024-01-12T13:19:00+01:00</time>
      </trkpt>
      <trkpt lat="43.61052" lon="3.7281">
        <ele>145</ele>
        <time>2024-01-12T13:19:10+01:00</time>
      </trkpt>
      <trkpt lat="43.61042" lon="3.72805">
        <ele>145</ele>
        <time>2024-01-12T13:19:19+01:00</time>
      </trkpt>
      <trkpt lat="43.6103" lon="3.72802">
        <ele>145</ele>
        <time>2024-01-12T13:19:33+01:00</time>
      </trkpt>
      <trkpt lat="43.6102" lon="3.72798">
        <ele>145</ele>
        <time>2024-01-12T13:19:42+01:00</time>
      </trkpt>
      <trkpt lat="43.6101" lon="3.72797">
        <ele>145</ele>
        <time>2024-01-12T13:19:51+01:00</time>
      </trkpt>
      <trkpt lat="43.60999" lon="3.72793">
        <ele>145</ele>
        <time>2024-01-12T13:20:01+01:00</time>
      </trkpt>
      <trkpt lat="43.60988" lon="3.72792">
        <ele>146</ele>
        <time>2024-01-12T13:20:10+01:00</time>
      </trkpt>
      <trkpt lat="43.60976" lon="3.7279">
        <ele>146</ele>
        <time>2024-01-12T13:20:19+01:00</time>
      </trkpt>
      <trkpt lat="43.60967" lon="3.72784">
        <ele>146</ele>
        <time>2024-01-12T13:20:28+01:00</time>
      </trkpt>
      <trkpt lat="43.60955" lon="3.7278">
        <ele>147</ele>
        <time>2024-01-12T13:20:38+01:00</time>
      </trkpt>
      <trkpt lat="43.60943" lon="3.7278">
        <ele>147</ele>
        <time>2024-01-12T13:20:47+01:00</time>
      </trkpt>
      <trkpt lat="43.60931" lon="3.72782">
        <ele>148</ele>
        <time>2024-01-12T13:20:57+01:00</time>
      </trkpt>
      <trkpt lat="43.60918" lon="3.72781">
        <ele>149</ele>
        <time>2024-01-12T13:21:06+01:00</time>
      </trkpt>
      <trkpt lat="43.60906" lon="3.72781">
        <ele>149</ele>
        <time>2024-01-12T13:21:15+01:00</time>
      </trkpt>
      <trkpt lat="43.60893" lon="3.72783">
        <ele>150</ele>
        <time>2024-01-12T13:21:25+01:00</time>
      </trkpt>
      <trkpt lat="43.60882" lon="3.72784">
        <ele>151</ele>
        <time>2024-01-12T13:21:35+01:00</time>
      </trkpt>
      <trkpt lat="43.6087" lon="3.72785">
        <ele>152</ele>
        <time>2024-01-12T13:21:44+01:00</time>
      </trkpt>
      <trkpt lat="43.60858" lon="3.72784">
        <ele>153</ele>
        <time>2024-01-12T13:21:53+01:00</time>
      </trkpt>
      <trkpt lat="43.60848" lon="3.72782">
        <ele>153</ele>
        <time>2024-01-12T13:22:38+01:00</time>
      </trkpt>
      <trkpt lat="43.60839" lon="3.72784">
        <ele>153</ele>
        <time>2024-01-12T13:23:11+01:00</time>
      </trkpt>
      <trkpt lat="43.60834" lon="3.72772">
        <ele>153</ele>
        <time>2024-01-12T13:24:26+01:00</time>
      </trkpt>
      <trkpt lat="43.60828" lon="3.72759">
        <ele>154</ele>
        <time>2024-01-12T13:24:41+01:00</time>
      </trkpt>
      <trkpt lat="43.60826" lon="3.72741">
        <ele>154</ele>
        <time>2024-01-12T13:24:55+01:00</time>
      </trkpt>
      <trkpt lat="43.60822" lon="3.72728">
        <ele>155</ele>
        <time>2024-01-12T13:25:03+01:00</time>
      </trkpt>
      <trkpt lat="43.60819" lon="3.72715">
        <ele>155</ele>
        <time>2024-01-12T13:25:13+01:00</time>
      </trkpt>
      <trkpt lat="43.60816" lon="3.72702">
        <ele>155</ele>
        <time>2024-01-12T13:25:22+01:00</time>
      </trkpt>
      <trkpt lat="43.60815" lon="3.7269">
        <ele>155</ele>
        <time>2024-01-12T13:25:31+01:00</time>
      </trkpt>
      <trkpt lat="43.60812" lon="3.72673">
        <ele>156</ele>
        <time>2024-01-12T13:25:45+01:00</time>
      </trkpt>
      <trkpt lat="43.60811" lon="3.72657">
        <ele>156</ele>
        <time>2024-01-12T13:25:55+01:00</time>
      </trkpt>
      <trkpt lat="43.60808" lon="3.72645">
        <ele>156</ele>
        <time>2024-01-12T13:26:04+01:00</time>
      </trkpt>
      <trkpt lat="43.60803" lon="3.72631">
        <ele>157</ele>
        <time>2024-01-12T13:26:13+01:00</time>
      </trkpt>
      <trkpt lat="43.60803" lon="3.72616">
        <ele>157</ele>
        <time>2024-01-12T13:26:22+01:00</time>
      </trkpt>
      <trkpt lat="43.608" lon="3.72601">
        <ele>158</ele>
        <time>2024-01-12T13:26:32+01:00</time>
      </trkpt>
      <trkpt lat="43.60797" lon="3.72587">
        <ele>158</ele>
        <time>2024-01-12T13:26:41+01:00</time>
      </trkpt>
      <trkpt lat="43.60793" lon="3.72575">
        <ele>159</ele>
        <time>2024-01-12T13:26:50+01:00</time>
      </trkpt>
      <trkpt lat="43.60787" lon="3.72563">
        <ele>160</ele>
        <time>2024-01-12T13:26:59+01:00</time>
      </trkpt>
      <trkpt lat="43.60781" lon="3.7255">
        <ele>161</ele>
        <time>2024-01-12T13:27:09+01:00</time>
      </trkpt>
      <trkpt lat="43.60776" lon="3.72537">
        <ele>162</ele>
        <time>2024-01-12T13:27:19+01:00</time>
      </trkpt>
      <trkpt lat="43.60775" lon="3.7252">
        <ele>162</ele>
        <time>2024-01-12T13:27:28+01:00</time>
      </trkpt>
      <trkpt lat="43.60771" lon="3.72506">
        <ele>163</ele>
        <time>2024-01-12T13:27:37+01:00</time>
      </trkpt>
      <trkpt lat="43.60768" lon="3.72493">
        <ele>163</ele>
        <time>2024-01-12T13:27:47+01:00</time>
      </trkpt>
      <trkpt lat="43.60763" lon="3.72481">
        <ele>164</ele>
        <time>2024-01-12T13:27:56+01:00</time>
      </trkpt>
      <trkpt lat="43.60758" lon="3.72463">
        <ele>165</ele>
        <time>2024-01-12T13:28:10+01:00</time>
      </trkpt>
      <trkpt lat="43.60755" lon="3.7245">
        <ele>165</ele>
        <time>2024-01-12T13:28:19+01:00</time>
      </trkpt>
      <trkpt lat="43.60753" lon="3.72438">
        <ele>166</ele>
        <time>2024-01-12T13:28:28+01:00</time>
      </trkpt>
      <trkpt lat="43.60747" lon="3.72423">
        <ele>166</ele>
        <time>2024-01-12T13:28:37+01:00</time>
      </trkpt>
      <trkpt lat="43.60743" lon="3.72409">
        <ele>167</ele>
        <time>2024-01-12T13:28:47+01:00</time>
      </trkpt>
      <trkpt lat="43.60737" lon="3.72396">
        <ele>169</ele>
        <time>2024-01-12T13:28:56+01:00</time>
      </trkpt>
      <trkpt lat="43.60731" lon="3.72387">
        <ele>170</ele>
        <time>2024-01-12T13:29:05+01:00</time>
      </trkpt>
      <trkpt lat="43.60726" lon="3.72374">
        <ele>172</ele>
        <time>2024-01-12T13:29:15+01:00</time>
      </trkpt>
      <trkpt lat="43.60722" lon="3.72361">
        <ele>173</ele>
        <time>2024-01-12T13:29:24+01:00</time>
      </trkpt>
      <trkpt lat="43.60714" lon="3.72353">
        <ele>174</ele>
        <time>2024-01-12T13:29:34+01:00</time>
      </trkpt>
      <trkpt lat="43.60705" lon="3.72349">
        <ele>174</ele>
        <time>2024-01-12T13:29:43+01:00</time>
      </trkpt>
      <trkpt lat="43.60706" lon="3.7233">
        <ele>175</ele>
        <time>2024-01-12T13:30:32+01:00</time>
      </trkpt>
      <trkpt lat="43.60697" lon="3.72315">
        <ele>175</ele>
        <time>2024-01-12T13:30:46+01:00</time>
      </trkpt>
      <trkpt lat="43.60692" lon="3.72302">
        <ele>175</ele>
        <time>2024-01-12T13:31:00+01:00</time>
      </trkpt>
      <trkpt lat="43.60685" lon="3.72286">
        <ele>172</ele>
        <time>2024-01-12T13:31:18+01:00</time>
      </trkpt>
      <trkpt lat="43.60679" lon="3.72274">
        <ele>170</ele>
        <time>2024-01-12T13:31:33+01:00</time>
      </trkpt>
      <trkpt lat="43.6068" lon="3.72256">
        <ele>169</ele>
        <time>2024-01-12T13:31:46+01:00</time>
      </trkpt>
      <trkpt lat="43.60682" lon="3.72243">
        <ele>168</ele>
        <time>2024-01-12T13:31:56+01:00</time>
      </trkpt>
      <trkpt lat="43.60684" lon="3.72225">
        <ele>169</ele>
        <time>2024-01-12T13:32:11+01:00</time>
      </trkpt>
      <trkpt lat="43.6068" lon="3.72209">
        <ele>169</ele>
        <time>2024-01-12T13:32:29+01:00</time>
      </trkpt>
      <trkpt lat="43.60673" lon="3.72199">
        <ele>167</ele>
        <time>2024-01-12T13:32:39+01:00</time>
      </trkpt>
      <trkpt lat="43.60668" lon="3.72189">
        <ele>166</ele>
        <time>2024-01-12T13:32:48+01:00</time>
      </trkpt>
      <trkpt lat="43.60664" lon="3.72177">
        <ele>166</ele>
        <time>2024-01-12T13:32:57+01:00</time>
      </trkpt>
      <trkpt lat="43.6066" lon="3.72163">
        <ele>165</ele>
        <time>2024-01-12T13:33:07+01:00</time>
      </trkpt>
      <trkpt lat="43.60657" lon="3.72149">
        <ele>165</ele>
        <time>2024-01-12T13:33:16+01:00</time>
      </trkpt>
      <trkpt lat="43.6065" lon="3.72136">
        <ele>164</ele>
        <time>2024-01-12T13:33:25+01:00</time>
      </trkpt>
      <trkpt lat="43.60643" lon="3.72126">
        <ele>163</ele>
        <time>2024-01-12T13:33:35+01:00</time>
      </trkpt>
      <trkpt lat="43.6063" lon="3.72117">
        <ele>162</ele>
        <time>2024-01-12T13:33:49+01:00</time>
      </trkpt>
      <trkpt lat="43.6062" lon="3.7211">
        <ele>162</ele>
        <time>2024-01-12T13:33:58+01:00</time>
      </trkpt>
      <trkpt lat="43.6061" lon="3.721">
        <ele>162</ele>
        <time>2024-01-12T13:34:07+01:00</time>
      </trkpt>
      <trkpt lat="43.60602" lon="3.72092">
        <ele>162</ele>
        <time>2024-01-12T13:34:16+01:00</time>
      </trkpt>
      <trkpt lat="43.60594" lon="3.7208">
        <ele>163</ele>
        <time>2024-01-12T13:34:26+01:00</time>
      </trkpt>
      <trkpt lat="43.60587" lon="3.72068">
        <ele>163</ele>
        <time>2024-01-12T13:34:36+01:00</time>
      </trkpt>
      <trkpt lat="43.60578" lon="3.72052">
        <ele>164</ele>
        <time>2024-01-12T13:34:45+01:00</time>
      </trkpt>
      <trkpt lat="43.6057" lon="3.7204">
        <ele>164</ele>
        <time>2024-01-12T13:34:55+01:00</time>
      </trkpt>
      <trkpt lat="43.60562" lon="3.72032">
        <ele>164</ele>
        <time>2024-01-12T13:35:05+01:00</time>
      </trkpt>
      <trkpt lat="43.60553" lon="3.72021">
        <ele>164</ele>
        <time>2024-01-12T13:35:14+01:00</time>
      </trkpt>
      <trkpt lat="43.60545" lon="3.7201">
        <ele>165</ele>
        <time>2024-01-12T13:35:23+01:00</time>
      </trkpt>
      <trkpt lat="43.6054" lon="3.71997">
        <ele>166</ele>
        <time>2024-01-12T13:35:32+01:00</time>
      </trkpt>
      <trkpt lat="43.60528" lon="3.71991">
        <ele>165</ele>
        <time>2024-01-12T13:35:46+01:00</time>
      </trkpt>
      <trkpt lat="43.60515" lon="3.71993">
        <ele>165</ele>
        <time>2024-01-12T13:35:56+01:00</time>
      </trkpt>
      <trkpt lat="43.60512" lon="3.71975">
        <ele>166</ele>
        <time>2024-01-12T13:36:10+01:00</time>
      </trkpt>
      <trkpt lat="43.60506" lon="3.71965">
        <ele>167</ele>
        <time>2024-01-12T13:37:25+01:00</time>
      </trkpt>
      <trkpt lat="43.60497" lon="3.71956">
        <ele>168</ele>
        <time>2024-01-12T13:37:34+01:00</time>
      </trkpt>
      <trkpt lat="43.60488" lon="3.71949">
        <ele>170</ele>
        <time>2024-01-12T13:37:43+01:00</time>
      </trkpt>
      <trkpt lat="43.60479" lon="3.71941">
        <ele>172</ele>
        <time>2024-01-12T13:37:57+01:00</time>
      </trkpt>
      <trkpt lat="43.60469" lon="3.71934">
        <ele>174</ele>
        <time>2024-01-12T13:38:07+01:00</time>
      </trkpt>
      <trkpt lat="43.60462" lon="3.7192">
        <ele>178</ele>
        <time>2024-01-12T13:38:20+01:00</time>
      </trkpt>
      <trkpt lat="43.60463" lon="3.71904">
        <ele>181</ele>
        <time>2024-01-12T13:38:34+01:00</time>
      </trkpt>
      <trkpt lat="43.60471" lon="3.71896">
        <ele>181</ele>
        <time>2024-01-12T13:38:44+01:00</time>
      </trkpt>
      <trkpt lat="43.6048" lon="3.71884">
        <ele>184</ele>
        <time>2024-01-12T13:38:58+01:00</time>
      </trkpt>
      <trkpt lat="43.60489" lon="3.71882">
        <ele>185</ele>
        <time>2024-01-12T13:39:52+01:00</time>
      </trkpt>
      <trkpt lat="43.60501" lon="3.7188">
        <ele>186</ele>
        <time>2024-01-12T13:40:07+01:00</time>
      </trkpt>
      <trkpt lat="43.60511" lon="3.71873">
        <ele>189</ele>
        <time>2024-01-12T13:40:16+01:00</time>
      </trkpt>
      <trkpt lat="43.60521" lon="3.71866">
        <ele>193</ele>
        <time>2024-01-12T13:40:30+01:00</time>
      </trkpt>
      <trkpt lat="43.60533" lon="3.71864">
        <ele>195</ele>
        <time>2024-01-12T13:40:43+01:00</time>
      </trkpt>
      <trkpt lat="43.6054" lon="3.71857">
        <ele>198</ele>
        <time>2024-01-12T13:40:53+01:00</time>
      </trkpt>
      <trkpt lat="43.60552" lon="3.71847">
        <ele>201</ele>
        <time>2024-01-12T13:41:03+01:00</time>
      </trkpt>
      <trkpt lat="43.6056" lon="3.71837">
        <ele>204</ele>
        <time>2024-01-12T13:41:12+01:00</time>
      </trkpt>
      <trkpt lat="43.60569" lon="3.71824">
        <ele>205</ele>
        <time>2024-01-12T13:41:26+01:00</time>
      </trkpt>
      <trkpt lat="43.60578" lon="3.71822">
        <ele>205</ele>
        <time>2024-01-12T13:43:50+01:00</time>
      </trkpt>
      <trkpt lat="43.60589" lon="3.71822">
        <ele>205</ele>
        <time>2024-01-12T13:44:00+01:00</time>
      </trkpt>
      <trkpt lat="43.60601" lon="3.71823">
        <ele>205</ele>
        <time>2024-01-12T13:44:13+01:00</time>
      </trkpt>
      <trkpt lat="43.60611" lon="3.71828">
        <ele>205</ele>
        <time>2024-01-12T13:44:23+01:00</time>
      </trkpt>
      <trkpt lat="43.60623" lon="3.71835">
        <ele>205</ele>
        <time>2024-01-12T13:44:32+01:00</time>
      </trkpt>
      <trkpt lat="43.60635" lon="3.71843">
        <ele>204</ele>
        <time>2024-01-12T13:44:42+01:00</time>
      </trkpt>
      <trkpt lat="43.60646" lon="3.71851">
        <ele>204</ele>
        <time>2024-01-12T13:44:51+01:00</time>
      </trkpt>
      <trkpt lat="43.60653" lon="3.71859">
        <ele>205</ele>
        <time>2024-01-12T13:45:01+01:00</time>
      </trkpt>
      <trkpt lat="43.60657" lon="3.71847">
        <ele>203</ele>
        <time>2024-01-12T13:45:25+01:00</time>
      </trkpt>
      <trkpt lat="43.60656" lon="3.71833">
        <ele>202</ele>
        <time>2024-01-12T13:45:59+01:00</time>
      </trkpt>
      <trkpt lat="43.60655" lon="3.71819">
        <ele>200</ele>
        <time>2024-01-12T13:46:13+01:00</time>
      </trkpt>
      <trkpt lat="43.60663" lon="3.7181">
        <ele>197</ele>
        <time>2024-01-12T13:46:31+01:00</time>
      </trkpt>
      <trkpt lat="43.60675" lon="3.71805">
        <ele>195</ele>
        <time>2024-01-12T13:46:45+01:00</time>
      </trkpt>
      <trkpt lat="43.60686" lon="3.718">
        <ele>192</ele>
        <time>2024-01-12T13:47:00+01:00</time>
      </trkpt>
      <trkpt lat="43.60695" lon="3.71792">
        <ele>189</ele>
        <time>2024-01-12T13:47:14+01:00</time>
      </trkpt>
      <trkpt lat="43.60704" lon="3.71787">
        <ele>186</ele>
        <time>2024-01-12T13:47:23+01:00</time>
      </trkpt>
      <trkpt lat="43.60714" lon="3.71782">
        <ele>183</ele>
        <time>2024-01-12T13:47:32+01:00</time>
      </trkpt>
      <trkpt lat="43.60721" lon="3.71771">
        <ele>180</ele>
        <time>2024-01-12T13:47:47+01:00</time>
      </trkpt>
      <trkpt lat="43.60732" lon="3.71763">
        <ele>177</ele>
        <time>2024-01-12T13:48:01+01:00</time>
      </trkpt>
      <trkpt lat="43.60741" lon="3.71753">
        <ele>174</ele>
        <time>2024-01-12T13:48:19+01:00</time>
      </trkpt>
      <trkpt lat="43.60744" lon="3.71741">
        <ele>172</ele>
        <time>2024-01-12T13:48:33+01:00</time>
      </trkpt>
      <trkpt lat="43.60744" lon="3.71728">
        <ele>170</ele>
        <time>2024-01-12T13:48:53+01:00</time>
      </trkpt>
      <trkpt lat="43.60751" lon="3.71714">
        <ele>169</ele>
        <time>2024-01-12T13:49:08+01:00</time>
      </trkpt>
      <trkpt lat="43.60766" lon="3.71714">
        <ele>168</ele>
        <time>2024-01-12T13:51:36+01:00</time>
      </trkpt>
      <trkpt lat="43.60776" lon="3.71715">
        <ele>168</ele>
        <time>2024-01-12T13:51:45+01:00</time>
      </trkpt>
      <trkpt lat="43.60787" lon="3.71713">
        <ele>167</ele>
        <time>2024-01-12T13:51:59+01:00</time>
      </trkpt>
      <trkpt lat="43.60797" lon="3.71717">
        <ele>167</ele>
        <time>2024-01-12T13:52:14+01:00</time>
      </trkpt>
      <trkpt lat="43.60808" lon="3.71712">
        <ele>166</ele>
        <time>2024-01-12T13:52:48+01:00</time>
      </trkpt>
      <trkpt lat="43.60817" lon="3.71709">
        <ele>166</ele>
        <time>2024-01-12T13:52:58+01:00</time>
      </trkpt>
      <trkpt lat="43.60829" lon="3.7171">
        <ele>165</ele>
        <time>2024-01-12T13:53:07+01:00</time>
      </trkpt>
      <trkpt lat="43.60838" lon="3.71711">
        <ele>166</ele>
        <time>2024-01-12T13:53:17+01:00</time>
      </trkpt>
      <trkpt lat="43.60847" lon="3.71705">
        <ele>166</ele>
        <time>2024-01-12T13:53:31+01:00</time>
      </trkpt>
      <trkpt lat="43.60856" lon="3.71693">
        <ele>166</ele>
        <time>2024-01-12T13:53:45+01:00</time>
      </trkpt>
      <trkpt lat="43.60857" lon="3.71678">
        <ele>166</ele>
        <time>2024-01-12T13:53:55+01:00</time>
      </trkpt>
      <trkpt lat="43.6086" lon="3.71658">
        <ele>166</ele>
        <time>2024-01-12T13:54:33+01:00</time>
      </trkpt>
      <trkpt lat="43.60862" lon="3.7164">
        <ele>166</ele>
        <time>2024-01-12T13:54:42+01:00</time>
      </trkpt>
      <trkpt lat="43.60865" lon="3.7162">
        <ele>167</ele>
        <time>2024-01-12T13:55:11+01:00</time>
      </trkpt>
      <trkpt lat="43.60863" lon="3.716">
        <ele>167</ele>
        <time>2024-01-12T13:55:20+01:00</time>
      </trkpt>
      <trkpt lat="43.60862" lon="3.7158">
        <ele>167</ele>
        <time>2024-01-12T13:55:34+01:00</time>
      </trkpt>
      <trkpt lat="43.60861" lon="3.71561">
        <ele>168</ele>
        <time>2024-01-12T13:55:44+01:00</time>
      </trkpt>
      <trkpt lat="43.60857" lon="3.71545">
        <ele>168</ele>
        <time>2024-01-12T13:55:53+01:00</time>
      </trkpt>
      <trkpt lat="43.60852" lon="3.71527">
        <ele>167</ele>
        <time>2024-01-12T13:56:03+01:00</time>
      </trkpt>
      <trkpt lat="43.6085" lon="3.71513">
        <ele>167</ele>
        <time>2024-01-12T13:56:12+01:00</time>
      </trkpt>
      <trkpt lat="43.60845" lon="3.71497">
        <ele>166</ele>
        <time>2024-01-12T13:56:22+01:00</time>
      </trkpt>
      <trkpt lat="43.60844" lon="3.71484">
        <ele>166</ele>
        <time>2024-01-12T13:56:31+01:00</time>
      </trkpt>
      <trkpt lat="43.60841" lon="3.71469">
        <ele>165</ele>
        <time>2024-01-12T13:56:40+01:00</time>
      </trkpt>
      <trkpt lat="43.6084" lon="3.71452">
        <ele>164</ele>
        <time>2024-01-12T13:56:49+01:00</time>
      </trkpt>
      <trkpt lat="43.60839" lon="3.71433">
        <ele>164</ele>
        <time>2024-01-12T13:56:59+01:00</time>
      </trkpt>
      <trkpt lat="43.60841" lon="3.71416">
        <ele>165</ele>
        <time>2024-01-12T13:57:08+01:00</time>
      </trkpt>
      <trkpt lat="43.60841" lon="3.71398">
        <ele>164</ele>
        <time>2024-01-12T13:57:17+01:00</time>
      </trkpt>
      <trkpt lat="43.60842" lon="3.71384">
        <ele>164</ele>
        <time>2024-01-12T13:57:26+01:00</time>
      </trkpt>
      <trkpt lat="43.60843" lon="3.71366">
        <ele>164</ele>
        <time>2024-01-12T13:57:36+01:00</time>
      </trkpt>
      <trkpt lat="43.60845" lon="3.71348">
        <ele>164</ele>
        <time>2024-01-12T13:57:45+01:00</time>
      </trkpt>
      <trkpt lat="43.60847" lon="3.71333">
        <ele>163</ele>
        <time>2024-01-12T13:57:54+01:00</time>
      </trkpt>
      <trkpt lat="43.60847" lon="3.71316">
        <ele>163</ele>
        <time>2024-01-12T13:58:03+01:00</time>
      </trkpt>
      <trkpt lat="43.60848" lon="3.71301">
        <ele>162</ele>
        <time>2024-01-12T13:58:13+01:00</time>
      </trkpt>
      <trkpt lat="43.60848" lon="3.71287">
        <ele>162</ele>
        <time>2024-01-12T13:58:22+01:00</time>
      </trkpt>
      <trkpt lat="43.60849" lon="3.71268">
        <ele>163</ele>
        <time>2024-01-12T13:58:31+01:00</time>
      </trkpt>
      <trkpt lat="43.60847" lon="3.71252">
        <ele>162</ele>
        <time>2024-01-12T13:58:41+01:00</time>
      </trkpt>
      <trkpt lat="43.60846" lon="3.71238">
        <ele>162</ele>
        <time>2024-01-12T13:58:50+01:00</time>
      </trkpt>
      <trkpt lat="43.60844" lon="3.71223">
        <ele>161</ele>
        <time>2024-01-12T13:58:59+01:00</time>
      </trkpt>
      <trkpt lat="43.60842" lon="3.71207">
        <ele>161</ele>
        <time>2024-01-12T13:59:09+01:00</time>
      </trkpt>
      <trkpt lat="43.60841" lon="3.71187">
        <ele>160</ele>
        <time>2024-01-12T13:59:18+01:00</time>
      </trkpt>
      <trkpt lat="43.60841" lon="3.71171">
        <ele>160</ele>
        <time>2024-01-12T13:59:27+01:00</time>
      </trkpt>
      <trkpt lat="43.60841" lon="3.7115">
        <ele>159</ele>
        <time>2024-01-12T13:59:36+01:00</time>
      </trkpt>
      <trkpt lat="43.6084" lon="3.71135">
        <ele>159</ele>
        <time>2024-01-12T13:59:46+01:00</time>
      </trkpt>
      <trkpt lat="43.60843" lon="3.71119">
        <ele>159</ele>
        <time>2024-01-12T13:59:55+01:00</time>
      </trkpt>
      <trkpt lat="43.60844" lon="3.71103">
        <ele>159</ele>
        <time>2024-01-12T14:00:04+01:00</time>
      </trkpt>
      <trkpt lat="43.60845" lon="3.71084">
        <ele>158</ele>
        <time>2024-01-12T14:00:13+01:00</time>
      </trkpt>
      <trkpt lat="43.60846" lon="3.71068">
        <ele>157</ele>
        <time>2024-01-12T14:00:23+01:00</time>
      </trkpt>
      <trkpt lat="43.60852" lon="3.71052">
        <ele>157</ele>
        <time>2024-01-12T14:00:32+01:00</time>
      </trkpt>
      <trkpt lat="43.60858" lon="3.71036">
        <ele>156</ele>
        <time>2024-01-12T14:00:42+01:00</time>
      </trkpt>
      <trkpt lat="43.60864" lon="3.71022">
        <ele>156</ele>
        <time>2024-01-12T14:00:51+01:00</time>
      </trkpt>
      <trkpt lat="43.6087" lon="3.7101">
        <ele>154</ele>
        <time>2024-01-12T14:01:00+01:00</time>
      </trkpt>
      <trkpt lat="43.60875" lon="3.70997">
        <ele>153</ele>
        <time>2024-01-12T14:01:10+01:00</time>
      </trkpt>
      <trkpt lat="43.60882" lon="3.70985">
        <ele>153</ele>
        <time>2024-01-12T14:01:19+01:00</time>
      </trkpt>
      <trkpt lat="43.60889" lon="3.70975">
        <ele>152</ele>
        <time>2024-01-12T14:01:29+01:00</time>
      </trkpt>
      <trkpt lat="43.60898" lon="3.70969">
        <ele>153</ele>
        <time>2024-01-12T14:02:33+01:00</time>
      </trkpt>
      <trkpt lat="43.60888" lon="3.70972">
        <ele>152</ele>
        <time>2024-01-12T14:03:22+01:00</time>
      </trkpt>
      <trkpt lat="43.60877" lon="3.70977">
        <ele>152</ele>
        <time>2024-01-12T14:03:31+01:00</time>
      </trkpt>
      <trkpt lat="43.60868" lon="3.70983">
        <ele>151</ele>
        <time>2024-01-12T14:03:41+01:00</time>
      </trkpt>
      <trkpt lat="43.60858" lon="3.70988">
        <ele>151</ele>
        <time>2024-01-12T14:03:50+01:00</time>
      </trkpt>
      <trkpt lat="43.60848" lon="3.70993">
        <ele>150</ele>
        <time>2024-01-12T14:03:59+01:00</time>
      </trkpt>
      <trkpt lat="43.60835" lon="3.71001">
        <ele>150</ele>
        <time>2024-01-12T14:04:13+01:00</time>
      </trkpt>
      <trkpt lat="43.60823" lon="3.71006">
        <ele>150</ele>
        <time>2024-01-12T14:04:27+01:00</time>
      </trkpt>
      <trkpt lat="43.60811" lon="3.71013">
        <ele>150</ele>
        <time>2024-01-12T14:04:37+01:00</time>
      </trkpt>
      <trkpt lat="43.60798" lon="3.71016">
        <ele>150</ele>
        <time>2024-01-12T14:04:46+01:00</time>
      </trkpt>
      <trkpt lat="43.60786" lon="3.71024">
        <ele>150</ele>
        <time>2024-01-12T14:05:00+01:00</time>
      </trkpt>
      <trkpt lat="43.60776" lon="3.71036">
        <ele>150</ele>
        <time>2024-01-12T14:05:10+01:00</time>
      </trkpt>
      <trkpt lat="43.6077" lon="3.71045">
        <ele>150</ele>
        <time>2024-01-12T14:05:19+01:00</time>
      </trkpt>
      <trkpt lat="43.60763" lon="3.71035">
        <ele>150</ele>
        <time>2024-01-12T14:07:21+01:00</time>
      </trkpt>
      <trkpt lat="43.60753" lon="3.71038">
        <ele>150</ele>
        <time>2024-01-12T14:10:33+01:00</time>
      </trkpt>
      <trkpt lat="43.60744" lon="3.7103">
        <ele>150</ele>
        <time>2024-01-12T14:13:45+01:00</time>
      </trkpt>
      <trkpt lat="43.60733" lon="3.7103">
        <ele>150</ele>
        <time>2024-01-12T14:13:55+01:00</time>
      </trkpt>
      <trkpt lat="43.60724" lon="3.71032">
        <ele>150</ele>
        <time>2024-01-12T14:14:33+01:00</time>
      </trkpt>
      <trkpt lat="43.60715" lon="3.7103">
        <ele>150</ele>
        <time>2024-01-12T14:14:42+01:00</time>
      </trkpt>
      <trkpt lat="43.60704" lon="3.71023">
        <ele>150</ele>
        <time>2024-01-12T14:14:56+01:00</time>
      </trkpt>
      <trkpt lat="43.60695" lon="3.71017">
        <ele>150</ele>
        <time>2024-01-12T14:15:06+01:00</time>
      </trkpt>
      <trkpt lat="43.60682" lon="3.71011">
        <ele>150</ele>
        <time>2024-01-12T14:15:15+01:00</time>
      </trkpt>
      <trkpt lat="43.60672" lon="3.71007">
        <ele>150</ele>
        <time>2024-01-12T14:15:25+01:00</time>
      </trkpt>
      <trkpt lat="43.60661" lon="3.70998">
        <ele>150</ele>
        <time>2024-01-12T14:15:34+01:00</time>
      </trkpt>
      <trkpt lat="43.60651" lon="3.70995">
        <ele>150</ele>
        <time>2024-01-12T14:15:43+01:00</time>
      </trkpt>
      <trkpt lat="43.60642" lon="3.70989">
        <ele>150</ele>
        <time>2024-01-12T14:15:52+01:00</time>
      </trkpt>
      <trkpt lat="43.60632" lon="3.70986">
        <ele>150</ele>
        <time>2024-01-12T14:16:02+01:00</time>
      </trkpt>
      <trkpt lat="43.60622" lon="3.70985">
        <ele>149</ele>
        <time>2024-01-12T14:16:11+01:00</time>
      </trkpt>
      <trkpt lat="43.60611" lon="3.70985">
        <ele>149</ele>
        <time>2024-01-12T14:16:20+01:00</time>
      </trkpt>
      <trkpt lat="43.606" lon="3.70988">
        <ele>148</ele>
        <time>2024-01-12T14:16:29+01:00</time>
      </trkpt>
      <trkpt lat="43.60591" lon="3.70995">
        <ele>147</ele>
        <time>2024-01-12T14:16:38+01:00</time>
      </trkpt>
      <trkpt lat="43.60581" lon="3.71002">
        <ele>147</ele>
        <time>2024-01-12T14:16:48+01:00</time>
      </trkpt>
      <trkpt lat="43.60572" lon="3.71003">
        <ele>146</ele>
        <time>2024-01-12T14:16:57+01:00</time>
      </trkpt>
      <trkpt lat="43.60563" lon="3.71002">
        <ele>146</ele>
        <time>2024-01-12T14:17:07+01:00</time>
      </trkpt>
      <trkpt lat="43.60552" lon="3.70999">
        <ele>145</ele>
        <time>2024-01-12T14:17:16+01:00</time>
      </trkpt>
      <trkpt lat="43.60539" lon="3.70998">
        <ele>145</ele>
        <time>2024-01-12T14:17:25+01:00</time>
      </trkpt>
      <trkpt lat="43.60527" lon="3.70999">
        <ele>145</ele>
        <time>2024-01-12T14:17:35+01:00</time>
      </trkpt>
      <trkpt lat="43.60517" lon="3.71">
        <ele>145</ele>
        <time>2024-01-12T14:17:44+01:00</time>
      </trkpt>
      <trkpt lat="43.60508" lon="3.71005">
        <ele>145</ele>
        <time>2024-01-12T14:17:53+01:00</time>
      </trkpt>
      <trkpt lat="43.60498" lon="3.71018">
        <ele>145</ele>
        <time>2024-01-12T14:18:03+01:00</time>
      </trkpt>
      <trkpt lat="43.60488" lon="3.71027">
        <ele>145</ele>
        <time>2024-01-12T14:18:12+01:00</time>
      </trkpt>
      <trkpt lat="43.60477" lon="3.71038">
        <ele>144</ele>
        <time>2024-01-12T14:18:22+01:00</time>
      </trkpt>
      <trkpt lat="43.60469" lon="3.71049">
        <ele>144</ele>
        <time>2024-01-12T14:18:32+01:00</time>
      </trkpt>
      <trkpt lat="43.60459" lon="3.71065">
        <ele>144</ele>
        <time>2024-01-12T14:18:45+01:00</time>
      </trkpt>
      <trkpt lat="43.60453" lon="3.71078">
        <ele>143</ele>
        <time>2024-01-12T14:18:55+01:00</time>
      </trkpt>
      <trkpt lat="43.60448" lon="3.71092">
        <ele>144</ele>
        <time>2024-01-12T14:19:05+01:00</time>
      </trkpt>
      <trkpt lat="43.60441" lon="3.71101">
        <ele>145</ele>
        <time>2024-01-12T14:19:14+01:00</time>
      </trkpt>
      <trkpt lat="43.60432" lon="3.71106">
        <ele>145</ele>
        <time>2024-01-12T14:19:23+01:00</time>
      </trkpt>
      <trkpt lat="43.60422" lon="3.71107">
        <ele>145</ele>
        <time>2024-01-12T14:19:32+01:00</time>
      </trkpt>
      <trkpt lat="43.60407" lon="3.71109">
        <ele>144</ele>
        <time>2024-01-12T14:19:47+01:00</time>
      </trkpt>
      <trkpt lat="43.60396" lon="3.7111">
        <ele>143</ele>
        <time>2024-01-12T14:19:56+01:00</time>
      </trkpt>
      <trkpt lat="43.60387" lon="3.71121">
        <ele>145</ele>
        <time>2024-01-12T14:20:26+01:00</time>
      </trkpt>
      <trkpt lat="43.60396" lon="3.71129">
        <ele>146</ele>
        <time>2024-01-12T14:20:50+01:00</time>
      </trkpt>
      <trkpt lat="43.60405" lon="3.71128">
        <ele>146</ele>
        <time>2024-01-12T14:21:14+01:00</time>
      </trkpt>
      <trkpt lat="43.60417" lon="3.71128">
        <ele>147</ele>
        <time>2024-01-12T14:21:23+01:00</time>
      </trkpt>
      <trkpt lat="43.60427" lon="3.71133">
        <ele>147</ele>
        <time>2024-01-12T14:21:32+01:00</time>
      </trkpt>
      <trkpt lat="43.60438" lon="3.71142">
        <ele>149</ele>
        <time>2024-01-12T14:21:46+01:00</time>
      </trkpt>
      <trkpt lat="43.60448" lon="3.71143">
        <ele>149</ele>
        <time>2024-01-12T14:21:56+01:00</time>
      </trkpt>
      <trkpt lat="43.60456" lon="3.71149">
        <ele>150</ele>
        <time>2024-01-12T14:22:15+01:00</time>
      </trkpt>
      <trkpt lat="43.60465" lon="3.71152">
        <ele>151</ele>
        <time>2024-01-12T14:23:30+01:00</time>
      </trkpt>
      <trkpt lat="43.60475" lon="3.71164">
        <ele>153</ele>
        <time>2024-01-12T14:23:39+01:00</time>
      </trkpt>
      <trkpt lat="43.60485" lon="3.71174">
        <ele>156</ele>
        <time>2024-01-12T14:23:57+01:00</time>
      </trkpt>
      <trkpt lat="43.60493" lon="3.71186">
        <ele>159</ele>
        <time>2024-01-12T14:24:07+01:00</time>
      </trkpt>
      <trkpt lat="43.60504" lon="3.71194">
        <ele>162</ele>
        <time>2024-01-12T14:24:16+01:00</time>
      </trkpt>
      <trkpt lat="43.60513" lon="3.71204">
        <ele>163</ele>
        <time>2024-01-12T14:24:26+01:00</time>
      </trkpt>
      <trkpt lat="43.60522" lon="3.71212">
        <ele>163</ele>
        <time>2024-01-12T14:24:36+01:00</time>
      </trkpt>
      <trkpt lat="43.6053" lon="3.71225">
        <ele>164</ele>
        <time>2024-01-12T14:24:49+01:00</time>
      </trkpt>
      <trkpt lat="43.60534" lon="3.71238">
        <ele>165</ele>
        <time>2024-01-12T14:24:58+01:00</time>
      </trkpt>
      <trkpt lat="43.60541" lon="3.71247">
        <ele>164</ele>
        <time>2024-01-12T14:25:09+01:00</time>
      </trkpt>
      <trkpt lat="43.60551" lon="3.71262">
        <ele>163</ele>
        <time>2024-01-12T14:25:22+01:00</time>
      </trkpt>
      <trkpt lat="43.60558" lon="3.71276">
        <ele>163</ele>
        <time>2024-01-12T14:25:31+01:00</time>
      </trkpt>
      <trkpt lat="43.60565" lon="3.71292">
        <ele>163</ele>
        <time>2024-01-12T14:25:41+01:00</time>
      </trkpt>
      <trkpt lat="43.60568" lon="3.71311">
        <ele>163</ele>
        <time>2024-01-12T14:25:50+01:00</time>
      </trkpt>
      <trkpt lat="43.60573" lon="3.71326">
        <ele>164</ele>
        <time>2024-01-12T14:25:59+01:00</time>
      </trkpt>
      <trkpt lat="43.6058" lon="3.71341">
        <ele>163</ele>
        <time>2024-01-12T14:26:09+01:00</time>
      </trkpt>
      <trkpt lat="43.60585" lon="3.71356">
        <ele>164</ele>
        <time>2024-01-12T14:26:23+01:00</time>
      </trkpt>
      <trkpt lat="43.60589" lon="3.71369">
        <ele>165</ele>
        <time>2024-01-12T14:26:32+01:00</time>
      </trkpt>
      <trkpt lat="43.60594" lon="3.71383">
        <ele>166</ele>
        <time>2024-01-12T14:26:42+01:00</time>
      </trkpt>
      <trkpt lat="43.60602" lon="3.71398">
        <ele>167</ele>
        <time>2024-01-12T14:26:51+01:00</time>
      </trkpt>
      <trkpt lat="43.60606" lon="3.71412">
        <ele>168</ele>
        <time>2024-01-12T14:27:00+01:00</time>
      </trkpt>
      <trkpt lat="43.60611" lon="3.71425">
        <ele>169</ele>
        <time>2024-01-12T14:27:10+01:00</time>
      </trkpt>
      <trkpt lat="43.6062" lon="3.71434">
        <ele>170</ele>
        <time>2024-01-12T14:27:19+01:00</time>
      </trkpt>
      <trkpt lat="43.60629" lon="3.71443">
        <ele>171</ele>
        <time>2024-01-12T14:27:28+01:00</time>
      </trkpt>
      <trkpt lat="43.60641" lon="3.71447">
        <ele>171</ele>
        <time>2024-01-12T14:27:38+01:00</time>
      </trkpt>
      <trkpt lat="43.60651" lon="3.7145">
        <ele>172</ele>
        <time>2024-01-12T14:27:48+01:00</time>
      </trkpt>
      <trkpt lat="43.60659" lon="3.71462">
        <ele>173</ele>
        <time>2024-01-12T14:28:22+01:00</time>
      </trkpt>
      <trkpt lat="43.60668" lon="3.71469">
        <ele>174</ele>
        <time>2024-01-12T14:28:31+01:00</time>
      </trkpt>
      <trkpt lat="43.60677" lon="3.71474">
        <ele>173</ele>
        <time>2024-01-12T14:28:40+01:00</time>
      </trkpt>
      <trkpt lat="43.60686" lon="3.71478">
        <ele>173</ele>
        <time>2024-01-12T14:28:49+01:00</time>
      </trkpt>
      <trkpt lat="43.60696" lon="3.71489">
        <ele>173</ele>
        <time>2024-01-12T14:29:22+01:00</time>
      </trkpt>
      <trkpt lat="43.60703" lon="3.71502">
        <ele>174</ele>
        <time>2024-01-12T14:29:36+01:00</time>
      </trkpt>
      <trkpt lat="43.60705" lon="3.71518">
        <ele>177</ele>
        <time>2024-01-12T14:29:51+01:00</time>
      </trkpt>
      <trkpt lat="43.60711" lon="3.71533">
        <ele>178</ele>
        <time>2024-01-12T14:30:05+01:00</time>
      </trkpt>
      <trkpt lat="43.60712" lon="3.71546">
        <ele>179</ele>
        <time>2024-01-12T14:30:14+01:00</time>
      </trkpt>
      <trkpt lat="43.60715" lon="3.71559">
        <ele>179</ele>
        <time>2024-01-12T14:30:23+01:00</time>
      </trkpt>
      <trkpt lat="43.60716" lon="3.71573">
        <ele>179</ele>
        <time>2024-01-12T14:30:33+01:00</time>
      </trkpt>
      <trkpt lat="43.60717" lon="3.71591">
        <ele>178</ele>
        <time>2024-01-12T14:30:47+01:00</time>
      </trkpt>
      <trkpt lat="43.60714" lon="3.71604">
        <ele>179</ele>
        <time>2024-01-12T14:30:56+01:00</time>
      </trkpt>
      <trkpt lat="43.60713" lon="3.7162">
        <ele>179</ele>
        <time>2024-01-12T14:31:05+01:00</time>
      </trkpt>
      <trkpt lat="43.60708" lon="3.71635">
        <ele>181</ele>
        <time>2024-01-12T14:31:15+01:00</time>
      </trkpt>
      <trkpt lat="43.607" lon="3.71644">
        <ele>184</ele>
        <time>2024-01-12T14:31:24+01:00</time>
      </trkpt>
      <trkpt lat="43.6069" lon="3.71656">
        <ele>188</ele>
        <time>2024-01-12T14:31:38+01:00</time>
      </trkpt>
      <trkpt lat="43.6068" lon="3.71664">
        <ele>191</ele>
        <time>2024-01-12T14:31:47+01:00</time>
      </trkpt>
      <trkpt lat="43.60671" lon="3.71666">
        <ele>194</ele>
        <time>2024-01-12T14:31:57+01:00</time>
      </trkpt>
      <trkpt lat="43.60661" lon="3.71671">
        <ele>194</ele>
        <time>2024-01-12T14:32:06+01:00</time>
      </trkpt>
      <trkpt lat="43.6065" lon="3.71677">
        <ele>194</ele>
        <time>2024-01-12T14:32:16+01:00</time>
      </trkpt>
      <trkpt lat="43.60639" lon="3.71678">
        <ele>195</ele>
        <time>2024-01-12T14:32:24+01:00</time>
      </trkpt>
      <trkpt lat="43.60629" lon="3.71685">
        <ele>195</ele>
        <time>2024-01-12T14:32:34+01:00</time>
      </trkpt>
      <trkpt lat="43.6062" lon="3.71696">
        <ele>194</ele>
        <time>2024-01-12T14:32:43+01:00</time>
      </trkpt>
      <trkpt lat="43.60612" lon="3.71711">
        <ele>192</ele>
        <time>2024-01-12T14:32:58+01:00</time>
      </trkpt>
      <trkpt lat="43.6061" lon="3.71725">
        <ele>191</ele>
        <time>2024-01-12T14:33:07+01:00</time>
      </trkpt>
      <trkpt lat="43.60617" lon="3.71734">
        <ele>190</ele>
        <time>2024-01-12T14:33:16+01:00</time>
      </trkpt>
      <trkpt lat="43.60625" lon="3.71743">
        <ele>189</ele>
        <time>2024-01-12T14:33:26+01:00</time>
      </trkpt>
      <trkpt lat="43.60632" lon="3.71756">
        <ele>190</ele>
        <time>2024-01-12T14:33:35+01:00</time>
      </trkpt>
      <trkpt lat="43.6064" lon="3.71767">
        <ele>191</ele>
        <time>2024-01-12T14:33:45+01:00</time>
      </trkpt>
      <trkpt lat="43.60644" lon="3.71779">
        <ele>193</ele>
        <time>2024-01-12T14:33:55+01:00</time>
      </trkpt>
      <trkpt lat="43.60651" lon="3.71792">
        <ele>195</ele>
        <time>2024-01-12T14:34:04+01:00</time>
      </trkpt>
      <trkpt lat="43.60655" lon="3.71805">
        <ele>198</ele>
        <time>2024-01-12T14:34:14+01:00</time>
      </trkpt>
      <trkpt lat="43.60659" lon="3.71823">
        <ele>200</ele>
        <time>2024-01-12T14:34:27+01:00</time>
      </trkpt>
      <trkpt lat="43.6065" lon="3.71827">
        <ele>202</ele>
        <time>2024-01-12T14:38:11+01:00</time>
      </trkpt>
      <trkpt lat="43.60641" lon="3.71821">
        <ele>202</ele>
        <time>2024-01-12T14:38:25+01:00</time>
      </trkpt>
      <trkpt lat="43.60631" lon="3.71821">
        <ele>203</ele>
        <time>2024-01-12T14:38:34+01:00</time>
      </trkpt>
      <trkpt lat="43.60621" lon="3.7182">
        <ele>204</ele>
        <time>2024-01-12T14:38:44+01:00</time>
      </trkpt>
      <trkpt lat="43.60611" lon="3.71813">
        <ele>204</ele>
        <time>2024-01-12T14:38:58+01:00</time>
      </trkpt>
      <trkpt lat="43.60601" lon="3.71803">
        <ele>204</ele>
        <time>2024-01-12T14:39:08+01:00</time>
      </trkpt>
      <trkpt lat="43.60591" lon="3.71797">
        <ele>204</ele>
        <time>2024-01-12T14:39:17+01:00</time>
      </trkpt>
      <trkpt lat="43.6058" lon="3.71794">
        <ele>205</ele>
        <time>2024-01-12T14:39:26+01:00</time>
      </trkpt>
      <trkpt lat="43.60566" lon="3.71785">
        <ele>206</ele>
        <time>2024-01-12T14:39:40+01:00</time>
      </trkpt>
      <trkpt lat="43.60558" lon="3.7178">
        <ele>207</ele>
        <time>2024-01-12T14:39:50+01:00</time>
      </trkpt>
      <trkpt lat="43.60549" lon="3.71774">
        <ele>208</ele>
        <time>2024-01-12T14:39:59+01:00</time>
      </trkpt>
      <trkpt lat="43.6054" lon="3.71768">
        <ele>209</ele>
        <time>2024-01-12T14:40:08+01:00</time>
      </trkpt>
      <trkpt lat="43.60531" lon="3.71758">
        <ele>210</ele>
        <time>2024-01-12T14:40:18+01:00</time>
      </trkpt>
      <trkpt lat="43.6052" lon="3.71755">
        <ele>212</ele>
        <time>2024-01-12T14:40:27+01:00</time>
      </trkpt>
      <trkpt lat="43.60509" lon="3.71756">
        <ele>214</ele>
        <time>2024-01-12T14:40:41+01:00</time>
      </trkpt>
      <trkpt lat="43.60498" lon="3.7176">
        <ele>215</ele>
        <time>2024-01-12T14:40:50+01:00</time>
      </trkpt>
      <trkpt lat="43.60483" lon="3.71764">
        <ele>216</ele>
        <time>2024-01-12T14:41:04+01:00</time>
      </trkpt>
      <trkpt lat="43.60473" lon="3.71768">
        <ele>216</ele>
        <time>2024-01-12T14:41:14+01:00</time>
      </trkpt>
      <trkpt lat="43.60464" lon="3.71773">
        <ele>217</ele>
        <time>2024-01-12T14:41:23+01:00</time>
      </trkpt>
      <trkpt lat="43.60453" lon="3.71773">
        <ele>218</ele>
        <time>2024-01-12T14:41:32+01:00</time>
      </trkpt>
      <trkpt lat="43.60442" lon="3.71771">
        <ele>220</ele>
        <time>2024-01-12T14:41:42+01:00</time>
      </trkpt>
      <trkpt lat="43.60431" lon="3.71783">
        <ele>219</ele>
        <time>2024-01-12T14:41:55+01:00</time>
      </trkpt>
      <trkpt lat="43.60422" lon="3.7179">
        <ele>219</ele>
        <time>2024-01-12T14:42:05+01:00</time>
      </trkpt>
      <trkpt lat="43.60413" lon="3.71798">
        <ele>220</ele>
        <time>2024-01-12T14:42:14+01:00</time>
      </trkpt>
      <trkpt lat="43.60404" lon="3.71813">
        <ele>219</ele>
        <time>2024-01-12T14:42:25+01:00</time>
      </trkpt>
      <trkpt lat="43.60397" lon="3.71822">
        <ele>218</ele>
        <time>2024-01-12T14:42:34+01:00</time>
      </trkpt>
      <trkpt lat="43.60389" lon="3.71833">
        <ele>219</ele>
        <time>2024-01-12T14:42:43+01:00</time>
      </trkpt>
      <trkpt lat="43.60381" lon="3.71845">
        <ele>219</ele>
        <time>2024-01-12T14:42:53+01:00</time>
      </trkpt>
      <trkpt lat="43.60375" lon="3.71857">
        <ele>219</ele>
        <time>2024-01-12T14:43:02+01:00</time>
      </trkpt>
      <trkpt lat="43.60369" lon="3.71867">
        <ele>219</ele>
        <time>2024-01-12T14:43:11+01:00</time>
      </trkpt>
      <trkpt lat="43.6036" lon="3.71875">
        <ele>221</ele>
        <time>2024-01-12T14:43:20+01:00</time>
      </trkpt>
      <trkpt lat="43.60355" lon="3.71887">
        <ele>222</ele>
        <time>2024-01-12T14:43:30+01:00</time>
      </trkpt>
      <trkpt lat="43.60347" lon="3.71897">
        <ele>223</ele>
        <time>2024-01-12T14:43:39+01:00</time>
      </trkpt>
      <trkpt lat="43.60341" lon="3.71908">
        <ele>223</ele>
        <time>2024-01-12T14:43:48+01:00</time>
      </trkpt>
      <trkpt lat="43.6033" lon="3.71921">
        <ele>225</ele>
        <time>2024-01-12T14:44:03+01:00</time>
      </trkpt>
      <trkpt lat="43.60325" lon="3.71935">
        <ele>225</ele>
        <time>2024-01-12T14:44:12+01:00</time>
      </trkpt>
      <trkpt lat="43.60319" lon="3.71944">
        <ele>225</ele>
        <time>2024-01-12T14:44:22+01:00</time>
      </trkpt>
      <trkpt lat="43.60312" lon="3.71955">
        <ele>225</ele>
        <time>2024-01-12T14:44:31+01:00</time>
      </trkpt>
      <trkpt lat="43.60305" lon="3.71967">
        <ele>226</ele>
        <time>2024-01-12T14:44:41+01:00</time>
      </trkpt>
      <trkpt lat="43.60297" lon="3.71977">
        <ele>227</ele>
        <time>2024-01-12T14:44:50+01:00</time>
      </trkpt>
      <trkpt lat="43.6029" lon="3.7199">
        <ele>229</ele>
        <time>2024-01-12T14:44:59+01:00</time>
      </trkpt>
      <trkpt lat="43.60284" lon="3.72001">
        <ele>229</ele>
        <time>2024-01-12T14:45:09+01:00</time>
      </trkpt>
      <trkpt lat="43.60275" lon="3.72012">
        <ele>230</ele>
        <time>2024-01-12T14:45:18+01:00</time>
      </trkpt>
      <trkpt lat="43.60269" lon="3.72021">
        <ele>231</ele>
        <time>2024-01-12T14:45:27+01:00</time>
      </trkpt>
      <trkpt lat="43.60257" lon="3.72021">
        <ele>233</ele>
        <time>2024-01-12T14:48:58+01:00</time>
      </trkpt>
      <trkpt lat="43.60249" lon="3.72011">
        <ele>234</ele>
        <time>2024-01-12T14:49:22+01:00</time>
      </trkpt>
      <trkpt lat="43.60242" lon="3.71999">
        <ele>232</ele>
        <time>2024-01-12T14:49:36+01:00</time>
      </trkpt>
      <trkpt lat="43.60232" lon="3.71996">
        <ele>230</ele>
        <time>2024-01-12T14:49:50+01:00</time>
      </trkpt>
      <trkpt lat="43.6022" lon="3.72003">
        <ele>229</ele>
        <time>2024-01-12T14:49:59+01:00</time>
      </trkpt>
      <trkpt lat="43.60213" lon="3.72012">
        <ele>229</ele>
        <time>2024-01-12T14:50:09+01:00</time>
      </trkpt>
      <trkpt lat="43.60204" lon="3.72019">
        <ele>229</ele>
        <time>2024-01-12T14:50:18+01:00</time>
      </trkpt>
      <trkpt lat="43.60195" lon="3.72028">
        <ele>228</ele>
        <time>2024-01-12T14:50:27+01:00</time>
      </trkpt>
      <trkpt lat="43.60183" lon="3.72028">
        <ele>227</ele>
        <time>2024-01-12T14:50:37+01:00</time>
      </trkpt>
      <trkpt lat="43.60171" lon="3.72026">
        <ele>225</ele>
        <time>2024-01-12T14:50:46+01:00</time>
      </trkpt>
      <trkpt lat="43.60161" lon="3.72018">
        <ele>225</ele>
        <time>2024-01-12T14:50:55+01:00</time>
      </trkpt>
      <trkpt lat="43.60155" lon="3.72005">
        <ele>224</ele>
        <time>2024-01-12T14:51:05+01:00</time>
      </trkpt>
      <trkpt lat="43.60154" lon="3.7199">
        <ele>222</ele>
        <time>2024-01-12T14:51:14+01:00</time>
      </trkpt>
      <trkpt lat="43.6015" lon="3.71976">
        <ele>219</ele>
        <time>2024-01-12T14:51:28+01:00</time>
      </trkpt>
      <trkpt lat="43.60142" lon="3.7196">
        <ele>216</ele>
        <time>2024-01-12T14:51:42+01:00</time>
      </trkpt>
      <trkpt lat="43.60138" lon="3.71943">
        <ele>213</ele>
        <time>2024-01-12T14:51:52+01:00</time>
      </trkpt>
      <trkpt lat="43.60131" lon="3.71932">
        <ele>214</ele>
        <time>2024-01-12T14:52:01+01:00</time>
      </trkpt>
      <trkpt lat="43.60125" lon="3.71919">
        <ele>215</ele>
        <time>2024-01-12T14:52:10+01:00</time>
      </trkpt>
      <trkpt lat="43.60123" lon="3.71904">
        <ele>214</ele>
        <time>2024-01-12T14:52:19+01:00</time>
      </trkpt>
      <trkpt lat="43.60115" lon="3.71892">
        <ele>216</ele>
        <time>2024-01-12T14:52:28+01:00</time>
      </trkpt>
      <trkpt lat="43.60109" lon="3.71881">
        <ele>217</ele>
        <time>2024-01-12T14:52:38+01:00</time>
      </trkpt>
      <trkpt lat="43.60099" lon="3.71869">
        <ele>217</ele>
        <time>2024-01-12T14:52:52+01:00</time>
      </trkpt>
      <trkpt lat="43.60091" lon="3.71862">
        <ele>217</ele>
        <time>2024-01-12T14:53:01+01:00</time>
      </trkpt>
      <trkpt lat="43.60079" lon="3.71853">
        <ele>216</ele>
        <time>2024-01-12T14:53:15+01:00</time>
      </trkpt>
      <trkpt lat="43.6007" lon="3.71846">
        <ele>214</ele>
        <time>2024-01-12T14:53:24+01:00</time>
      </trkpt>
      <trkpt lat="43.60059" lon="3.71843">
        <ele>213</ele>
        <time>2024-01-12T14:53:34+01:00</time>
      </trkpt>
      <trkpt lat="43.60049" lon="3.7184">
        <ele>212</ele>
        <time>2024-01-12T14:53:43+01:00</time>
      </trkpt>
      <trkpt lat="43.6004" lon="3.71836">
        <ele>211</ele>
        <time>2024-01-12T14:53:52+01:00</time>
      </trkpt>
      <trkpt lat="43.6003" lon="3.71832">
        <ele>210</ele>
        <time>2024-01-12T14:54:01+01:00</time>
      </trkpt>
      <trkpt lat="43.60018" lon="3.71825">
        <ele>208</ele>
        <time>2024-01-12T14:54:20+01:00</time>
      </trkpt>
      <trkpt lat="43.60009" lon="3.71815">
        <ele>205</ele>
        <time>2024-01-12T14:54:29+01:00</time>
      </trkpt>
      <trkpt lat="43.59999" lon="3.71807">
        <ele>203</ele>
        <time>2024-01-12T14:54:38+01:00</time>
      </trkpt>
      <trkpt lat="43.5999" lon="3.71799">
        <ele>202</ele>
        <time>2024-01-12T14:54:47+01:00</time>
      </trkpt>
      <trkpt lat="43.5998" lon="3.71791">
        <ele>203</ele>
        <time>2024-01-12T14:54:57+01:00</time>
      </trkpt>
      <trkpt lat="43.59973" lon="3.71781">
        <ele>203</ele>
        <time>2024-01-12T14:55:06+01:00</time>
      </trkpt>
      <trkpt lat="43.59963" lon="3.71773">
        <ele>204</ele>
        <time>2024-01-12T14:55:15+01:00</time>
      </trkpt>
      <trkpt lat="43.59956" lon="3.71763">
        <ele>204</ele>
        <time>2024-01-12T14:55:25+01:00</time>
      </trkpt>
      <trkpt lat="43.59948" lon="3.71752">
        <ele>204</ele>
        <time>2024-01-12T14:55:34+01:00</time>
      </trkpt>
      <trkpt lat="43.5994" lon="3.71743">
        <ele>203</ele>
        <time>2024-01-12T14:55:43+01:00</time>
      </trkpt>
      <trkpt lat="43.59932" lon="3.71734">
        <ele>202</ele>
        <time>2024-01-12T14:55:53+01:00</time>
      </trkpt>
      <trkpt lat="43.59922" lon="3.71731">
        <ele>201</ele>
        <time>2024-01-12T14:56:02+01:00</time>
      </trkpt>
      <trkpt lat="43.59914" lon="3.71738">
        <ele>201</ele>
        <time>2024-01-12T14:56:11+01:00</time>
      </trkpt>
      <trkpt lat="43.59904" lon="3.7175">
        <ele>200</ele>
        <time>2024-01-12T14:56:25+01:00</time>
      </trkpt>
      <trkpt lat="43.59894" lon="3.71745">
        <ele>199</ele>
        <time>2024-01-12T14:56:39+01:00</time>
      </trkpt>
      <trkpt lat="43.59885" lon="3.71747">
        <ele>198</ele>
        <time>2024-01-12T14:56:49+01:00</time>
      </trkpt>
      <trkpt lat="43.59875" lon="3.71743">
        <ele>196</ele>
        <time>2024-01-12T14:56:58+01:00</time>
      </trkpt>
      <trkpt lat="43.59861" lon="3.71744">
        <ele>195</ele>
        <time>2024-01-12T14:57:07+01:00</time>
      </trkpt>
      <trkpt lat="43.59846" lon="3.71751">
        <ele>193</ele>
        <time>2024-01-12T14:57:17+01:00</time>
      </trkpt>
      <trkpt lat="43.59834" lon="3.71758">
        <ele>190</ele>
        <time>2024-01-12T14:59:40+01:00</time>
      </trkpt>
      <trkpt lat="43.59822" lon="3.71752">
        <ele>190</ele>
        <time>2024-01-12T14:59:49+01:00</time>
      </trkpt>
      <trkpt lat="43.59811" lon="3.71755">
        <ele>189</ele>
        <time>2024-01-12T14:59:59+01:00</time>
      </trkpt>
      <trkpt lat="43.59799" lon="3.71758">
        <ele>188</ele>
        <time>2024-01-12T15:00:08+01:00</time>
      </trkpt>
      <trkpt lat="43.59789" lon="3.71765">
        <ele>188</ele>
        <time>2024-01-12T15:00:18+01:00</time>
      </trkpt>
      <trkpt lat="43.59781" lon="3.71774">
        <ele>187</ele>
        <time>2024-01-12T15:00:27+01:00</time>
      </trkpt>
      <trkpt lat="43.59776" lon="3.71785">
        <ele>186</ele>
        <time>2024-01-12T15:00:36+01:00</time>
      </trkpt>
      <trkpt lat="43.5977" lon="3.71801">
        <ele>184</ele>
        <time>2024-01-12T15:00:51+01:00</time>
      </trkpt>
      <trkpt lat="43.59762" lon="3.71816">
        <ele>183</ele>
        <time>2024-01-12T15:01:20+01:00</time>
      </trkpt>
      <trkpt lat="43.59755" lon="3.71831">
        <ele>182</ele>
        <time>2024-01-12T15:01:29+01:00</time>
      </trkpt>
      <trkpt lat="43.59748" lon="3.71844">
        <ele>181</ele>
        <time>2024-01-12T15:01:38+01:00</time>
      </trkpt>
      <trkpt lat="43.59743" lon="3.71858">
        <ele>180</ele>
        <time>2024-01-12T15:01:47+01:00</time>
      </trkpt>
      <trkpt lat="43.59738" lon="3.71872">
        <ele>179</ele>
        <time>2024-01-12T15:01:57+01:00</time>
      </trkpt>
      <trkpt lat="43.59732" lon="3.71886">
        <ele>178</ele>
        <time>2024-01-12T15:02:06+01:00</time>
      </trkpt>
      <trkpt lat="43.5973" lon="3.71902">
        <ele>177</ele>
        <time>2024-01-12T15:02:15+01:00</time>
      </trkpt>
      <trkpt lat="43.59727" lon="3.71918">
        <ele>176</ele>
        <time>2024-01-12T15:02:25+01:00</time>
      </trkpt>
      <trkpt lat="43.59727" lon="3.71934">
        <ele>175</ele>
        <time>2024-01-12T15:02:34+01:00</time>
      </trkpt>
      <trkpt lat="43.59728" lon="3.71949">
        <ele>174</ele>
        <time>2024-01-12T15:02:43+01:00</time>
      </trkpt>
      <trkpt lat="43.59727" lon="3.71967">
        <ele>172</ele>
        <time>2024-01-12T15:02:52+01:00</time>
      </trkpt>
      <trkpt lat="43.59723" lon="3.71983">
        <ele>171</ele>
        <time>2024-01-12T15:03:02+01:00</time>
      </trkpt>
      <trkpt lat="43.59722" lon="3.71998">
        <ele>169</ele>
        <time>2024-01-12T15:03:11+01:00</time>
      </trkpt>
      <trkpt lat="43.59728" lon="3.71989">
        <ele>170</ele>
        <time>2024-01-12T15:04:01+01:00</time>
      </trkpt>
      <trkpt lat="43.5972" lon="3.71996">
        <ele>169</ele>
        <time>2024-01-12T15:04:25+01:00</time>
      </trkpt>
      <trkpt lat="43.59717" lon="3.72015">
        <ele>167</ele>
        <time>2024-01-12T15:04:35+01:00</time>
      </trkpt>
      <trkpt lat="43.59716" lon="3.72033">
        <ele>166</ele>
        <time>2024-01-12T15:04:44+01:00</time>
      </trkpt>
      <trkpt lat="43.5972" lon="3.72049">
        <ele>164</ele>
        <time>2024-01-12T15:04:53+01:00</time>
      </trkpt>
      <trkpt lat="43.59722" lon="3.72067">
        <ele>163</ele>
        <time>2024-01-12T15:05:03+01:00</time>
      </trkpt>
      <trkpt lat="43.59724" lon="3.72084">
        <ele>162</ele>
        <time>2024-01-12T15:05:12+01:00</time>
      </trkpt>
      <trkpt lat="43.59722" lon="3.72101">
        <ele>161</ele>
        <time>2024-01-12T15:05:21+01:00</time>
      </trkpt>
      <trkpt lat="43.59716" lon="3.72115">
        <ele>160</ele>
        <time>2024-01-12T15:05:30+01:00</time>
      </trkpt>
      <trkpt lat="43.59716" lon="3.72132">
        <ele>159</ele>
        <time>2024-01-12T15:05:39+01:00</time>
      </trkpt>
      <trkpt lat="43.59718" lon="3.72145">
        <ele>157</ele>
        <time>2024-01-12T15:05:49+01:00</time>
      </trkpt>
      <trkpt lat="43.59719" lon="3.72163">
        <ele>156</ele>
        <time>2024-01-12T15:05:58+01:00</time>
      </trkpt>
      <trkpt lat="43.59721" lon="3.72179">
        <ele>155</ele>
        <time>2024-01-12T15:06:07+01:00</time>
      </trkpt>
      <trkpt lat="43.59721" lon="3.72196">
        <ele>154</ele>
        <time>2024-01-12T15:06:17+01:00</time>
      </trkpt>
      <trkpt lat="43.59723" lon="3.72213">
        <ele>153</ele>
        <time>2024-01-12T15:06:26+01:00</time>
      </trkpt>
      <trkpt lat="43.59722" lon="3.72229">
        <ele>153</ele>
        <time>2024-01-12T15:06:35+01:00</time>
      </trkpt>
      <trkpt lat="43.59723" lon="3.72246">
        <ele>153</ele>
        <time>2024-01-12T15:06:44+01:00</time>
      </trkpt>
      <trkpt lat="43.59725" lon="3.72264">
        <ele>153</ele>
        <time>2024-01-12T15:06:53+01:00</time>
      </trkpt>
      <trkpt lat="43.59727" lon="3.72281">
        <ele>153</ele>
        <time>2024-01-12T15:07:03+01:00</time>
      </trkpt>
      <trkpt lat="43.5973" lon="3.72299">
        <ele>153</ele>
        <time>2024-01-12T15:07:12+01:00</time>
      </trkpt>
      <trkpt lat="43.59731" lon="3.72317">
        <ele>152</ele>
        <time>2024-01-12T15:07:21+01:00</time>
      </trkpt>
      <trkpt lat="43.59735" lon="3.72334">
        <ele>152</ele>
        <time>2024-01-12T15:07:30+01:00</time>
      </trkpt>
      <trkpt lat="43.59736" lon="3.72351">
        <ele>151</ele>
        <time>2024-01-12T15:07:40+01:00</time>
      </trkpt>
      <trkpt lat="43.59738" lon="3.72368">
        <ele>150</ele>
        <time>2024-01-12T15:07:49+01:00</time>
      </trkpt>
      <trkpt lat="43.59745" lon="3.72384">
        <ele>149</ele>
        <time>2024-01-12T15:07:59+01:00</time>
      </trkpt>
      <trkpt lat="43.59749" lon="3.72401">
        <ele>148</ele>
        <time>2024-01-12T15:08:08+01:00</time>
      </trkpt>
      <trkpt lat="43.59754" lon="3.72415">
        <ele>147</ele>
        <time>2024-01-12T15:08:17+01:00</time>
      </trkpt>
      <trkpt lat="43.59762" lon="3.72427">
        <ele>146</ele>
        <time>2024-01-12T15:08:26+01:00</time>
      </trkpt>
      <trkpt lat="43.5977" lon="3.72438">
        <ele>146</ele>
        <time>2024-01-12T15:08:36+01:00</time>
      </trkpt>
      <trkpt lat="43.59779" lon="3.72448">
        <ele>146</ele>
        <time>2024-01-12T15:08:45+01:00</time>
      </trkpt>
      <trkpt lat="43.59789" lon="3.72457">
        <ele>145</ele>
        <time>2024-01-12T15:08:54+01:00</time>
      </trkpt>
      <trkpt lat="43.59798" lon="3.72468">
        <ele>144</ele>
        <time>2024-01-12T15:09:03+01:00</time>
      </trkpt>
      <trkpt lat="43.59807" lon="3.72479">
        <ele>144</ele>
        <time>2024-01-12T15:09:13+01:00</time>
      </trkpt>
      <trkpt lat="43.59817" lon="3.72489">
        <ele>143</ele>
        <time>2024-01-12T15:09:22+01:00</time>
      </trkpt>
      <trkpt lat="43.59823" lon="3.72503">
        <ele>142</ele>
        <time>2024-01-12T15:09:31+01:00</time>
      </trkpt>
      <trkpt lat="43.59831" lon="3.72515">
        <ele>141</ele>
        <time>2024-01-12T15:09:41+01:00</time>
      </trkpt>
      <trkpt lat="43.59838" lon="3.72528">
        <ele>140</ele>
        <time>2024-01-12T15:09:50+01:00</time>
      </trkpt>
      <trkpt lat="43.59844" lon="3.72542">
        <ele>139</ele>
        <time>2024-01-12T15:09:59+01:00</time>
      </trkpt>
      <trkpt lat="43.59851" lon="3.72555">
        <ele>138</ele>
        <time>2024-01-12T15:10:08+01:00</time>
      </trkpt>
      <trkpt lat="43.59856" lon="3.72568">
        <ele>138</ele>
        <time>2024-01-12T15:10:17+01:00</time>
      </trkpt>
      <trkpt lat="43.59865" lon="3.72579">
        <ele>137</ele>
        <time>2024-01-12T15:10:27+01:00</time>
      </trkpt>
      <trkpt lat="43.5987" lon="3.72591">
        <ele>137</ele>
        <time>2024-01-12T15:10:36+01:00</time>
      </trkpt>
      <trkpt lat="43.59878" lon="3.72602">
        <ele>137</ele>
        <time>2024-01-12T15:13:45+01:00</time>
      </trkpt>
      <trkpt lat="43.59885" lon="3.72616">
        <ele>137</ele>
        <time>2024-01-12T15:13:54+01:00</time>
      </trkpt>
      <trkpt lat="43.59895" lon="3.72625">
        <ele>137</ele>
        <time>2024-01-12T15:14:04+01:00</time>
      </trkpt>
      <trkpt lat="43.59904" lon="3.72634">
        <ele>137</ele>
        <time>2024-01-12T15:14:13+01:00</time>
      </trkpt>
      <trkpt lat="43.59913" lon="3.72641">
        <ele>138</ele>
        <time>2024-01-12T15:14:23+01:00</time>
      </trkpt>
      <trkpt lat="43.59921" lon="3.72649">
        <ele>138</ele>
        <time>2024-01-12T15:14:32+01:00</time>
      </trkpt>
      <trkpt lat="43.59928" lon="3.72658">
        <ele>138</ele>
        <time>2024-01-12T15:14:42+01:00</time>
      </trkpt>
      <trkpt lat="43.59939" lon="3.72668">
        <ele>138</ele>
        <time>2024-01-12T15:14:56+01:00</time>
      </trkpt>
      <trkpt lat="43.59948" lon="3.72679">
        <ele>138</ele>
        <time>2024-01-12T15:15:15+01:00</time>
      </trkpt>
      <trkpt lat="43.59955" lon="3.72692">
        <ele>138</ele>
        <time>2024-01-12T15:15:29+01:00</time>
      </trkpt>
      <trkpt lat="43.5996" lon="3.72702">
        <ele>137</ele>
        <time>2024-01-12T15:15:38+01:00</time>
      </trkpt>
      <trkpt lat="43.5997" lon="3.72709">
        <ele>137</ele>
        <time>2024-01-12T15:15:47+01:00</time>
      </trkpt>
      <trkpt lat="43.59978" lon="3.72714">
        <ele>136</ele>
        <time>2024-01-12T15:15:56+01:00</time>
      </trkpt>
      <trkpt lat="43.59988" lon="3.72715">
        <ele>135</ele>
        <time>2024-01-12T15:16:06+01:00</time>
      </trkpt>
      <trkpt lat="43.60001" lon="3.7271">
        <ele>135</ele>
        <time>2024-01-12T15:16:20+01:00</time>
      </trkpt>
      <trkpt lat="43.60012" lon="3.7271">
        <ele>135</ele>
        <time>2024-01-12T15:16:29+01:00</time>
      </trkpt>
      <trkpt lat="43.60023" lon="3.72711">
        <ele>134</ele>
        <time>2024-01-12T15:16:38+01:00</time>
      </trkpt>
      <trkpt lat="43.60031" lon="3.72718">
        <ele>134</ele>
        <time>2024-01-12T15:16:48+01:00</time>
      </trkpt>
      <trkpt lat="43.6004" lon="3.72728">
        <ele>134</ele>
        <time>2024-01-12T15:16:57+01:00</time>
      </trkpt>
      <trkpt lat="43.60047" lon="3.72739">
        <ele>135</ele>
        <time>2024-01-12T15:17:11+01:00</time>
      </trkpt>
      <trkpt lat="43.60052" lon="3.72751">
        <ele>135</ele>
        <time>2024-01-12T15:17:20+01:00</time>
      </trkpt>
      <trkpt lat="43.60058" lon="3.72765">
        <ele>135</ele>
        <time>2024-01-12T15:17:29+01:00</time>
      </trkpt>
      <trkpt lat="43.60066" lon="3.72776">
        <ele>135</ele>
        <time>2024-01-12T15:17:39+01:00</time>
      </trkpt>
      <trkpt lat="43.60074" lon="3.72786">
        <ele>135</ele>
        <time>2024-01-12T15:17:53+01:00</time>
      </trkpt>
      <trkpt lat="43.6008" lon="3.72797">
        <ele>135</ele>
        <time>2024-01-12T15:18:03+01:00</time>
      </trkpt>
      <trkpt lat="43.60089" lon="3.72817">
        <ele>135</ele>
        <time>2024-01-12T15:18:23+01:00</time>
      </trkpt>
      <trkpt lat="43.60093" lon="3.72835">
        <ele>134</ele>
        <time>2024-01-12T15:18:32+01:00</time>
      </trkpt>
      <trkpt lat="43.60099" lon="3.72849">
        <ele>134</ele>
        <time>2024-01-12T15:18:41+01:00</time>
      </trkpt>
      <trkpt lat="43.60107" lon="3.72861">
        <ele>134</ele>
        <time>2024-01-12T15:18:51+01:00</time>
      </trkpt>
      <trkpt lat="43.60114" lon="3.72874">
        <ele>134</ele>
        <time>2024-01-12T15:19:00+01:00</time>
      </trkpt>
      <trkpt lat="43.60121" lon="3.72886">
        <ele>135</ele>
        <time>2024-01-12T15:19:09+01:00</time>
      </trkpt>
      <trkpt lat="43.60129" lon="3.72897">
        <ele>136</ele>
        <time>2024-01-12T15:19:18+01:00</time>
      </trkpt>
      <trkpt lat="43.60136" lon="3.72908">
        <ele>136</ele>
        <time>2024-01-12T15:19:27+01:00</time>
      </trkpt>
      <trkpt lat="43.60142" lon="3.7292">
        <ele>137</ele>
        <time>2024-01-12T15:19:37+01:00</time>
      </trkpt>
      <trkpt lat="43.60149" lon="3.72932">
        <ele>139</ele>
        <time>2024-01-12T15:19:46+01:00</time>
      </trkpt>
      <trkpt lat="43.60154" lon="3.72944">
        <ele>140</ele>
        <time>2024-01-12T15:19:56+01:00</time>
      </trkpt>
      <trkpt lat="43.6016" lon="3.72957">
        <ele>140</ele>
        <time>2024-01-12T15:20:05+01:00</time>
      </trkpt>
      <trkpt lat="43.60165" lon="3.7297">
        <ele>141</ele>
        <time>2024-01-12T15:20:14+01:00</time>
      </trkpt>
      <trkpt lat="43.60171" lon="3.72988">
        <ele>141</ele>
        <time>2024-01-12T15:20:28+01:00</time>
      </trkpt>
      <trkpt lat="43.60175" lon="3.73005">
        <ele>142</ele>
        <time>2024-01-12T15:20:37+01:00</time>
      </trkpt>
      <trkpt lat="43.60177" lon="3.73019">
        <ele>142</ele>
        <time>2024-01-12T15:20:47+01:00</time>
      </trkpt>
      <trkpt lat="43.6018" lon="3.73033">
        <ele>143</ele>
        <time>2024-01-12T15:20:57+01:00</time>
      </trkpt>
      <trkpt lat="43.60183" lon="3.73048">
        <ele>142</ele>
        <time>2024-01-12T15:21:06+01:00</time>
      </trkpt>
      <trkpt lat="43.60186" lon="3.73062">
        <ele>141</ele>
        <time>2024-01-12T15:21:15+01:00</time>
      </trkpt>
      <trkpt lat="43.60193" lon="3.73076">
        <ele>141</ele>
        <time>2024-01-12T15:21:29+01:00</time>
      </trkpt>
      <trkpt lat="43.60201" lon="3.73085">
        <ele>140</ele>
        <time>2024-01-12T15:21:38+01:00</time>
      </trkpt>
      <trkpt lat="43.60206" lon="3.73095">
        <ele>140</ele>
        <time>2024-01-12T15:21:48+01:00</time>
      </trkpt>
      <trkpt lat="43.60214" lon="3.73105">
        <ele>139</ele>
        <time>2024-01-12T15:21:57+01:00</time>
      </trkpt>
      <trkpt lat="43.60223" lon="3.73113">
        <ele>138</ele>
        <time>2024-01-12T15:22:06+01:00</time>
      </trkpt>
      <trkpt lat="43.60232" lon="3.73119">
        <ele>137</ele>
        <time>2024-01-12T15:22:15+01:00</time>
      </trkpt>
      <trkpt lat="43.60239" lon="3.73128">
        <ele>136</ele>
        <time>2024-01-12T15:22:25+01:00</time>
      </trkpt>
      <trkpt lat="43.60245" lon="3.73138">
        <ele>135</ele>
        <time>2024-01-12T15:22:38+01:00</time>
      </trkpt>
      <trkpt lat="43.60251" lon="3.73151">
        <ele>135</ele>
        <time>2024-01-12T15:22:48+01:00</time>
      </trkpt>
      <trkpt lat="43.60264" lon="3.73149">
        <ele>135</ele>
        <time>2024-01-12T15:23:02+01:00</time>
      </trkpt>
      <trkpt lat="43.60274" lon="3.73158">
        <ele>135</ele>
        <time>2024-01-12T15:23:16+01:00</time>
      </trkpt>
      <trkpt lat="43.60285" lon="3.73163">
        <ele>135</ele>
        <time>2024-01-12T15:23:25+01:00</time>
      </trkpt>
      <trkpt lat="43.60295" lon="3.73169">
        <ele>135</ele>
        <time>2024-01-12T15:23:34+01:00</time>
      </trkpt>
      <trkpt lat="43.60303" lon="3.73173">
        <ele>135</ele>
        <time>2024-01-12T15:23:44+01:00</time>
      </trkpt>
      <trkpt lat="43.60316" lon="3.73182">
        <ele>137</ele>
        <time>2024-01-12T15:23:57+01:00</time>
      </trkpt>
      <trkpt lat="43.60327" lon="3.73189">
        <ele>139</ele>
        <time>2024-01-12T15:24:07+01:00</time>
      </trkpt>
      <trkpt lat="43.60335" lon="3.73198">
        <ele>141</ele>
        <time>2024-01-12T15:24:16+01:00</time>
      </trkpt>
      <trkpt lat="43.60345" lon="3.73207">
        <ele>144</ele>
        <time>2024-01-12T15:24:25+01:00</time>
      </trkpt>
      <trkpt lat="43.60355" lon="3.73222">
        <ele>146</ele>
        <time>2024-01-12T15:24:39+01:00</time>
      </trkpt>
      <trkpt lat="43.60362" lon="3.73233">
        <ele>148</ele>
        <time>2024-01-12T15:24:49+01:00</time>
      </trkpt>
      <trkpt lat="43.60366" lon="3.73246">
        <ele>150</ele>
        <time>2024-01-12T15:24:58+01:00</time>
      </trkpt>
      <trkpt lat="43.60373" lon="3.73255">
        <ele>151</ele>
        <time>2024-01-12T15:25:07+01:00</time>
      </trkpt>
      <trkpt lat="43.60379" lon="3.73268">
        <ele>152</ele>
        <time>2024-01-12T15:25:16+01:00</time>
      </trkpt>
      <trkpt lat="43.60384" lon="3.73281">
        <ele>153</ele>
        <time>2024-01-12T15:25:26+01:00</time>
      </trkpt>
      <trkpt lat="43.60391" lon="3.73297">
        <ele>154</ele>
        <time>2024-01-12T15:25:40+01:00</time>
      </trkpt>
      <trkpt lat="43.6039" lon="3.73314">
        <ele>154</ele>
        <time>2024-01-12T15:25:53+01:00</time>
      </trkpt>
      <trkpt lat="43.60391" lon="3.73334">
        <ele>153</ele>
        <time>2024-01-12T15:27:22+01:00</time>
      </trkpt>
      <trkpt lat="43.60388" lon="3.73347">
        <ele>152</ele>
        <time>2024-01-12T15:27:27+01:00</time>
      </trkpt>
      <trkpt lat="43.60383" lon="3.73358">
        <ele>151</ele>
        <time>2024-01-12T15:27:36+01:00</time>
      </trkpt>
      <trkpt lat="43.6038" lon="3.73372">
        <ele>149</ele>
        <time>2024-01-12T15:27:45+01:00</time>
      </trkpt>
      <trkpt lat="43.60376" lon="3.73383">
        <ele>148</ele>
        <time>2024-01-12T15:27:54+01:00</time>
      </trkpt>
      <trkpt lat="43.60371" lon="3.73395">
        <ele>147</ele>
        <time>2024-01-12T15:28:04+01:00</time>
      </trkpt>
      <trkpt lat="43.60366" lon="3.73408">
        <ele>146</ele>
        <time>2024-01-12T15:28:13+01:00</time>
      </trkpt>
      <trkpt lat="43.60363" lon="3.73422">
        <ele>145</ele>
        <time>2024-01-12T15:28:23+01:00</time>
      </trkpt>
      <trkpt lat="43.60361" lon="3.73438">
        <ele>143</ele>
        <time>2024-01-12T15:28:37+01:00</time>
      </trkpt>
      <trkpt lat="43.6036" lon="3.73451">
        <ele>143</ele>
        <time>2024-01-12T15:28:46+01:00</time>
      </trkpt>
      <trkpt lat="43.6037" lon="3.73464">
        <ele>141</ele>
        <time>2024-01-12T15:29:00+01:00</time>
      </trkpt>
      <trkpt lat="43.60377" lon="3.73471">
        <ele>140</ele>
        <time>2024-01-12T15:29:10+01:00</time>
      </trkpt>
      <trkpt lat="43.60384" lon="3.73483">
        <ele>139</ele>
        <time>2024-01-12T15:29:20+01:00</time>
      </trkpt>
      <trkpt lat="43.6039" lon="3.73501">
        <ele>139</ele>
        <time>2024-01-12T15:29:29+01:00</time>
      </trkpt>
      <trkpt lat="43.60395" lon="3.73521">
        <ele>139</ele>
        <time>2024-01-12T15:29:43+01:00</time>
      </trkpt>
      <trkpt lat="43.604" lon="3.73536">
        <ele>138</ele>
        <time>2024-01-12T15:29:53+01:00</time>
      </trkpt>
      <trkpt lat="43.60408" lon="3.73554">
        <ele>138</ele>
        <time>2024-01-12T15:30:16+01:00</time>
      </trkpt>
      <trkpt lat="43.60414" lon="3.73569">
        <ele>138</ele>
        <time>2024-01-12T15:30:25+01:00</time>
      </trkpt>
      <trkpt lat="43.60413" lon="3.73585">
        <ele>137</ele>
        <time>2024-01-12T15:30:48+01:00</time>
      </trkpt>
      <trkpt lat="43.60404" lon="3.73596">
        <ele>137</ele>
        <time>2024-01-12T15:30:58+01:00</time>
      </trkpt>
      <trkpt lat="43.60402" lon="3.7361">
        <ele>137</ele>
        <time>2024-01-12T15:31:07+01:00</time>
      </trkpt>
      <trkpt lat="43.60398" lon="3.73624">
        <ele>137</ele>
        <time>2024-01-12T15:31:21+01:00</time>
      </trkpt>
      <trkpt lat="43.60395" lon="3.73647">
        <ele>137</ele>
        <time>2024-01-12T15:31:40+01:00</time>
      </trkpt>
      <trkpt lat="43.60394" lon="3.7366">
        <ele>136</ele>
        <time>2024-01-12T15:31:49+01:00</time>
      </trkpt>
      <trkpt lat="43.60403" lon="3.73676">
        <ele>136</ele>
        <time>2024-01-12T15:32:10+01:00</time>
      </trkpt>
      <trkpt lat="43.60409" lon="3.73686">
        <ele>136</ele>
        <time>2024-01-12T15:32:28+01:00</time>
      </trkpt>
      <trkpt lat="43.6042" lon="3.73691">
        <ele>136</ele>
        <time>2024-01-12T15:32:48+01:00</time>
      </trkpt>
      <trkpt lat="43.6043" lon="3.73693">
        <ele>136</ele>
        <time>2024-01-12T15:35:36+01:00</time>
      </trkpt>
      <trkpt lat="43.60423" lon="3.73703">
        <ele>136</ele>
        <time>2024-01-12T15:36:20+01:00</time>
      </trkpt>
      <trkpt lat="43.60413" lon="3.73703">
        <ele>136</ele>
        <time>2024-01-12T15:37:34+01:00</time>
      </trkpt>
      <trkpt lat="43.60407" lon="3.73688">
        <ele>136</ele>
        <time>2024-01-12T15:37:43+01:00</time>
      </trkpt>
      <trkpt lat="43.60401" lon="3.73675">
        <ele>136</ele>
        <time>2024-01-12T15:38:16+01:00</time>
      </trkpt>
      <trkpt lat="43.60405" lon="3.73663">
        <ele>136</ele>
        <time>2024-01-12T15:38:26+01:00</time>
      </trkpt>
      <trkpt lat="43.60419" lon="3.73663">
        <ele>136</ele>
        <time>2024-01-12T15:38:40+01:00</time>
      </trkpt>
      <trkpt lat="43.60428" lon="3.73662">
        <ele>136</ele>
        <time>2024-01-12T15:39:04+01:00</time>
      </trkpt>
      <trkpt lat="43.60438" lon="3.7366">
        <ele>136</ele>
        <time>2024-01-12T15:39:28+01:00</time>
      </trkpt>
      <trkpt lat="43.60448" lon="3.73663">
        <ele>136</ele>
        <time>2024-01-12T15:39:42+01:00</time>
      </trkpt>
      <trkpt lat="43.60458" lon="3.73668">
        <ele>135</ele>
        <time>2024-01-12T15:39:52+01:00</time>
      </trkpt>
      <trkpt lat="43.60469" lon="3.73666">
        <ele>135</ele>
        <time>2024-01-12T15:40:10+01:00</time>
      </trkpt>
      <trkpt lat="43.60478" lon="3.7367">
        <ele>134</ele>
        <time>2024-01-12T15:40:19+01:00</time>
      </trkpt>
      <trkpt lat="43.60478" lon="3.73683">
        <ele>134</ele>
        <time>2024-01-12T15:40:29+01:00</time>
      </trkpt>
      <trkpt lat="43.60487" lon="3.73672">
        <ele>134</ele>
        <time>2024-01-12T15:41:31+01:00</time>
      </trkpt>
      <trkpt lat="43.60495" lon="3.73662">
        <ele>134</ele>
        <time>2024-01-12T15:41:44+01:00</time>
      </trkpt>
      <trkpt lat="43.60506" lon="3.73654">
        <ele>133</ele>
        <time>2024-01-12T15:42:03+01:00</time>
      </trkpt>
      <trkpt lat="43.60502" lon="3.73642">
        <ele>135</ele>
        <time>2024-01-12T15:42:17+01:00</time>
      </trkpt>
      <trkpt lat="43.60499" lon="3.73622">
        <ele>136</ele>
        <time>2024-01-12T15:42:31+01:00</time>
      </trkpt>
      <trkpt lat="43.605" lon="3.73609">
        <ele>136</ele>
        <time>2024-01-12T15:42:41+01:00</time>
      </trkpt>
      <trkpt lat="43.60502" lon="3.73592">
        <ele>136</ele>
        <time>2024-01-12T15:42:51+01:00</time>
      </trkpt>
      <trkpt lat="43.60505" lon="3.73573">
        <ele>136</ele>
        <time>2024-01-12T15:43:01+01:00</time>
      </trkpt>
      <trkpt lat="43.60507" lon="3.73556">
        <ele>137</ele>
        <time>2024-01-12T15:43:11+01:00</time>
      </trkpt>
      <trkpt lat="43.60501" lon="3.73543">
        <ele>137</ele>
        <time>2024-01-12T15:43:24+01:00</time>
      </trkpt>
      <trkpt lat="43.60509" lon="3.73528">
        <ele>137</ele>
        <time>2024-01-12T15:43:44+01:00</time>
      </trkpt>
      <trkpt lat="43.60513" lon="3.73515">
        <ele>137</ele>
        <time>2024-01-12T15:43:53+01:00</time>
      </trkpt>
      <trkpt lat="43.60518" lon="3.73503">
        <ele>138</ele>
        <time>2024-01-12T15:44:03+01:00</time>
      </trkpt>
      <trkpt lat="43.60522" lon="3.73484">
        <ele>138</ele>
        <time>2024-01-12T15:44:16+01:00</time>
      </trkpt>
      <trkpt lat="43.60524" lon="3.73471">
        <ele>138</ele>
        <time>2024-01-12T15:44:26+01:00</time>
      </trkpt>
      <trkpt lat="43.60529" lon="3.73458">
        <ele>139</ele>
        <time>2024-01-12T15:44:35+01:00</time>
      </trkpt>
      <trkpt lat="43.60539" lon="3.73453">
        <ele>139</ele>
        <time>2024-01-12T15:44:44+01:00</time>
      </trkpt>
      <trkpt lat="43.60549" lon="3.73454">
        <ele>139</ele>
        <time>2024-01-12T15:44:54+01:00</time>
      </trkpt>
      <trkpt lat="43.60561" lon="3.73453">
        <ele>138</ele>
        <time>2024-01-12T15:45:03+01:00</time>
      </trkpt>
      <trkpt lat="43.60571" lon="3.73456">
        <ele>138</ele>
        <time>2024-01-12T15:45:12+01:00</time>
      </trkpt>
      <trkpt lat="43.60584" lon="3.73464">
        <ele>137</ele>
        <time>2024-01-12T15:45:46+01:00</time>
      </trkpt>
      <trkpt lat="43.606" lon="3.73469">
        <ele>137</ele>
        <time>2024-01-12T15:45:57+01:00</time>
      </trkpt>
      <trkpt lat="43.60613" lon="3.73473">
        <ele>136</ele>
        <time>2024-01-12T15:46:07+01:00</time>
      </trkpt>
      <trkpt lat="43.60623" lon="3.73471">
        <ele>135</ele>
        <time>2024-01-12T15:46:16+01:00</time>
      </trkpt>
      <trkpt lat="43.60635" lon="3.73472">
        <ele>134</ele>
        <time>2024-01-12T15:46:30+01:00</time>
      </trkpt>
      <trkpt lat="43.60644" lon="3.73477">
        <ele>133</ele>
        <time>2024-01-12T15:46:39+01:00</time>
      </trkpt>
      <trkpt lat="43.60656" lon="3.73479">
        <ele>132</ele>
        <time>2024-01-12T15:46:48+01:00</time>
      </trkpt>
      <trkpt lat="43.60667" lon="3.73479">
        <ele>132</ele>
        <time>2024-01-12T15:46:58+01:00</time>
      </trkpt>
      <trkpt lat="43.60679" lon="3.73475">
        <ele>132</ele>
        <time>2024-01-12T15:47:12+01:00</time>
      </trkpt>
      <trkpt lat="43.60688" lon="3.73466">
        <ele>132</ele>
        <time>2024-01-12T15:47:22+01:00</time>
      </trkpt>
      <trkpt lat="43.60697" lon="3.73455">
        <ele>133</ele>
        <time>2024-01-12T15:47:31+01:00</time>
      </trkpt>
      <trkpt lat="43.60701" lon="3.73443">
        <ele>133</ele>
        <time>2024-01-12T15:47:40+01:00</time>
      </trkpt>
      <trkpt lat="43.60706" lon="3.73429">
        <ele>133</ele>
        <time>2024-01-12T15:47:50+01:00</time>
      </trkpt>
      <trkpt lat="43.6071" lon="3.73415">
        <ele>134</ele>
        <time>2024-01-12T15:47:59+01:00</time>
      </trkpt>
      <trkpt lat="43.60712" lon="3.73402">
        <ele>134</ele>
        <time>2024-01-12T15:48:08+01:00</time>
      </trkpt>
      <trkpt lat="43.6072" lon="3.7339">
        <ele>134</ele>
        <time>2024-01-12T15:48:18+01:00</time>
      </trkpt>
      <trkpt lat="43.60729" lon="3.7338">
        <ele>134</ele>
        <time>2024-01-12T15:48:27+01:00</time>
      </trkpt>
      <trkpt lat="43.6074" lon="3.73374">
        <ele>135</ele>
        <time>2024-01-12T15:48:37+01:00</time>
      </trkpt>
      <trkpt lat="43.60752" lon="3.73367">
        <ele>135</ele>
        <time>2024-01-12T15:48:46+01:00</time>
      </trkpt>
      <trkpt lat="43.60765" lon="3.73361">
        <ele>135</ele>
        <time>2024-01-12T15:48:56+01:00</time>
      </trkpt>
      <trkpt lat="43.60775" lon="3.73354">
        <ele>135</ele>
        <time>2024-01-12T15:49:05+01:00</time>
      </trkpt>
      <trkpt lat="43.60784" lon="3.7335">
        <ele>136</ele>
        <time>2024-01-12T15:49:15+01:00</time>
      </trkpt>
      <trkpt lat="43.60789" lon="3.73339">
        <ele>137</ele>
        <time>2024-01-12T15:49:29+01:00</time>
      </trkpt>
      <trkpt lat="43.60796" lon="3.73323">
        <ele>138</ele>
        <time>2024-01-12T15:49:38+01:00</time>
      </trkpt>
      <trkpt lat="43.60799" lon="3.73309">
        <ele>138</ele>
        <time>2024-01-12T15:49:47+01:00</time>
      </trkpt>
      <trkpt lat="43.60799" lon="3.7329">
        <ele>139</ele>
        <time>2024-01-12T15:49:57+01:00</time>
      </trkpt>
      <trkpt lat="43.60799" lon="3.73274">
        <ele>140</ele>
        <time>2024-01-12T15:50:06+01:00</time>
      </trkpt>
      <trkpt lat="43.60802" lon="3.73258">
        <ele>140</ele>
        <time>2024-01-12T15:50:15+01:00</time>
      </trkpt>
      <trkpt lat="43.608" lon="3.73244">
        <ele>141</ele>
        <time>2024-01-12T15:50:24+01:00</time>
      </trkpt>
    </trkseg>
  </trk>
</gpx>